Provisional Data: Driftwood Branch Sinnemahoning Creek


Please select a monitoring station.
Please select start date.
Please select start date.

Toggle Unit: C/F Toggle Unit: C/F
Sample Time Temperature (C) Temperature (F) Specific Conductivity (mS/cm) pH   Turbidity (NTU+) DO (mg/L)
12/23/2022 12:00:00 AM 0.91 33.638 0.066 6.78 3.79 13.97
12/23/2022 12:15:00 AM 0.93 33.674 0.07 6.76 3.13 13.96
12/23/2022 12:30:00 AM 0.96 33.728 0.068 6.76 4.13 13.94
12/23/2022 12:45:00 AM 0.97 33.746 0.067 6.75 4.53 13.92
12/23/2022 1:00:00 AM 0.99 33.782 0.072 6.74 4.15 13.91
12/23/2022 1:15:00 AM 1.02 33.836 0.074 6.74 4.59 13.89
12/23/2022 1:30:00 AM 1.04 33.872 0.074 6.73 4.86 13.87
12/23/2022 1:45:00 AM 1.07 33.926 0.073 6.72 5.45 13.85
12/23/2022 2:00:00 AM 1.09 33.962 0.072 6.73 6.34 13.83
12/23/2022 2:15:00 AM 1.11 33.998 0.068 6.75 7.68 13.81
12/23/2022 2:30:00 AM 1.12 34.016 0.072 6.72 7.69 13.8
12/23/2022 2:45:00 AM 1.13 34.034 0.073 6.75 8.39 13.79
12/23/2022 3:00:00 AM 1.15 34.07 0.074 6.71 9.18 13.77
12/23/2022 3:15:00 AM 1.16 34.088 0.076 6.71 9.62 13.77
12/23/2022 3:30:00 AM 1.17 34.106 0.076 6.71 10.24 13.75
12/23/2022 3:45:00 AM 1.18 34.124 0.076 6.72 11.01 13.74
12/23/2022 4:00:00 AM 1.2 34.16 0.077 6.72 11.49 13.73
12/23/2022 4:15:00 AM 1.21 34.178 0.076 6.72 11.86 13.73
12/23/2022 4:30:00 AM 1.21 34.178 0.076 6.72 12.44 13.72
12/23/2022 4:45:00 AM 1.22 34.196 0.075 6.74 12.87 13.71
12/23/2022 5:00:00 AM 1.22 34.196 0.07 6.82 13.47 13.71
12/23/2022 5:15:00 AM 1.24 34.232 0.069 6.74 13.78 13.7
12/23/2022 5:30:00 AM 1.24 34.232 0.07 6.72 14.33 13.7
12/23/2022 5:45:00 AM 1.25 34.25 0.073 6.74 14 13.69
12/23/2022 6:00:00 AM 1.26 34.268 0.071 6.7 13.84 13.68
12/23/2022 6:15:00 AM 1.29 34.322 0.068 6.71 13.36 13.67
12/23/2022 6:30:00 AM 1.32 34.376 0.067 6.71 13.17 13.66
12/23/2022 6:45:00 AM 1.35 34.43 0.07 6.72 12.85 13.63
12/23/2022 7:00:00 AM 1.39 34.502 0.07 6.71 12.23 13.61
12/23/2022 7:15:00 AM 1.43 34.574 0.067 6.71 11.81 13.6
12/23/2022 7:30:00 AM 1.46 34.628 0.066 6.72 11.66 13.58
12/23/2022 7:45:00 AM 1.5 34.7 0.066 6.7 11.3 13.56
12/23/2022 8:00:00 AM 1.54 34.772 0.067 6.72 11.68 13.54
12/23/2022 8:15:00 AM 1.58 34.844 0.068 6.71 11.03 13.52
12/23/2022 8:30:00 AM 1.61 34.898 0.066 6.71 10.42 13.52
12/23/2022 8:45:00 AM 1.62 34.916 0.06 6.73 10.57 13.5
12/23/2022 9:00:00 AM 1.65 34.97 0.065 6.73 10.17 13.52
12/23/2022 9:15:00 AM 1.66 34.988 0.065 6.73 10.02 13.53
12/23/2022 9:30:00 AM 1.67 35.006 0.065 6.73 9.95 13.55
12/23/2022 9:45:00 AM 1.65 34.97 0.065 6.74 9.84 13.59
12/23/2022 10:00:00 AM 1.65 34.97 0.06 6.76 10.31 13.61
12/23/2022 10:15:00 AM 1.66 34.988 0.066 6.76 9.58 13.65
12/23/2022 10:30:00 AM 1.64 34.952 0.06 6.77 9.78 13.66
12/23/2022 10:45:00 AM 1.61 34.898 0.06 6.77 9.6 13.7
12/23/2022 11:00:00 AM 1.58 34.844 0.066 6.79 9.39 13.73
12/23/2022 11:15:00 AM 1.56 34.808 0.066 6.9 9.18 13.76
12/23/2022 11:30:00 AM 1.49 34.682 0.066 6.8 9.3 13.79
12/23/2022 11:45:00 AM 1.46 34.628 0.065 6.8 9.49 13.84
12/23/2022 12:00:00 PM 1.4 34.52 0.065 6.8 9.51 13.85
12/23/2022 12:15:00 PM 1.32 34.376 0.065 6.8 9.21 13.9
12/23/2022 12:30:00 PM 1.3 34.34 0.065 6.83 9.15 13.94
12/23/2022 12:45:00 PM 1.22 34.196 0.06 6.81 9.63 13.99
12/23/2022 1:00:00 PM 1.14 34.052 0.066 6.8 8.68 14.04
12/23/2022 1:15:00 PM 1.08 33.944 0.067 6.84 8.59 14.07
12/23/2022 1:30:00 PM 1.02 33.836 0.06 6.84 8.88 14.12
12/23/2022 1:45:00 PM 0.96 33.728 0.06 6.85 8.7 14.16
12/23/2022 2:00:00 PM 0.89 33.602 0.064 6.85 8.09 14.18
12/23/2022 2:15:00 PM 0.81 33.458 0.059 6.84 8.43 14.22
12/23/2022 2:30:00 PM 0.73 33.314 0.064 6.82 7.93 14.25
12/23/2022 2:45:00 PM 0.64 33.152 0.058 6.85 7.77 14.27
12/23/2022 3:00:00 PM 0.56 33.008 0.064 6.82 7.74 14.28
12/23/2022 3:15:00 PM 0.45 32.81 0.063 6.81 7.52 14.29
12/23/2022 3:30:00 PM 0.34 32.612 0.063 6.78 7.46 14.31
12/23/2022 3:45:00 PM 0.24 32.432 0.062 6.79 7.31 14.32
12/23/2022 4:00:00 PM 0.17 32.306 0.057 6.77 7.84 14.33
12/23/2022 4:15:00 PM 0.12 32.216 0.057 6.76 7.63 14.35
12/23/2022 4:30:00 PM 0.06 32.108 0.057 6.74 7.67 14.36
12/23/2022 4:45:00 PM 0.01 32.018 0.061 6.74 7.36 14.36
12/23/2022 5:00:00 PM 0 32 0.056 6.73 7.7 14.37
12/23/2022 5:15:00 PM 0 32 0.056 6.79 7.37 14.39
12/23/2022 5:30:00 PM 0 32 0.056 6.71 7.44 14.4
12/23/2022 5:45:00 PM 0 32 0.061 6.65 7.18 14.41
12/23/2022 6:00:00 PM 0 32 0.055 6.67 7.42 14.42
12/23/2022 6:15:00 PM 0 32 0.061 6.61 7.91 14.42
12/23/2022 6:30:00 PM 0.01 32.018 0.041 6.75 12.35 14.4
12/23/2022 6:45:00 PM 0.01 32.018 0.041 6.82 11.06 14.42
12/23/2022 7:00:00 PM 0.01 32.018 0.05 6.81 18.35 14.43
12/23/2022 7:15:00 PM 0.01 32.018 0.053 6.86 17.59 14.43
12/23/2022 7:30:00 PM 0.01 32.018 0.047 6.93 9.89 14.44
12/23/2022 7:45:00 PM 0.01 32.018 0.043 6.91 12.42 14.44
12/23/2022 8:00:00 PM 0.01 32.018 0.044 6.92 13.35 14.44
12/23/2022 8:15:00 PM 0.01 32.018 0.044 6.89 12.11 14.44
12/23/2022 8:30:00 PM 0.01 32.018 0.044 6.88 11.77 14.44
12/23/2022 8:45:00 PM 0.01 32.018 0.045 6.87 13.95 14.44
12/23/2022 9:00:00 PM 0.01 32.018 0.045 6.87 12.14 14.44
12/23/2022 9:15:00 PM 0.01 32.018 0.05 6.86 7.6 14.45
12/23/2022 9:30:00 PM 0.01 32.018 0.045 6.86 10.81 14.45
12/23/2022 9:45:00 PM 0.01 32.018 0.05 6.86 7.45 14.45
12/23/2022 10:00:00 PM 0.01 32.018 0.05 6.85 7.5 14.45
12/23/2022 10:15:00 PM 0.01 32.018 0.05 6.85 7.37 14.45
12/23/2022 10:30:00 PM 0.01 32.018 0.046 6.85 7.09 14.46
12/23/2022 10:45:00 PM 0.01 32.018 0.044 6.86 10.31 14.45
12/23/2022 11:00:00 PM 0.01 32.018 0.043 6.85 7.32 14.46
12/23/2022 11:15:00 PM 0.01 32.018 0.044 6.86 9.89 14.46
12/23/2022 11:30:00 PM 0.01 32.018 0.044 6.89 10.72 14.46
12/23/2022 11:45:00 PM 0.01 32.018 0.05 6.9 7.03 14.47
12/24/2022 12:00:00 AM 0.01 32.018 0.049 6.91 6.98 14.47
12/24/2022 12:15:00 AM 0.01 32.018 0.048 6.92 6.6 14.47
12/24/2022 12:30:00 AM 0.01 32.018 0.045 6.93 6.68 14.47
12/24/2022 12:45:00 AM 0.01 32.018 0.039 6.94 7.04 14.47
12/24/2022 1:00:00 AM 0.01 32.018 0.038 6.94 7.23 14.47
12/24/2022 1:15:00 AM 0.01 32.018 0.038 6.93 7.25 14.46
12/24/2022 1:30:00 AM 0.01 32.018 0.037 6.92 7.32 14.46
12/24/2022 1:45:00 AM 0.01 32.018 0.034 6.91 8.46 14.46
12/24/2022 2:00:00 AM 0.01 32.018 0.034 6.91 8.32 14.46
12/24/2022 2:15:00 AM 0.01 32.018 0.037 6.91 7.02 14.47
12/24/2022 2:30:00 AM 0.01 32.018 0.037 6.91 6.9 14.47
12/24/2022 2:45:00 AM 0.01 32.018 0.037 6.92 6.98 14.47
12/24/2022 3:00:00 AM 0.01 32.018 0.033 6.92 8.34 14.46
12/24/2022 3:15:00 AM 0.01 32.018 0.037 6.94 6.74 14.47
12/24/2022 3:30:00 AM 0.02 32.036 0.033 6.94 8.53 14.45
12/24/2022 3:45:00 AM 0.01 32.018 0.037 6.95 6.99 14.46
12/24/2022 4:00:00 AM 0.01 32.018 0.034 6.92 8.17 14.46
12/24/2022 4:15:00 AM 0.01 32.018 0.037 6.9 6.95 14.46
12/24/2022 4:30:00 AM 0.01 32.018 0.034 6.89 7.93 14.46
12/24/2022 4:45:00 AM 0.01 32.018 0.038 6.87 6.6 14.47
12/24/2022 5:00:00 AM 0.01 32.018 0.038 6.87 6.48 14.47
12/24/2022 5:15:00 AM 0.01 32.018 0.038 6.87 6.47 14.47
12/24/2022 5:30:00 AM 0.01 32.018 0.035 6.85 8.32 14.47
12/24/2022 5:45:00 AM 0.01 32.018 0.035 6.86 7.87 14.47
12/24/2022 6:00:00 AM 0.01 32.018 0.039 6.9 6.57 14.48
12/24/2022 6:15:00 AM 0.01 32.018 0.039 6.89 6.49 14.48
12/24/2022 6:30:00 AM 0.01 32.018 0.039 6.91 6.56 14.48
12/24/2022 6:45:00 AM 0.01 32.018 0.039 6.91 6.62 14.48
12/24/2022 7:00:00 AM 0.02 32.036 0.036 6.89 8.06 14.48
12/24/2022 7:15:00 AM 0.01 32.018 0.036 6.86 7.93 14.47
12/24/2022 7:30:00 AM 0.01 32.018 0.04 6.87 6.48 14.49
12/24/2022 7:45:00 AM 0.01 32.018 0.04 6.88 6.41 14.5
12/24/2022 8:00:00 AM 0.01 32.018 0.036 6.87 7.55 14.51
12/24/2022 8:15:00 AM 0.01 32.018 0.04 6.9 6.34 14.55
12/24/2022 8:30:00 AM 0.01 32.018 0.036 6.9 7.79 14.6
12/24/2022 8:45:00 AM 0.01 32.018 0.037 6.9 7.31 14.61
12/24/2022 9:00:00 AM 0.01 32.018 0.041 6.92 6.23 14.63
12/24/2022 9:15:00 AM 0.01 32.018 0.037 6.91 7.34 14.64
12/24/2022 9:30:00 AM 0.01 32.018 0.041 6.93 6.21 14.66
12/24/2022 9:45:00 AM 0.01 32.018 0.037 6.93 7.19 14.69
12/24/2022 10:00:00 AM 0.01 32.018 0.036 6.94 7.18 14.7
12/24/2022 10:15:00 AM 0.01 32.018 0.041 6.94 6.31 14.73
12/24/2022 10:30:00 AM 0.01 32.018 0.041 6.95 6.46 14.75
12/24/2022 10:45:00 AM 0.01 32.018 0.037 6.95 7.71 14.75
12/24/2022 11:00:00 AM 0.01 32.018 0.041 6.96 6.48 14.76
12/24/2022 11:15:00 AM 0.01 32.018 0.041 6.96 6.45 14.77
12/24/2022 11:30:00 AM 0.01 32.018 0.037 6.96 7.72 14.77
12/24/2022 11:45:00 AM 0.01 32.018 0.037 6.96 7.57 14.77
12/24/2022 12:00:00 PM 0.01 32.018 0.041 6.97 6.7 14.78
12/24/2022 12:15:00 PM 0.01 32.018 0.037 6.96 7.28 14.78
12/24/2022 12:30:00 PM 0.01 32.018 0.041 6.97 6.45 14.78
12/24/2022 12:45:00 PM 0.01 32.018 0.036 6.96 6.99 14.78
12/24/2022 1:00:00 PM 0.01 32.018 0.037 6.96 7.11 14.77
12/24/2022 1:15:00 PM 0.01 32.018 0.041 6.96 6.45 14.78
12/24/2022 1:30:00 PM 0.01 32.018 0.041 6.94 6.67 14.78
12/24/2022 1:45:00 PM 0.01 32.018 0.041 6.96 6.6 14.78
12/24/2022 2:00:00 PM 0.01 32.018 0.041 6.95 6.58 14.78
12/24/2022 2:15:00 PM 0.01 32.018 0.037 6.95 7.62 14.77
12/24/2022 2:30:00 PM 0.01 32.018 0.042 6.95 7.07 14.76
12/24/2022 2:45:00 PM 0.01 32.018 0.042 6.95 7.18 14.76
12/24/2022 3:00:00 PM 0.01 32.018 0.037 6.95 7.45 14.76
12/24/2022 3:15:00 PM 0.01 32.018 0.042 6.95 6.81 14.75
12/24/2022 3:30:00 PM 0.01 32.018 0.038 6.94 7.44 14.74
12/24/2022 3:45:00 PM 0.01 32.018 0.039 6.94 7.34 14.74
12/24/2022 4:00:00 PM 0.01 32.018 0.043 6.94 6.64 14.72
12/24/2022 4:15:00 PM 0.01 32.018 0.043 6.94 6.62 14.7
12/24/2022 4:30:00 PM 0.01 32.018 0.039 6.92 7.02 14.66
12/24/2022 4:45:00 PM 0.01 32.018 0.04 6.91 7.13 14.63
12/24/2022 5:00:00 PM 0.01 32.018 0.044 6.91 6.75 14.59
12/24/2022 5:15:00 PM 0.01 32.018 0.045 6.9 7.21 14.57
12/24/2022 5:30:00 PM 0.01 32.018 0.045 6.88 7.2 14.53
12/24/2022 5:45:00 PM 0.01 32.018 0.041 6.88 7.6 14.51
12/24/2022 6:00:00 PM 0.01 32.018 0.041 6.87 7.63 14.5
12/24/2022 6:15:00 PM 0.01 32.018 0.04 6.86 7.34 14.48
12/24/2022 6:30:00 PM 0.01 32.018 0.046 6.86 7.01 14.47
12/24/2022 6:45:00 PM 0.01 32.018 0.046 6.86 7.15 14.47
12/24/2022 7:00:00 PM 0.01 32.018 0.046 6.86 7.03 14.47
12/24/2022 7:15:00 PM 0.01 32.018 0.041 6.85 7.27 14.46
12/24/2022 7:30:00 PM 0.01 32.018 0.046 6.85 6.95 14.46
12/24/2022 7:45:00 PM 0.01 32.018 0.046 6.85 6.99 14.46
12/24/2022 8:00:00 PM 0.01 32.018 0.042 6.85 7.1 14.47
12/24/2022 8:15:00 PM 0.01 32.018 0.041 6.85 6.74 14.47
12/24/2022 8:30:00 PM 0.01 32.018 0.046 6.86 6.6 14.47
12/24/2022 8:45:00 PM 0.01 32.018 0.046 6.86 6.65 14.46
12/24/2022 9:00:00 PM 0.01 32.018 0.046 6.86 6.5 14.47
12/24/2022 9:15:00 PM 0.01 32.018 0.046 6.86 6.61 14.48
12/24/2022 9:30:00 PM 0.01 32.018 0.046 6.86 6.36 14.48
12/24/2022 9:45:00 PM 0.01 32.018 0.042 6.85 6.36 14.48
12/24/2022 10:00:00 PM 0.01 32.018 0.047 6.85 6.19 14.48
12/24/2022 10:15:00 PM 0.01 32.018 0.043 6.85 6.23 14.48
12/24/2022 10:30:00 PM 0.01 32.018 0.043 6.84 6.04 14.49
12/24/2022 10:45:00 PM 0.01 32.018 0.043 6.85 6.05 14.48
12/24/2022 11:00:00 PM 0.01 32.018 0.047 6.86 5.98 14.49
12/24/2022 11:15:00 PM 0.01 32.018 0.047 6.86 5.93 14.48
12/24/2022 11:30:00 PM 0.01 32.018 0.047 6.86 5.81 14.49
12/24/2022 11:45:00 PM 0.01 32.018 0.043 6.85 5.8 14.49
12/25/2022 12:00:00 AM 0.01 32.018 0.047 6.85 6.01 14.48
12/25/2022 12:15:00 AM 0.01 32.018 0.047 6.86 5.92 14.48
12/25/2022 12:30:00 AM 0.01 32.018 0.043 6.85 5.79 14.48
12/25/2022 12:45:00 AM 0.01 32.018 0.047 6.86 5.71 14.49
12/25/2022 1:00:00 AM 0.01 32.018 0.043 6.85 5.69 14.47
12/25/2022 1:15:00 AM 0.01 32.018 0.047 6.86 5.91 14.47
12/25/2022 1:30:00 AM 0.01 32.018 0.043 6.85 5.72 14.46
12/25/2022 1:45:00 AM 0.01 32.018 0.048 6.86 5.77 14.47
12/25/2022 2:00:00 AM 0.01 32.018 0.048 6.86 5.85 14.46
12/25/2022 2:15:00 AM 0.01 32.018 0.043 6.86 5.64 14.45
12/25/2022 2:30:00 AM 0.01 32.018 0.048 6.87 5.8 14.45
12/25/2022 2:45:00 AM 0.01 32.018 0.048 6.86 5.29 14.45
12/25/2022 3:00:00 AM 0.01 32.018 0.043 6.85 5.59 14.45
12/25/2022 3:15:00 AM 0.01 32.018 0.043 6.85 5.58 14.46
12/25/2022 3:30:00 AM 0.01 32.018 0.048 6.86 5.76 14.45
12/25/2022 3:45:00 AM 0.01 32.018 0.048 6.86 5.75 14.45
12/25/2022 4:00:00 AM 0.01 32.018 0.048 6.86 5.6 14.45
12/25/2022 4:15:00 AM 0.01 32.018 0.043 6.84 5.4 14.44
12/25/2022 4:30:00 AM 0.01 32.018 0.043 6.84 5.61 14.45
12/25/2022 4:45:00 AM 0.01 32.018 0.047 6.85 6.39 14.45
12/25/2022 5:00:00 AM 0.01 32.018 0.048 6.85 6.11 14.45
12/25/2022 5:15:00 AM 0.01 32.018 0.048 6.85 5.99 14.44
12/25/2022 5:30:00 AM 0.01 32.018 0.043 6.84 5.45 14.45
12/25/2022 5:45:00 AM 0.01 32.018 0.048 6.85 5.71 14.44
12/25/2022 6:00:00 AM 0.01 32.018 0.044 6.84 5.63 14.44
12/25/2022 6:15:00 AM 0.01 32.018 0.048 6.85 6.02 14.42
12/25/2022 6:30:00 AM 0.01 32.018 0.048 6.85 5.58 14.43
12/25/2022 6:45:00 AM 0.01 32.018 0.048 6.85 5.23 14.43
12/25/2022 7:00:00 AM 0.01 32.018 0.044 6.84 5.6 14.43
12/25/2022 7:15:00 AM 0.01 32.018 0.044 6.84 5.58 14.42
12/25/2022 7:30:00 AM 0.01 32.018 0.048 6.85 5.35 14.42
12/25/2022 7:45:00 AM 0.01 32.018 0.048 6.85 5.43 14.42
12/25/2022 8:00:00 AM 0.01 32.018 0.049 6.86 5.55 14.43
12/25/2022 8:15:00 AM 0.01 32.018 0.049 6.86 5.18 14.44
12/25/2022 8:30:00 AM 0.01 32.018 0.044 6.84 5.29 14.46
12/25/2022 8:45:00 AM 0.01 32.018 0.044 6.84 5.25 14.48
12/25/2022 9:00:00 AM 0.01 32.018 0.044 6.86 5.45 14.52
12/25/2022 9:15:00 AM 0.01 32.018 0.049 6.89 5.15 14.55
12/25/2022 9:30:00 AM 0.01 32.018 0.049 6.9 5.25 14.58
12/25/2022 9:45:00 AM 0.01 32.018 0.049 6.91 5.41 14.62
12/25/2022 10:00:00 AM 0.01 32.018 0.048 6.93 5.32 14.65
12/25/2022 10:15:00 AM 0.01 32.018 0.044 6.92 5.75 14.66
12/25/2022 10:30:00 AM 0.01 32.018 0.044 6.93 5.63 14.68
12/25/2022 10:45:00 AM 0.01 32.018 0.049 6.94 5.21 14.69
12/25/2022 11:00:00 AM 0.01 32.018 0.049 6.95 4.96 14.7
12/25/2022 11:15:00 AM 0.01 32.018 0.049 6.95 5.38 14.7
12/25/2022 11:30:00 AM 0.01 32.018 0.048 6.96 5.53 14.72
12/25/2022 11:45:00 AM 0.01 32.018 0.048 6.96 5.38 14.71
12/25/2022 12:00:00 PM 0.02 32.036 0.044 6.95 8.59 14.7
12/25/2022 12:15:00 PM 0.06 32.108 0.045 6.96 7.22 14.72
12/25/2022 12:30:00 PM 0.08 32.144 0.049 6.96 6.85 14.72
12/25/2022 12:45:00 PM 0.18 32.324 0.045 6.91 6.27 14.72
12/25/2022 1:00:00 PM 0.23 32.414 0.05 6.83 4.44 14.71
12/25/2022 1:15:00 PM 0.27 32.486 0.05 6.7 4.2 14.71
12/25/2022 1:30:00 PM 0.3 32.54 0.05 6.72 3.95 14.7
12/25/2022 1:45:00 PM 0.32 32.576 0.05 6.74 3.84 14.69
12/25/2022 2:00:00 PM 0.34 32.612 0.05 6.74 3.59 14.68
12/25/2022 2:15:00 PM 0.35 32.63 0.05 6.74 3.47 14.68
12/25/2022 2:30:00 PM 0.36 32.648 0.047 6.74 4.17 14.67
12/25/2022 2:45:00 PM 0.36 32.648 0.05 6.73 3.28 14.66
12/25/2022 3:00:00 PM 0.38 32.684 0.047 6.75 3.81 14.66
12/25/2022 3:15:00 PM 0.37 32.666 0.05 6.72 3.24 14.65
12/25/2022 3:30:00 PM 0.37 32.666 0.05 6.71 3.19 14.64
12/25/2022 3:45:00 PM 0.38 32.684 0.05 6.69 3.2 14.63
12/25/2022 4:00:00 PM 0.38 32.684 0.05 6.71 3.14 14.62
12/25/2022 4:15:00 PM 0.37 32.666 0.05 6.69 3.12 14.61
12/25/2022 4:30:00 PM 0.37 32.666 0.05 6.69 3.02 14.59
12/25/2022 4:45:00 PM 0.36 32.648 0.05 6.68 3.04 14.54
12/25/2022 5:00:00 PM 0.35 32.63 0.047 6.69 3.79 14.5
12/25/2022 5:15:00 PM 0.34 32.612 0.05 6.66 3.05 14.47
12/25/2022 5:30:00 PM 0.34 32.612 0.048 6.67 3.73 14.45
12/25/2022 5:45:00 PM 0.33 32.594 0.051 6.64 3.04 14.43
12/25/2022 6:00:00 PM 0.32 32.576 0.051 6.64 2.97 14.43
12/25/2022 6:15:00 PM 0.32 32.576 0.048 6.66 3.61 14.42
12/25/2022 6:30:00 PM 0.31 32.558 0.051 6.65 2.98 14.42
12/25/2022 6:45:00 PM 0.31 32.558 0.048 6.65 3.61 14.41
12/25/2022 7:00:00 PM 0.3 32.54 0.051 6.63 2.97 14.41
12/25/2022 7:15:00 PM 0.3 32.54 0.048 6.65 3.53 14.41
12/25/2022 7:30:00 PM 0.29 32.522 0.051 6.64 2.83 14.41
12/25/2022 7:45:00 PM 0.28 32.504 0.051 6.64 2.9 14.42
12/25/2022 8:00:00 PM 0.27 32.486 0.051 6.62 2.89 14.42
12/25/2022 8:15:00 PM 0.26 32.468 0.048 6.63 3.64 14.43
12/25/2022 8:30:00 PM 0.26 32.468 0.051 6.61 2.93 14.43
12/25/2022 8:45:00 PM 0.26 32.468 0.048 6.63 3.5 14.44
12/25/2022 9:00:00 PM 0.26 32.468 0.051 6.61 2.85 14.44
12/25/2022 9:15:00 PM 0.25 32.45 0.048 6.63 3.49 14.44
12/25/2022 9:30:00 PM 0.25 32.45 0.051 6.61 2.89 14.45
12/25/2022 9:45:00 PM 0.23 32.414 0.051 6.6 2.83 14.46
12/25/2022 10:00:00 PM 0.23 32.414 0.048 6.62 3.45 14.46
12/25/2022 10:15:00 PM 0.22 32.396 0.051 6.61 2.85 14.47
12/25/2022 10:30:00 PM 0.2 32.36 0.048 6.65 3.55 14.48
12/25/2022 10:45:00 PM 0.2 32.36 0.051 6.61 2.86 14.48
12/25/2022 11:00:00 PM 0.19 32.342 0.048 6.64 3.63 14.49
12/25/2022 11:15:00 PM 0.19 32.342 0.051 6.61 2.77 14.49
12/25/2022 11:30:00 PM 0.17 32.306 0.051 6.62 2.78 14.5
12/25/2022 11:45:00 PM 0.17 32.306 0.048 6.63 3.4 14.5
12/26/2022 12:00:00 AM 0.17 32.306 0.051 6.62 2.74 14.51
12/26/2022 12:15:00 AM 0.17 32.306 0.048 6.63 3.37 14.52
12/26/2022 12:30:00 AM 0.17 32.306 0.048 6.63 3.44 14.52
12/26/2022 12:45:00 AM 0.16 32.288 0.051 6.63 2.74 14.52
12/26/2022 1:00:00 AM 0.15 32.27 0.051 6.61 2.71 14.53
12/26/2022 1:15:00 AM 0.15 32.27 0.048 6.64 3.32 14.53
12/26/2022 1:30:00 AM 0.14 32.252 0.051 6.62 2.72 14.53
12/26/2022 1:45:00 AM 0.13 32.234 0.051 6.62 2.72 14.54
12/26/2022 2:00:00 AM 0.12 32.216 0.048 6.64 3.45 14.54
12/26/2022 2:15:00 AM 0.12 32.216 0.049 6.63 3.44 14.55
12/26/2022 2:30:00 AM 0.11 32.198 0.048 6.63 3.37 14.57
12/26/2022 2:45:00 AM 0.1 32.18 0.051 6.61 2.78 14.56
12/26/2022 3:00:00 AM 0.1 32.18 0.052 6.62 2.73 14.56
12/26/2022 3:15:00 AM 0.09 32.162 0.048 6.64 3.44 14.57
12/26/2022 3:30:00 AM 0.09 32.162 0.048 6.64 3.32 14.58
12/26/2022 3:45:00 AM 0.08 32.144 0.051 6.61 2.63 14.59
12/26/2022 4:00:00 AM 0.08 32.144 0.051 6.61 2.66 14.59
12/26/2022 4:15:00 AM 0.07 32.126 0.048 6.62 3.37 14.59
12/26/2022 4:30:00 AM 0.06 32.108 0.048 6.64 3.39 14.6
12/26/2022 4:45:00 AM 0.05 32.09 0.051 6.62 2.67 14.6
12/26/2022 5:00:00 AM 0.05 32.09 0.051 6.62 2.65 14.61
12/26/2022 5:15:00 AM 0.04 32.072 0.048 6.64 3.32 14.61
12/26/2022 5:30:00 AM 0.04 32.072 0.051 6.62 2.61 14.62
12/26/2022 5:45:00 AM 0.03 32.054 0.048 6.64 3.33 14.62
12/26/2022 6:00:00 AM 0.02 32.036 0.051 6.61 2.62 14.62
12/26/2022 6:15:00 AM 0.02 32.036 0.051 6.61 2.58 14.62
12/26/2022 6:30:00 AM 0.02 32.036 0.051 6.61 2.59 14.63
12/26/2022 6:45:00 AM 0.02 32.036 0.048 6.63 3.27 14.63
12/26/2022 7:00:00 AM 0.01 32.018 0.051 6.61 2.57 14.64
12/26/2022 7:15:00 AM 0.01 32.018 0.048 6.64 3.25 14.64
12/26/2022 7:30:00 AM 0.01 32.018 0.051 6.62 2.56 14.65
12/26/2022 7:45:00 AM 0.01 32.018 0.048 6.63 3.25 14.65
12/26/2022 8:00:00 AM 0 32 0.051 6.65 2.48 14.67
12/26/2022 8:15:00 AM 0 32 0.051 6.66 2.52 14.7
12/26/2022 8:30:00 AM 0.01 32.018 0.048 6.69 3.26 14.74
12/26/2022 8:45:00 AM 0.01 32.018 0.048 6.69 3.11 14.77
12/26/2022 9:00:00 AM 0.02 32.036 0.048 6.69 3.15 14.81
12/26/2022 9:15:00 AM 0.03 32.054 0.051 6.69 2.43 14.85
12/26/2022 9:30:00 AM 0.04 32.072 0.051 6.68 2.42 14.88
12/26/2022 9:45:00 AM 0.05 32.09 0.051 6.7 2.46 14.92
12/26/2022 10:00:00 AM 0.06 32.108 0.051 6.7 2.45 14.94
12/26/2022 10:15:00 AM 0.08 32.144 0.048 6.72 3.08 14.96
12/26/2022 10:30:00 AM 0.09 32.162 0.051 6.72 2.43 14.98
12/26/2022 10:45:00 AM 0.11 32.198 0.048 6.73 3.11 14.98
12/26/2022 11:00:00 AM 0.13 32.234 0.051 6.73 2.47 14.99
12/26/2022 11:15:00 AM 0.16 32.288 0.051 6.74 2.44 14.99
12/26/2022 11:30:00 AM 0.19 32.342 0.05 6.73 2.44 14.99
12/26/2022 11:45:00 AM 0.21 32.378 0.048 6.74 3.14 14.99
12/26/2022 12:00:00 PM 0.22 32.396 0.047 6.73 3.13 14.98
12/26/2022 12:15:00 PM 0.24 32.432 0.047 6.73 3.27 14.97
12/26/2022 12:30:00 PM 0.26 32.468 0.05 6.72 2.57 14.96
12/26/2022 12:45:00 PM 0.27 32.486 0.047 6.72 3.28 14.95
12/26/2022 1:00:00 PM 0.28 32.504 0.05 6.71 2.64 14.94
12/26/2022 1:15:00 PM 0.3 32.54 0.047 6.73 3.31 14.93
12/26/2022 1:30:00 PM 0.3 32.54 0.05 6.73 2.81 14.92
12/26/2022 1:45:00 PM 0.32 32.576 0.047 6.74 3.43 14.91
12/26/2022 2:00:00 PM 0.33 32.594 0.05 6.72 2.85 14.9
12/26/2022 2:15:00 PM 0.34 32.612 0.047 6.73 3.59 14.88
12/26/2022 2:30:00 PM 0.34 32.612 0.05 6.74 2.87 14.87
12/26/2022 2:45:00 PM 0.35 32.63 0.047 6.76 3.49 14.85
12/26/2022 3:00:00 PM 0.36 32.648 0.05 6.74 2.93 14.84
12/26/2022 3:15:00 PM 0.36 32.648 0.05 6.73 2.89 14.83
12/26/2022 3:30:00 PM 0.36 32.648 0.05 6.73 2.78 14.81
12/26/2022 3:45:00 PM 0.35 32.63 0.05 6.72 2.85 14.78
12/26/2022 4:00:00 PM 0.35 32.63 0.047 6.74 3.6 14.74
12/26/2022 4:15:00 PM 0.35 32.63 0.05 6.7 2.85 14.71
12/26/2022 4:30:00 PM 0.34 32.612 0.05 6.7 2.77 14.67
12/26/2022 4:45:00 PM 0.35 32.63 0.05 6.69 2.73 14.64
12/26/2022 5:00:00 PM 0.32 32.576 0.05 6.68 2.79 14.6
12/26/2022 5:15:00 PM 0.34 32.612 0.05 6.67 2.74 14.58
12/26/2022 5:30:00 PM 0.33 32.594 0.05 6.67 2.73 14.56
12/26/2022 5:45:00 PM 0.32 32.576 0.047 6.66 3.44 14.53
12/26/2022 6:00:00 PM 0.32 32.576 0.051 6.66 2.76 14.52
12/26/2022 6:15:00 PM 0.31 32.558 0.051 6.65 2.63 14.52
12/26/2022 6:30:00 PM 0.3 32.54 0.048 6.66 3.32 14.51
12/26/2022 6:45:00 PM 0.28 32.504 0.051 6.64 2.68 14.51
12/26/2022 7:00:00 PM 0.28 32.504 0.05 6.65 2.65 14.51
12/26/2022 7:15:00 PM 0.28 32.504 0.048 6.65 3.49 14.52
12/26/2022 7:30:00 PM 0.27 32.486 0.048 6.65 3.35 14.52
12/26/2022 7:45:00 PM 0.26 32.468 0.051 6.63 2.64 14.52
12/26/2022 8:00:00 PM 0.26 32.468 0.051 6.63 2.6 14.53
12/26/2022 8:15:00 PM 0.25 32.45 0.048 6.65 3.39 14.53
12/26/2022 8:30:00 PM 0.25 32.45 0.048 6.65 3.28 14.53
12/26/2022 8:45:00 PM 0.25 32.45 0.051 6.63 2.54 14.53
12/26/2022 9:00:00 PM 0.24 32.432 0.051 6.64 2.6 14.53
12/26/2022 9:15:00 PM 0.24 32.432 0.051 6.64 2.6 14.53
12/26/2022 9:30:00 PM 0.24 32.432 0.051 6.64 2.57 14.52
12/26/2022 9:45:00 PM 0.23 32.414 0.048 6.66 3.42 14.54
12/26/2022 10:00:00 PM 0.23 32.414 0.048 6.65 3.4 14.53
12/26/2022 10:15:00 PM 0.23 32.414 0.051 6.64 2.66 14.53
12/26/2022 10:30:00 PM 0.23 32.414 0.051 6.64 2.63 14.54
12/26/2022 10:45:00 PM 0.23 32.414 0.048 6.65 3.39 14.54
12/26/2022 11:00:00 PM 0.23 32.414 0.048 6.65 3.38 14.54
12/26/2022 11:15:00 PM 0.22 32.396 0.048 6.65 3.43 14.54
12/26/2022 11:30:00 PM 0.23 32.414 0.051 6.64 2.76 14.54
12/26/2022 11:45:00 PM 0.23 32.414 0.051 6.64 2.74 14.53
12/27/2022 12:00:00 AM 0.23 32.414 0.048 6.64 3.42 14.54
12/27/2022 12:15:00 AM 0.23 32.414 0.051 6.63 2.72 14.53
12/27/2022 12:30:00 AM 0.23 32.414 0.048 6.65 3.49 14.54
12/27/2022 12:45:00 AM 0.23 32.414 0.048 6.65 3.32 14.53
12/27/2022 1:00:00 AM 0.22 32.396 0.051 6.64 2.73 14.53
12/27/2022 1:15:00 AM 0.22 32.396 0.048 6.64 3.4 14.53
12/27/2022 1:30:00 AM 0.22 32.396 0.048 6.64 3.36 14.53
12/27/2022 1:45:00 AM 0.22 32.396 0.048 6.66 3.36 14.53
12/27/2022 2:00:00 AM 0.22 32.396 0.051 6.65 2.68 14.53
12/27/2022 2:15:00 AM 0.23 32.414 0.051 6.63 2.8 14.52
12/27/2022 2:30:00 AM 0.22 32.396 0.048 6.65 3.37 14.54
12/27/2022 2:45:00 AM 0.2 32.36 0.048 6.66 3.39 14.54
12/27/2022 3:00:00 AM 0.19 32.342 0.048 6.65 3.3 14.53
12/27/2022 3:15:00 AM 0.19 32.342 0.051 6.65 2.62 14.54
12/27/2022 3:30:00 AM 0.2 32.36 0.048 6.66 3.23 14.54
12/27/2022 3:45:00 AM 0.2 32.36 0.048 6.65 3.22 14.54
12/27/2022 4:00:00 AM 0.2 32.36 0.048 6.66 3.27 14.55
12/27/2022 4:15:00 AM 0.2 32.36 0.051 6.65 2.58 14.54
12/27/2022 4:30:00 AM 0.2 32.36 0.051 6.65 2.61 14.55
12/27/2022 4:45:00 AM 0.21 32.378 0.048 6.65 3.24 14.54
12/27/2022 5:00:00 AM 0.21 32.378 0.048 6.66 3.33 14.54
12/27/2022 5:15:00 AM 0.21 32.378 0.051 6.64 2.57 14.55
12/27/2022 5:30:00 AM 0.21 32.378 0.048 6.66 3.21 14.55
12/27/2022 5:45:00 AM 0.21 32.378 0.051 6.65 2.58 14.55
12/27/2022 6:00:00 AM 0.21 32.378 0.048 6.66 3.22 14.55
12/27/2022 6:15:00 AM 0.21 32.378 0.048 6.66 3.2 14.55
12/27/2022 6:30:00 AM 0.21 32.378 0.048 6.66 3.05 14.55
12/27/2022 6:45:00 AM 0.21 32.378 0.051 6.64 2.59 14.55
12/27/2022 7:00:00 AM 0.22 32.396 0.051 6.64 2.6 14.55
12/27/2022 7:15:00 AM 0.22 32.396 0.051 6.64 2.59 14.55
12/27/2022 7:30:00 AM 0.22 32.396 0.048 6.65 3.27 14.55
12/27/2022 7:45:00 AM 0.22 32.396 0.051 6.65 2.61 14.55
12/27/2022 8:00:00 AM 0.22 32.396 0.051 6.66 2.6 14.56
12/27/2022 8:15:00 AM 0.23 32.414 0.048 6.67 3.24 14.59
12/27/2022 8:30:00 AM 0.23 32.414 0.051 6.65 2.53 14.62
12/27/2022 8:45:00 AM 0.24 32.432 0.051 6.66 2.6 14.64
12/27/2022 9:00:00 AM 0.25 32.45 0.051 6.69 2.54 14.68
12/27/2022 9:15:00 AM 0.25 32.45 0.051 6.7 2.51 14.73
12/27/2022 9:30:00 AM 0.26 32.468 0.051 6.7 2.6 14.74
12/27/2022 9:45:00 AM 0.27 32.486 0.051 6.7 2.66 14.78
12/27/2022 10:00:00 AM 0.28 32.504 0.051 6.72 2.7 14.8
12/27/2022 10:15:00 AM 0.29 32.522 0.048 6.74 3.31 14.82
12/27/2022 10:30:00 AM 0.3 32.54 0.05 6.73 2.8 14.83
12/27/2022 10:45:00 AM 0.31 32.558 0.05 6.73 2.93 14.85
12/27/2022 11:00:00 AM 0.33 32.594 0.047 6.76 3.51 14.87
12/27/2022 11:15:00 AM 0.33 32.594 0.05 6.74 2.95 14.88
12/27/2022 11:30:00 AM 0.35 32.63 0.047 6.77 3.66 14.87
12/27/2022 11:45:00 AM 0.36 32.648 0.047 6.78 3.77 14.88
12/27/2022 12:00:00 PM 0.37 32.666 0.05 6.77 3.07 14.88
12/27/2022 12:15:00 PM 0.39 32.702 0.05 6.76 3.3 14.88
12/27/2022 12:30:00 PM 0.42 32.756 0.05 6.76 3.53 14.88
12/27/2022 12:45:00 PM 0.42 32.756 0.05 6.77 3.74 14.87
12/27/2022 1:00:00 PM 0.43 32.774 0.05 6.78 3.56 14.87
12/27/2022 1:15:00 PM 0.44 32.792 0.05 6.78 3.55 14.86
12/27/2022 1:30:00 PM 0.47 32.846 0.05 6.77 3.37 14.85
12/27/2022 1:45:00 PM 0.47 32.846 0.047 6.8 4.02 14.84
12/27/2022 2:00:00 PM 0.47 32.846 0.05 6.77 3.47 14.82
12/27/2022 2:15:00 PM 0.48 32.864 0.052 6.79 4.18 14.81
12/27/2022 2:30:00 PM 0.49 32.882 0.051 6.78 3.41 14.8
12/27/2022 2:45:00 PM 0.49 32.882 0.048 6.8 3.91 14.78
12/27/2022 3:00:00 PM 0.5 32.9 0.051 6.77 3.42 14.77
12/27/2022 3:15:00 PM 0.51 32.918 0.048 6.79 3.83 14.75
12/27/2022 3:30:00 PM 0.51 32.918 0.051 6.76 3.38 14.72
12/27/2022 3:45:00 PM 0.52 32.936 0.05 6.76 3.35 14.71
12/27/2022 4:00:00 PM 0.52 32.936 0.05 6.76 3.28 14.69
12/27/2022 4:15:00 PM 0.52 32.936 0.051 6.76 3.29 14.66
12/27/2022 4:30:00 PM 0.52 32.936 0.048 6.77 3.88 14.63
12/27/2022 4:45:00 PM 0.53 32.954 0.051 6.74 3.35 14.59
12/27/2022 5:00:00 PM 0.53 32.954 0.051 6.75 3.31 14.54
12/27/2022 5:15:00 PM 0.53 32.954 0.048 6.74 3.91 14.5
12/27/2022 5:30:00 PM 0.53 32.954 0.051 6.73 3.25 14.47
12/27/2022 5:45:00 PM 0.53 32.954 0.048 6.73 3.92 14.44
12/27/2022 6:00:00 PM 0.54 32.972 0.051 6.72 3.15 14.43
12/27/2022 6:15:00 PM 0.54 32.972 0.051 6.72 3.14 14.41
12/27/2022 6:30:00 PM 0.55 32.99 0.048 6.72 3.7 14.4
12/27/2022 6:45:00 PM 0.55 32.99 0.051 6.7 3.07 14.39
12/27/2022 7:00:00 PM 0.55 32.99 0.051 6.71 3.08 14.39
12/27/2022 7:15:00 PM 0.56 33.008 0.048 6.73 3.73 14.38
12/27/2022 7:30:00 PM 0.57 33.026 0.051 6.71 3 14.38
12/27/2022 7:45:00 PM 0.57 33.026 0.048 6.72 3.62 14.37
12/27/2022 8:00:00 PM 0.58 33.044 0.051 6.7 2.93 14.37
12/27/2022 8:15:00 PM 0.58 33.044 0.051 6.7 2.99 14.37
12/27/2022 8:30:00 PM 0.58 33.044 0.051 6.71 3.07 14.37
12/27/2022 8:45:00 PM 0.58 33.044 0.051 6.7 3.16 14.37
12/27/2022 9:00:00 PM 0.59 33.062 0.051 6.7 3.12 14.36
12/27/2022 9:15:00 PM 0.59 33.062 0.051 6.72 3.15 14.36
12/27/2022 9:30:00 PM 0.6 33.08 0.051 6.72 3.06 14.36
12/27/2022 9:45:00 PM 0.61 33.098 0.048 6.73 3.68 14.35
12/27/2022 10:00:00 PM 0.61 33.098 0.051 6.7 3.02 14.35
12/27/2022 10:15:00 PM 0.62 33.116 0.051 6.7 3 14.35
12/27/2022 10:30:00 PM 0.62 33.116 0.048 6.73 3.75 14.35
12/27/2022 10:45:00 PM 0.62 33.116 0.052 6.72 2.92 14.35
12/27/2022 11:00:00 PM 0.63 33.134 0.052 6.71 2.91 14.35
12/27/2022 11:15:00 PM 0.64 33.152 0.049 6.73 3.61 14.34
12/27/2022 11:30:00 PM 0.64 33.152 0.048 6.73 3.47 14.34
12/27/2022 11:45:00 PM 0.64 33.152 0.049 6.72 3.53 14.34
12/28/2022 12:00:00 AM 0.65 33.17 0.049 6.72 3.51 14.33
12/28/2022 12:15:00 AM 0.65 33.17 0.049 6.72 3.5 14.33
12/28/2022 12:30:00 AM 0.65 33.17 0.051 6.72 2.67 14.32
12/28/2022 12:45:00 AM 0.66 33.188 0.051 6.72 2.68 14.33
12/28/2022 1:00:00 AM 0.67 33.206 0.048 6.71 3.41 14.32
12/28/2022 1:15:00 AM 0.68 33.224 0.048 6.72 3.41 14.32
12/28/2022 1:30:00 AM 0.69 33.242 0.051 6.71 2.59 14.31
12/28/2022 1:45:00 AM 0.69 33.242 0.048 6.72 3.38 14.31
12/28/2022 2:00:00 AM 0.71 33.278 0.051 6.71 2.65 14.31
12/28/2022 2:15:00 AM 0.71 33.278 0.051 6.7 2.71 14.3
12/28/2022 2:30:00 AM 0.72 33.296 0.051 6.7 2.68 14.3
12/28/2022 2:45:00 AM 0.73 33.314 0.05 6.72 2.87 14.3
12/28/2022 3:00:00 AM 0.72 33.296 0.048 6.72 3.33 14.3
12/28/2022 3:15:00 AM 0.71 33.278 0.051 6.7 2.74 14.3
12/28/2022 3:30:00 AM 0.7 33.26 0.048 6.71 3.36 14.3
12/28/2022 3:45:00 AM 0.69 33.242 0.051 6.71 2.59 14.31
12/28/2022 4:00:00 AM 0.67 33.206 0.051 6.71 2.54 14.31
12/28/2022 4:15:00 AM 0.66 33.188 0.051 6.69 2.49 14.31
12/28/2022 4:30:00 AM 0.65 33.17 0.048 6.71 3.22 14.32
12/28/2022 4:45:00 AM 0.64 33.152 0.051 6.71 2.51 14.32
12/28/2022 5:00:00 AM 0.63 33.134 0.048 6.71 3.24 14.33
12/28/2022 5:15:00 AM 0.61 33.098 0.051 6.7 2.49 14.33
12/28/2022 5:30:00 AM 0.59 33.062 0.048 6.71 3.19 14.34
12/28/2022 5:45:00 AM 0.57 33.026 0.048 6.71 3.21 14.35
12/28/2022 6:00:00 AM 0.56 33.008 0.051 6.69 2.49 14.36
12/28/2022 6:15:00 AM 0.54 32.972 0.051 6.69 2.46 14.37
12/28/2022 6:30:00 AM 0.53 32.954 0.051 6.69 2.44 14.38
12/28/2022 6:45:00 AM 0.51 32.918 0.051 6.69 2.48 14.38
12/28/2022 7:00:00 AM 0.49 32.882 0.051 6.69 2.39 14.39
12/28/2022 7:15:00 AM 0.47 32.846 0.048 6.71 3.24 14.39
12/28/2022 7:30:00 AM 0.45 32.81 0.051 6.7 2.49 14.41
12/28/2022 7:45:00 AM 0.44 32.792 0.051 6.71 2.44 14.43
12/28/2022 8:00:00 AM 0.42 32.756 0.051 6.7 2.49 14.46
12/28/2022 8:15:00 AM 0.4 32.72 0.048 6.72 3.05 14.51
12/28/2022 8:30:00 AM 0.4 32.72 0.051 6.72 2.37 14.57
12/28/2022 8:45:00 AM 0.4 32.72 0.051 6.74 2.32 14.63
12/28/2022 9:00:00 AM 0.41 32.738 0.051 6.75 2.35 14.69
12/28/2022 9:15:00 AM 0.43 32.774 0.051 6.77 2.28 14.74
12/28/2022 9:30:00 AM 0.44 32.792 0.048 6.79 3.04 14.78
12/28/2022 9:45:00 AM 0.46 32.828 0.048 6.79 2.96 14.81
12/28/2022 10:00:00 AM 0.53 32.954 0.051 6.78 2.24 14.85
12/28/2022 10:15:00 AM 0.56 33.008 0.051 6.78 2.23 14.85
12/28/2022 10:30:00 AM 0.6 33.08 0.048 6.81 2.92 14.86
12/28/2022 10:45:00 AM 0.69 33.242 0.048 6.82 2.88 14.87
12/28/2022 11:00:00 AM 0.76 33.368 0.048 6.83 2.87 14.87
12/28/2022 11:15:00 AM 0.81 33.458 0.051 6.82 2.11 14.86
12/28/2022 11:30:00 AM 0.85 33.53 0.048 6.83 2.84 14.85
12/28/2022 11:45:00 AM 0.88 33.584 0.048 6.84 2.82 14.84
12/28/2022 12:00:00 PM 0.95 33.71 0.051 6.82 2.14 14.82
12/28/2022 12:15:00 PM 1.04 33.872 0.048 6.83 2.88 14.79
12/28/2022 12:30:00 PM 1.14 34.052 0.048 6.84 3.05 14.76
12/28/2022 12:45:00 PM 1.22 34.196 0.047 6.84 2.83 14.72
12/28/2022 1:00:00 PM 1.3 34.34 0.05 6.85 2.2 14.69
12/28/2022 1:15:00 PM 1.37 34.466 0.05 6.85 2.17 14.67
12/28/2022 1:30:00 PM 1.4 34.52 0.05 6.86 2.43 14.64
12/28/2022 1:45:00 PM 1.46 34.628 0.05 6.86 2.21 14.61
12/28/2022 2:00:00 PM 1.5 34.7 0.05 6.86 2.23 14.6
12/28/2022 2:15:00 PM 1.51 34.718 0.05 6.86 2.26 14.58
12/28/2022 2:30:00 PM 1.52 34.736 0.05 6.87 2.33 14.57
12/28/2022 2:45:00 PM 1.54 34.772 0.047 6.87 3.17 14.55
12/28/2022 3:00:00 PM 1.57 34.826 0.05 6.88 2.47 14.53
12/28/2022 3:15:00 PM 1.59 34.862 0.05 6.87 2.46 14.52
12/28/2022 3:30:00 PM 1.59 34.862 0.05 6.9 2.51 14.48
12/28/2022 3:45:00 PM 1.6 34.88 0.05 6.92 2.49 14.47
12/28/2022 4:00:00 PM 1.59 34.862 0.051 6.93 2.71 14.44
12/28/2022 4:15:00 PM 1.6 34.88 0.051 6.92 2.71 14.39
12/28/2022 4:30:00 PM 1.58 34.844 0.051 6.9 2.65 14.34
12/28/2022 4:45:00 PM 1.56 34.808 0.051 6.89 2.61 14.29
12/28/2022 5:00:00 PM 1.54 34.772 0.051 6.87 2.53 14.23
12/28/2022 5:15:00 PM 1.51 34.718 0.051 6.85 2.56 14.2
12/28/2022 5:30:00 PM 1.48 34.664 0.051 6.83 2.53 14.15
12/28/2022 5:45:00 PM 1.45 34.61 0.051 6.84 2.51 14.13
12/28/2022 6:00:00 PM 1.41 34.538 0.051 6.82 2.78 14.13
12/28/2022 6:15:00 PM 1.39 34.502 0.051 6.81 2.68 14.11
12/28/2022 6:30:00 PM 1.36 34.448 0.051 6.81 2.54 14.12
12/28/2022 6:45:00 PM 1.33 34.394 0.051 6.81 2.53 14.12
12/28/2022 7:00:00 PM 1.3 34.34 0.051 6.8 2.53 14.12
12/28/2022 7:15:00 PM 1.28 34.304 0.051 6.8 2.53 14.12
12/28/2022 7:30:00 PM 1.26 34.268 0.051 6.79 2.5 14.12
12/28/2022 7:45:00 PM 1.22 34.196 0.048 6.8 3.29 14.13
12/28/2022 8:00:00 PM 1.2 34.16 0.051 6.79 2.56 14.14
12/28/2022 8:15:00 PM 1.18 34.124 0.052 6.79 2.56 14.14
12/28/2022 8:30:00 PM 1.15 34.07 0.051 6.79 2.46 14.16
12/28/2022 8:45:00 PM 1.13 34.034 0.052 6.79 2.46 14.16
12/28/2022 9:00:00 PM 1.11 33.998 0.052 6.79 2.5 14.17
12/28/2022 9:15:00 PM 1.08 33.944 0.049 6.79 3.19 14.19
12/28/2022 9:30:00 PM 1.06 33.908 0.052 6.78 2.47 14.18
12/28/2022 9:45:00 PM 1.03 33.854 0.049 6.78 3.18 14.19
12/28/2022 10:00:00 PM 1.01 33.818 0.049 6.79 3.15 14.2
12/28/2022 10:15:00 PM 0.99 33.782 0.049 6.79 3.18 14.21
12/28/2022 10:30:00 PM 0.96 33.728 0.052 6.78 2.5 14.22
12/28/2022 10:45:00 PM 0.94 33.692 0.052 6.78 2.42 14.23
12/28/2022 11:00:00 PM 0.92 33.656 0.049 6.79 3.25 14.24
12/28/2022 11:15:00 PM 0.9 33.62 0.052 6.78 2.53 14.25
12/28/2022 11:30:00 PM 0.88 33.584 0.049 6.77 3.15 14.26
12/28/2022 11:45:00 PM 0.85 33.53 0.052 6.77 2.44 14.26
12/29/2022 12:00:00 AM 0.83 33.494 0.049 6.78 3.14 14.28
12/29/2022 12:15:00 AM 0.81 33.458 0.049 6.79 3.16 14.28
12/29/2022 12:30:00 AM 0.8 33.44 0.049 6.78 3.11 14.29
12/29/2022 12:45:00 AM 0.78 33.404 0.052 6.78 2.48 14.3
12/29/2022 1:00:00 AM 0.76 33.368 0.049 6.78 3.05 14.3
12/29/2022 1:15:00 AM 0.74 33.332 0.052 6.77 2.37 14.31
12/29/2022 1:30:00 AM 0.72 33.296 0.049 6.78 3.11 14.32
12/29/2022 1:45:00 AM 0.71 33.278 0.052 6.77 2.36 14.32
12/29/2022 2:00:00 AM 0.69 33.242 0.049 6.77 3.07 14.33
12/29/2022 2:15:00 AM 0.67 33.206 0.049 6.78 3.12 14.33
12/29/2022 2:30:00 AM 0.66 33.188 0.049 6.78 3.12 14.34
12/29/2022 2:45:00 AM 0.64 33.152 0.052 6.77 2.41 14.35
12/29/2022 3:00:00 AM 0.62 33.116 0.052 6.76 2.38 14.35
12/29/2022 3:15:00 AM 0.6 33.08 0.052 6.76 2.36 14.36
12/29/2022 3:30:00 AM 0.59 33.062 0.052 6.77 2.38 14.36
12/29/2022 3:45:00 AM 0.57 33.026 0.052 6.78 2.35 14.37
12/29/2022 4:00:00 AM 0.54 32.972 0.052 6.76 2.39 14.39
12/29/2022 4:15:00 AM 0.51 32.918 0.052 6.76 2.34 14.39
12/29/2022 4:30:00 AM 0.49 32.882 0.052 6.76 2.4 14.4
12/29/2022 4:45:00 AM 0.46 32.828 0.049 6.77 3.13 14.42
12/29/2022 5:00:00 AM 0.43 32.774 0.049 6.77 3.06 14.43
12/29/2022 5:15:00 AM 0.41 32.738 0.052 6.76 2.34 14.44
12/29/2022 5:30:00 AM 0.38 32.684 0.049 6.77 3.14 14.45
12/29/2022 5:45:00 AM 0.35 32.63 0.049 6.76 3 14.46
12/29/2022 6:00:00 AM 0.33 32.594 0.049 6.77 3 14.48
12/29/2022 6:15:00 AM 0.3 32.54 0.052 6.76 2.32 14.49
12/29/2022 6:30:00 AM 0.28 32.504 0.049 6.78 3.09 14.5
12/29/2022 6:45:00 AM 0.25 32.45 0.049 6.77 2.98 14.52
12/29/2022 7:00:00 AM 0.23 32.414 0.049 6.76 3.02 14.53
12/29/2022 7:15:00 AM 0.21 32.378 0.049 6.77 2.95 14.54
12/29/2022 7:30:00 AM 0.18 32.324 0.053 6.76 2.24 14.55
12/29/2022 7:45:00 AM 0.16 32.288 0.05 6.76 3.06 14.57
12/29/2022 8:00:00 AM 0.15 32.27 0.05 6.78 2.98 14.6
12/29/2022 8:15:00 AM 0.14 32.252 0.05 6.78 3.04 14.64
12/29/2022 8:30:00 AM 0.14 32.252 0.053 6.79 2.24 14.71
12/29/2022 8:45:00 AM 0.14 32.252 0.05 6.81 2.95 14.78
12/29/2022 9:00:00 AM 0.16 32.288 0.052 6.82 2.17 14.84
12/29/2022 9:15:00 AM 0.17 32.306 0.049 6.83 2.91 14.88
12/29/2022 9:30:00 AM 0.18 32.324 0.049 6.83 2.89 14.92
12/29/2022 9:45:00 AM 0.21 32.378 0.052 6.83 2.17 14.95
12/29/2022 10:00:00 AM 0.26 32.468 0.049 6.85 2.88 14.98
12/29/2022 10:15:00 AM 0.32 32.576 0.049 6.85 2.78 14.99
12/29/2022 10:30:00 AM 0.41 32.738 0.049 6.86 2.75 15
12/29/2022 10:45:00 AM 0.46 32.828 0.049 6.87 2.79 15
12/29/2022 11:00:00 AM 0.53 32.954 0.052 6.88 2.12 15
12/29/2022 11:15:00 AM 0.61 33.098 0.052 6.88 2.1 14.98
12/29/2022 11:30:00 AM 0.69 33.242 0.052 6.89 2.09 14.97
12/29/2022 11:45:00 AM 0.76 33.368 0.049 6.89 2.74 14.97
12/29/2022 12:00:00 PM 0.84 33.512 0.049 6.9 2.76 14.95
12/29/2022 12:15:00 PM 0.93 33.674 0.052 6.9 2.06 14.93
12/29/2022 12:30:00 PM 1.03 33.854 0.051 6.9 2 14.9
12/29/2022 12:45:00 PM 1.08 33.944 0.048 6.91 2.71 14.87
12/29/2022 1:00:00 PM 1.13 34.034 0.051 6.9 2.04 14.83
12/29/2022 1:15:00 PM 1.22 34.196 0.048 6.92 2.84 14.81
12/29/2022 1:30:00 PM 1.29 34.322 0.051 6.91 2.05 14.77
12/29/2022 1:45:00 PM 1.37 34.466 0.051 6.92 2.06 14.74
12/29/2022 2:00:00 PM 1.45 34.61 0.051 6.92 2.01 14.7
12/29/2022 2:15:00 PM 1.5 34.7 0.051 6.92 2.01 14.67
12/29/2022 2:30:00 PM 1.56 34.808 0.048 6.93 2.73 14.62
12/29/2022 2:45:00 PM 1.61 34.898 0.051 6.92 2.05 14.58
12/29/2022 3:00:00 PM 1.68 35.024 0.048 6.94 2.41 14.54
12/29/2022 3:15:00 PM 1.73 35.114 0.051 6.94 2.05 14.5
12/29/2022 3:30:00 PM 1.76 35.168 0.051 6.93 2.06 14.46
12/29/2022 3:45:00 PM 1.78 35.204 0.053 6.93 2.15 14.42
12/29/2022 4:00:00 PM 1.79 35.222 0.052 6.91 2.23 14.37
12/29/2022 4:15:00 PM 1.82 35.276 0.049 6.93 2.93 14.31
12/29/2022 4:30:00 PM 1.84 35.312 0.052 6.91 2.22 14.25
12/29/2022 4:45:00 PM 1.86 35.348 0.052 6.88 2.19 14.18
12/29/2022 5:00:00 PM 1.89 35.402 0.049 6.89 2.89 14.12
12/29/2022 5:15:00 PM 1.89 35.402 0.052 6.87 2.23 14.07
12/29/2022 5:30:00 PM 1.87 35.366 0.052 6.86 2.22 14.03
12/29/2022 5:45:00 PM 1.87 35.366 0.052 6.85 2.21 14
12/29/2022 6:00:00 PM 1.87 35.366 0.052 6.85 2.17 13.98
12/29/2022 6:15:00 PM 1.87 35.366 0.052 6.84 2.23 13.96
12/29/2022 6:30:00 PM 1.86 35.348 0.052 6.84 2.18 13.95
12/29/2022 6:45:00 PM 1.86 35.348 0.049 6.84 2.94 13.94
12/29/2022 7:00:00 PM 1.86 35.348 0.052 6.83 2.29 13.94
12/29/2022 7:15:00 PM 1.86 35.348 0.052 6.82 2.27 13.93
12/29/2022 7:30:00 PM 1.86 35.348 0.052 6.82 2.18 13.93
12/29/2022 7:45:00 PM 1.86 35.348 0.052 6.82 2.21 13.93
12/29/2022 8:00:00 PM 1.86 35.348 0.052 6.81 2.2 13.93
12/29/2022 8:15:00 PM 1.86 35.348 0.052 6.81 2.16 13.93
12/29/2022 8:30:00 PM 1.85 35.33 0.052 6.8 2.2 13.93
12/29/2022 8:45:00 PM 1.85 35.33 0.052 6.81 2.17 13.92
12/29/2022 9:00:00 PM 1.85 35.33 0.049 6.82 2.91 13.93
12/29/2022 9:15:00 PM 1.87 35.366 0.052 6.81 2.22 13.91
12/29/2022 9:30:00 PM 1.86 35.348 0.049 6.81 2.92 13.92
12/29/2022 9:45:00 PM 1.87 35.366 0.052 6.8 2.24 13.92
12/29/2022 10:00:00 PM 1.86 35.348 0.049 6.8 2.95 13.92
12/29/2022 10:15:00 PM 1.88 35.384 0.052 6.81 2.26 13.92
12/29/2022 10:30:00 PM 1.88 35.384 0.049 6.81 3 13.92
12/29/2022 10:45:00 PM 1.89 35.402 0.053 6.8 2.26 13.91
12/29/2022 11:00:00 PM 1.91 35.438 0.052 6.8 2.19 13.91
12/29/2022 11:15:00 PM 1.91 35.438 0.052 6.8 2.29 13.91
12/29/2022 11:30:00 PM 1.9 35.42 0.052 6.8 2.26 13.91
12/29/2022 11:45:00 PM 1.92 35.456 0.052 6.8 2.29 13.9
12/30/2022 12:00:00 AM 1.91 35.438 0.052 6.8 2.26 13.91
12/30/2022 12:15:00 AM 1.94 35.492 0.052 6.79 2.29 13.9
12/30/2022 12:30:00 AM 1.93 35.474 0.052 6.78 2.24 13.9
12/30/2022 12:45:00 AM 1.95 35.51 0.053 6.79 2.25 13.89
12/30/2022 1:00:00 AM 1.95 35.51 0.052 6.8 2.24 13.89
12/30/2022 1:15:00 AM 1.96 35.528 0.052 6.79 2.26 13.89
12/30/2022 1:30:00 AM 1.95 35.51 0.052 6.79 2.36 13.9
12/30/2022 1:45:00 AM 1.96 35.528 0.052 6.79 2.29 13.9
12/30/2022 2:00:00 AM 1.96 35.528 0.052 6.79 2.27 13.89
12/30/2022 2:15:00 AM 1.96 35.528 0.052 6.79 2.24 13.89
12/30/2022 2:30:00 AM 1.97 35.546 0.052 6.79 2.24 13.89
12/30/2022 2:45:00 AM 1.99 35.582 0.053 6.79 2.27 13.88
12/30/2022 3:00:00 AM 1.98 35.564 0.049 6.79 2.95 13.88
12/30/2022 3:15:00 AM 1.97 35.546 0.052 6.79 2.35 13.88
12/30/2022 3:30:00 AM 1.96 35.528 0.052 6.78 2.46 13.88
12/30/2022 3:45:00 AM 1.96 35.528 0.052 6.79 2.45 13.88
12/30/2022 4:00:00 AM 1.96 35.528 0.052 6.78 2.36 13.88
12/30/2022 4:15:00 AM 1.96 35.528 0.053 6.78 2.41 13.88
12/30/2022 4:30:00 AM 1.97 35.546 0.052 6.78 2.35 13.88
12/30/2022 4:45:00 AM 1.97 35.546 0.052 6.78 2.37 13.88
12/30/2022 5:00:00 AM 1.97 35.546 0.052 6.78 2.38 13.88
12/30/2022 5:15:00 AM 1.98 35.564 0.049 6.78 3.02 13.88
12/30/2022 5:30:00 AM 2 35.6 0.052 6.78 2.36 13.87
12/30/2022 5:45:00 AM 2 35.6 0.052 6.78 2.36 13.88
12/30/2022 6:00:00 AM 2.02 35.636 0.052 6.77 2.31 13.86
12/30/2022 6:15:00 AM 2.01 35.618 0.052 6.79 2.36 13.87
12/30/2022 6:30:00 AM 2.02 35.636 0.052 6.78 2.39 13.86
12/30/2022 6:45:00 AM 2.03 35.654 0.052 6.78 2.33 13.86
12/30/2022 7:00:00 AM 2.04 35.672 0.052 6.78 2.34 13.86
12/30/2022 7:15:00 AM 2.03 35.654 0.052 6.78 2.4 13.86
12/30/2022 7:30:00 AM 2.04 35.672 0.053 6.77 2.39 13.86
12/30/2022 7:45:00 AM 2.05 35.69 0.052 6.78 2.4 13.86
12/30/2022 8:00:00 AM 2.06 35.708 0.053 6.78 2.4 13.87
12/30/2022 8:15:00 AM 2.06 35.708 0.052 6.78 2.46 13.89
12/30/2022 8:30:00 AM 2.06 35.708 0.052 6.8 2.4 13.92
12/30/2022 8:45:00 AM 2.08 35.744 0.052 6.8 2.32 13.96
12/30/2022 9:00:00 AM 2.1 35.78 0.052 6.81 2.32 14.02
12/30/2022 9:15:00 AM 2.13 35.834 0.053 6.82 2.31 14.07
12/30/2022 9:30:00 AM 2.17 35.906 0.053 6.84 2.29 14.11
12/30/2022 9:45:00 AM 2.19 35.942 0.053 6.84 2.31 14.17
12/30/2022 10:00:00 AM 2.23 36.014 0.054 6.86 2.27 14.21
12/30/2022 10:15:00 AM 2.27 36.086 0.054 6.87 2.27 14.25
12/30/2022 10:30:00 AM 2.32 36.176 0.051 6.88 2.92 14.28
12/30/2022 10:45:00 AM 2.4 36.32 0.051 6.89 2.89 14.29
12/30/2022 11:00:00 AM 2.46 36.428 0.052 6.9 2.96 14.3
12/30/2022 11:15:00 AM 2.56 36.608 0.057 6.91 2.25 14.3
12/30/2022 11:30:00 AM 2.62 36.716 0.057 6.91 2.25 14.29
12/30/2022 11:45:00 AM 2.68 36.824 0.055 6.93 2.35 14.27
12/30/2022 12:00:00 PM 2.72 36.896 0.055 6.93 2.28 14.26
12/30/2022 12:15:00 PM 2.75 36.95 0.054 6.94 2.36 14.24
12/30/2022 12:30:00 PM 2.77 36.986 0.054 6.94 2.33 14.23
12/30/2022 12:45:00 PM 2.79 37.022 0.054 6.94 2.34 14.22
12/30/2022 1:00:00 PM 2.84 37.112 0.053 6.94 2.4 14.21
12/30/2022 1:15:00 PM 2.93 37.274 0.054 6.95 2.47 14.19
12/30/2022 1:30:00 PM 2.98 37.364 0.05 6.96 3.21 14.16
12/30/2022 1:45:00 PM 2.99 37.382 0.053 6.95 2.49 14.14
12/30/2022 2:00:00 PM 3.01 37.418 0.053 6.96 2.53 14.13
12/30/2022 2:15:00 PM 3.04 37.472 0.053 6.95 2.51 14.11
12/30/2022 2:30:00 PM 3.07 37.526 0.053 6.96 2.58 14.09
12/30/2022 2:45:00 PM 3.03 37.454 0.053 6.95 2.68 14.06
12/30/2022 3:00:00 PM 3.04 37.472 0.053 6.96 2.75 14.05
12/30/2022 3:15:00 PM 3.05 37.49 0.053 6.95 2.76 14.02
12/30/2022 3:30:00 PM 3.03 37.454 0.054 6.95 2.94 13.99
12/30/2022 3:45:00 PM 3 37.4 0.05 6.95 3.55 13.96
12/30/2022 4:00:00 PM 2.97 37.346 0.053 6.93 2.94 13.94
12/30/2022 4:15:00 PM 2.93 37.274 0.053 6.93 2.99 13.91
12/30/2022 4:30:00 PM 2.87 37.166 0.053 6.91 3.06 13.87
12/30/2022 4:45:00 PM 2.82 37.076 0.053 6.88 3.1 13.83
12/30/2022 5:00:00 PM 2.77 36.986 0.053 6.87 3.11 13.77
12/30/2022 5:15:00 PM 2.72 36.896 0.053 6.86 3.14 13.72
12/30/2022 5:30:00 PM 2.66 36.788 0.053 6.83 3.31 13.69
12/30/2022 5:45:00 PM 2.62 36.716 0.053 6.82 3.21 13.67
12/30/2022 6:00:00 PM 2.55 36.59 0.05 6.82 3.82 13.66
12/30/2022 6:15:00 PM 2.5 36.5 0.053 6.8 3.2 13.65
12/30/2022 6:30:00 PM 2.46 36.428 0.054 6.79 3.29 13.66
12/30/2022 6:45:00 PM 2.41 36.338 0.05 6.82 4.08 13.66
12/30/2022 7:00:00 PM 2.36 36.248 0.054 6.79 3.42 13.67
12/30/2022 7:15:00 PM 2.32 36.176 0.054 6.79 3.46 13.68
12/30/2022 7:30:00 PM 2.27 36.086 0.051 6.79 4.05 13.68
12/30/2022 7:45:00 PM 2.24 36.032 0.054 6.78 3.58 13.7
12/30/2022 8:00:00 PM 2.2 35.96 0.055 6.78 3.57 13.71
12/30/2022 8:15:00 PM 2.17 35.906 0.055 6.78 3.76 13.72
12/30/2022 8:30:00 PM 2.14 35.852 0.055 6.77 3.83 13.73
12/30/2022 8:45:00 PM 2.12 35.816 0.055 6.77 3.75 13.74
12/30/2022 9:00:00 PM 2.1 35.78 0.055 6.76 3.85 13.75
12/30/2022 9:15:00 PM 2.06 35.708 0.055 6.76 3.88 13.76
12/30/2022 9:30:00 PM 2.06 35.708 0.055 6.76 3.92 13.76
12/30/2022 9:45:00 PM 2.03 35.654 0.055 6.76 4.01 13.77
12/30/2022 10:00:00 PM 2.03 35.654 0.052 6.77 4.51 13.77
12/30/2022 10:15:00 PM 2.01 35.618 0.055 6.75 4.04 13.78
12/30/2022 10:30:00 PM 1.99 35.582 0.055 6.76 3.96 13.79
12/30/2022 10:45:00 PM 2 35.6 0.056 6.75 3.99 13.78
12/30/2022 11:00:00 PM 1.99 35.582 0.056 6.76 4.03 13.79
12/30/2022 11:15:00 PM 1.99 35.582 0.056 6.76 3.97 13.79
12/30/2022 11:30:00 PM 1.99 35.582 0.056 6.76 4 13.79
12/30/2022 11:45:00 PM 2 35.6 0.056 6.76 3.97 13.79
12/31/2022 12:00:00 AM 2.01 35.618 0.056 6.8 3.86 13.79
12/31/2022 12:15:00 AM 2.01 35.618 0.055 6.75 3.96 13.79
12/31/2022 12:30:00 AM 2.03 35.654 0.056 6.76 3.85 13.78
12/31/2022 12:45:00 AM 2.03 35.654 0.052 6.76 4.33 13.78
12/31/2022 1:00:00 AM 2.05 35.69 0.055 6.75 3.79 13.77
12/31/2022 1:15:00 AM 2.06 35.708 0.055 6.76 3.82 13.77
12/31/2022 1:30:00 AM 2.08 35.744 0.055 6.76 3.68 13.76
12/31/2022 1:45:00 AM 2.09 35.762 0.055 6.76 3.75 13.75
12/31/2022 2:00:00 AM 2.11 35.798 0.055 6.75 3.73 13.74
12/31/2022 2:15:00 AM 2.12 35.816 0.055 6.75 3.67 13.73
12/31/2022 2:30:00 AM 2.13 35.834 0.055 6.75 3.68 13.72
12/31/2022 2:45:00 AM 2.15 35.87 0.055 6.75 3.64 13.71
12/31/2022 3:00:00 AM 2.17 35.906 0.055 6.76 3.65 13.7
12/31/2022 3:15:00 AM 2.18 35.924 0.055 6.75 3.54 13.7
12/31/2022 3:30:00 AM 2.19 35.942 0.055 6.75 3.4 13.69
12/31/2022 3:45:00 AM 2.2 35.96 0.055 6.76 3.49 13.69
12/31/2022 4:00:00 AM 2.22 35.996 0.055 6.76 3.48 13.67
12/31/2022 4:15:00 AM 2.23 36.014 0.055 6.76 3.43 13.67
12/31/2022 4:30:00 AM 2.25 36.05 0.055 6.76 3.31 13.66
12/31/2022 4:45:00 AM 2.27 36.086 0.052 6.77 3.95 13.65
12/31/2022 5:00:00 AM 2.28 36.104 0.055 6.76 3.26 13.64
12/31/2022 5:15:00 AM 2.3 36.14 0.052 6.77 3.84 13.63
12/31/2022 5:30:00 AM 2.31 36.158 0.055 6.76 3.26 13.62
12/31/2022 5:45:00 AM 2.33 36.194 0.056 6.76 3.29 13.62
12/31/2022 6:00:00 AM 2.35 36.23 0.052 6.78 3.92 13.61
12/31/2022 6:15:00 AM 2.37 36.266 0.052 6.77 3.94 13.6
12/31/2022 6:30:00 AM 2.39 36.302 0.056 6.76 3.19 13.59
12/31/2022 6:45:00 AM 2.41 36.338 0.052 6.77 3.87 13.59
12/31/2022 7:00:00 AM 2.42 36.356 0.052 6.77 3.87 13.57
12/31/2022 7:15:00 AM 2.44 36.392 0.056 6.77 3.09 13.57
12/31/2022 7:30:00 AM 2.46 36.428 0.053 6.78 3.73 13.57
12/31/2022 7:45:00 AM 2.48 36.464 0.053 6.77 3.83 13.56
12/31/2022 8:00:00 AM 2.5 36.5 0.056 6.77 3.15 13.57
12/31/2022 8:15:00 AM 2.51 36.518 0.056 6.77 3.12 13.59
12/31/2022 8:30:00 AM 2.53 36.554 0.053 6.8 3.8 13.63
12/31/2022 8:45:00 AM 2.55 36.59 0.056 6.8 3.06 13.67
12/31/2022 9:00:00 AM 2.58 36.644 0.056 6.81 3.02 13.71
12/31/2022 9:15:00 AM 2.61 36.698 0.056 6.82 2.94 13.75
12/31/2022 9:30:00 AM 2.65 36.77 0.056 6.83 2.93 13.81
12/31/2022 9:45:00 AM 2.69 36.842 0.056 6.85 2.92 13.85
12/31/2022 10:00:00 AM 2.74 36.932 0.056 6.86 2.87 13.89
12/31/2022 10:15:00 AM 2.79 37.022 0.055 6.88 2.84 13.92
12/31/2022 10:30:00 AM 2.84 37.112 0.055 6.89 2.85 13.94
12/31/2022 10:45:00 AM 2.9 37.22 0.055 6.9 2.71 13.95
12/31/2022 11:00:00 AM 2.97 37.346 0.055 6.91 2.75 13.95
12/31/2022 11:15:00 AM 3.03 37.454 0.052 6.93 3.54 13.96
12/31/2022 11:30:00 AM 3.1 37.58 0.055 6.93 2.67 13.95
12/31/2022 11:45:00 AM 3.16 37.688 0.052 6.96 3.49 13.93
12/31/2022 12:00:00 PM 3.2 37.76 0.055 6.95 2.72 13.9
12/31/2022 12:15:00 PM 3.23 37.814 0.055 6.96 2.74 13.86
12/31/2022 12:30:00 PM 3.26 37.868 0.057 6.96 3.96 13.81
12/31/2022 12:45:00 PM 3.29 37.922 0.063 6.94 3.09 13.77
12/31/2022 1:00:00 PM 3.32 37.976 0.06 6.94 2.95 13.74
12/31/2022 1:15:00 PM 3.35 38.03 0.057 6.95 2.85 13.71
12/31/2022 1:30:00 PM 3.38 38.084 0.058 6.94 2.91 13.68
12/31/2022 1:45:00 PM 3.4 38.12 0.058 6.94 2.92 13.65
12/31/2022 2:00:00 PM 3.42 38.156 0.057 6.95 3.07 13.63
12/31/2022 2:15:00 PM 3.43 38.174 0.056 6.93 3.06 13.6
12/31/2022 2:30:00 PM 3.44 38.192 0.055 6.92 3.18 13.55
12/31/2022 2:45:00 PM 3.44 38.192 0.055 6.92 3.28 13.51
12/31/2022 3:00:00 PM 3.44 38.192 0.055 6.91 3.24 13.49
12/31/2022 3:15:00 PM 3.44 38.192 0.055 6.91 3.41 13.46
12/31/2022 3:30:00 PM 3.43 38.174 0.055 6.89 3.61 13.42
12/31/2022 3:45:00 PM 3.41 38.138 0.055 6.89 3.76 13.38
12/31/2022 4:00:00 PM 3.39 38.102 0.056 6.87 3.94 13.33
12/31/2022 4:15:00 PM 3.37 38.066 0.056 6.86 4.16 13.3
12/31/2022 4:30:00 PM 3.34 38.012 0.057 6.85 4.35 13.27
12/31/2022 4:45:00 PM 3.31 37.958 0.057 6.83 4.75 13.25
12/31/2022 5:00:00 PM 3.28 37.904 0.057 6.82 5.34 13.23
12/31/2022 5:15:00 PM 3.26 37.868 0.057 6.82 5.43 13.22
12/31/2022 5:30:00 PM 3.24 37.832 0.057 6.79 6.16 13.21
12/31/2022 5:45:00 PM 3.23 37.814 0.058 6.8 6.64 13.2
12/31/2022 6:00:00 PM 3.21 37.778 0.058 6.78 7.23 13.21
12/31/2022 6:15:00 PM 3.2 37.76 0.059 6.78 7.66 13.2
12/31/2022 6:30:00 PM 3.2 37.76 0.06 6.77 8.15 13.21
12/31/2022 6:45:00 PM 3.19 37.742 0.06 6.76 8.38 13.2
12/31/2022 7:00:00 PM 3.19 37.742 0.059 6.74 8.76 13.21
12/31/2022 7:15:00 PM 3.18 37.724 0.059 6.74 9.13 13.22
12/31/2022 7:30:00 PM 3.19 37.742 0.059 6.75 9.29 13.22
12/31/2022 7:45:00 PM 3.19 37.742 0.059 6.74 9.45 13.21
12/31/2022 8:00:00 PM 3.19 37.742 0.058 6.72 9.41 13.22
12/31/2022 8:15:00 PM 3.19 37.742 0.058 6.72 9.35 13.22
12/31/2022 8:30:00 PM 3.21 37.778 0.058 6.72 9.54 13.21
12/31/2022 8:45:00 PM 3.21 37.778 0.058 6.72 9.71 13.22
12/31/2022 9:00:00 PM 3.24 37.832 0.058 6.72 9.7 13.21
12/31/2022 9:15:00 PM 3.26 37.868 0.058 6.71 9.7 13.2
12/31/2022 9:30:00 PM 3.28 37.904 0.058 6.72 9.87 13.19
12/31/2022 9:45:00 PM 3.3 37.94 0.058 6.72 10.11 13.19
12/31/2022 10:00:00 PM 3.32 37.976 0.058 6.72 10.25 13.17
12/31/2022 10:15:00 PM 3.35 38.03 0.058 6.71 10.31 13.17
12/31/2022 10:30:00 PM 3.36 38.048 0.058 6.71 10.95 13.17
12/31/2022 10:45:00 PM 3.37 38.066 0.058 6.72 10.96 13.17
12/31/2022 11:00:00 PM 3.37 38.066 0.058 6.71 11.45 13.16
12/31/2022 11:15:00 PM 3.38 38.084 0.058 6.72 11.73 13.16
12/31/2022 11:30:00 PM 3.4 38.12 0.058 6.72 11.72 13.16
12/31/2022 11:45:00 PM 3.41 38.138 0.057 6.71 12.33 13.15
1/1/2023 12:00:00 AM 3.42 38.156 0.057 6.71 12.45 13.15
1/1/2023 12:15:00 AM 3.44 38.192 0.057 6.67 13.46 13.14
1/1/2023 12:30:00 AM 3.46 38.228 0.057 6.58 14.78 13.14
1/1/2023 12:45:00 AM 3.47 38.246 0.057 6.58 14.14 13.14
1/1/2023 1:00:00 AM 3.49 38.282 0.056 6.59 13.81 13.13
1/1/2023 1:15:00 AM 3.51 38.318 0.056 6.68 14.04 13.13
1/1/2023 1:30:00 AM 3.52 38.336 0.056 6.71 13.97 13.12
1/1/2023 1:45:00 AM 3.55 38.39 0.056 6.7 14.17 13.12
1/1/2023 2:00:00 AM 3.57 38.426 0.056 6.68 14.14 13.11
1/1/2023 2:15:00 AM 3.6 38.48 0.055 6.7 14.19 13.11
1/1/2023 2:30:00 AM 3.62 38.516 0.055 6.69 14.18 13.1
1/1/2023 2:45:00 AM 3.67 38.606 0.051 6.68 14.19 13.08
1/1/2023 3:00:00 AM 3.71 38.678 0.055 6.67 14.44 13.07
1/1/2023 3:15:00 AM 3.75 38.75 0.054 6.68 14.14 13.06
1/1/2023 3:30:00 AM 3.78 38.804 0.054 6.68 14.52 13.05
1/1/2023 3:45:00 AM 3.82 38.876 0.054 6.68 14.48 13.04
1/1/2023 4:00:00 AM 3.85 38.93 0.053 6.68 14.57 13.03
1/1/2023 4:15:00 AM 3.88 38.984 0.053 6.68 14.69 13.02
1/1/2023 4:30:00 AM 3.91 39.038 0.053 6.66 14.23 13.01
1/1/2023 4:45:00 AM 3.93 39.074 0.052 6.66 14.2 13
1/1/2023 5:00:00 AM 3.96 39.128 0.052 6.66 14.4 12.99
1/1/2023 5:15:00 AM 3.99 39.182 0.052 6.66 14.34 12.98
1/1/2023 5:30:00 AM 4.01 39.218 0.052 6.64 14.36 12.98
1/1/2023 5:45:00 AM 4.03 39.254 0.051 6.65 14.39 12.98
1/1/2023 6:00:00 AM 4.06 39.308 0.052 6.65 14.08 12.96
1/1/2023 6:15:00 AM 4.08 39.344 0.051 6.65 14.3 12.96
1/1/2023 6:30:00 AM 4.09 39.362 0.051 6.65 14.09 12.95
1/1/2023 6:45:00 AM 4.11 39.398 0.051 6.65 14.05 12.95
1/1/2023 7:00:00 AM 4.13 39.434 0.051 6.64 14.21 12.95
1/1/2023 7:15:00 AM 4.14 39.452 0.051 6.66 13.97 12.94
1/1/2023 7:30:00 AM 4.16 39.488 0.05 6.66 14.15 12.93
1/1/2023 7:45:00 AM 4.18 39.524 0.05 6.67 13.68 12.94
1/1/2023 8:00:00 AM 4.19 39.542 0.05 6.68 13.93 12.94
1/1/2023 8:15:00 AM 4.21 39.578 0.05 6.67 13.42 12.95
1/1/2023 8:30:00 AM 4.24 39.632 0.05 6.69 13.11 12.96
1/1/2023 8:45:00 AM 4.26 39.668 0.049 6.78 13.18 12.98
1/1/2023 9:00:00 AM 4.3 39.74 0.049 6.8 12.22 13
1/1/2023 9:15:00 AM 4.34 39.812 0.049 6.8 12.64 13.02
1/1/2023 9:30:00 AM 4.38 39.884 0.049 6.82 11.9 13.04
1/1/2023 9:45:00 AM 4.42 39.956 0.049 6.8 11.97 13.05
1/1/2023 10:00:00 AM 4.45 40.01 0.049 6.79 11.6 13.06
1/1/2023 10:15:00 AM 4.52 40.136 0.049 6.82 11.16 13.09
1/1/2023 10:30:00 AM 4.57 40.226 0.048 6.73 11.35 13.1
1/1/2023 10:45:00 AM 4.62 40.316 0.048 6.74 11.26 13.1
1/1/2023 11:00:00 AM 4.69 40.442 0.048 6.76 11.03 13.1
1/1/2023 11:15:00 AM 4.74 40.532 0.048 6.76 10.78 13.11
1/1/2023 11:30:00 AM 4.82 40.676 0.048 6.77 10.56 13.11
1/1/2023 11:45:00 AM 4.89 40.802 0.048 6.79 10.45 13.1
1/1/2023 12:00:00 PM 4.97 40.946 0.048 6.78 10.42 13.09
1/1/2023 12:15:00 PM 5.06 41.108 0.048 6.8 10.34 13.08
1/1/2023 12:30:00 PM 5.12 41.216 0.047 6.77 10.28 13.06
1/1/2023 12:45:00 PM 5.15 41.27 0.047 6.75 10.31 13
1/1/2023 1:00:00 PM 5.17 41.306 0.047 6.75 10.08 12.97
1/1/2023 1:15:00 PM 5.2 41.36 0.047 6.73 10.29 12.96
1/1/2023 1:30:00 PM 5.26 41.468 0.047 6.75 10.22 12.95
1/1/2023 1:45:00 PM 5.29 41.522 0.047 6.75 10.22 12.92
1/1/2023 2:00:00 PM 5.34 41.612 0.047 6.75 10.35 12.9
1/1/2023 2:15:00 PM 5.36 41.648 0.047 6.75 10.53 12.88
1/1/2023 2:30:00 PM 5.39 41.702 0.047 6.75 10.7 12.85
1/1/2023 2:45:00 PM 5.41 41.738 0.047 6.74 10.55 12.83
1/1/2023 3:00:00 PM 5.41 41.738 0.047 6.78 10.8 12.81
1/1/2023 3:15:00 PM 5.44 41.792 0.047 6.76 11.26 12.77
1/1/2023 3:30:00 PM 5.46 41.828 0.047 6.71 11.39 12.72
1/1/2023 3:45:00 PM 5.45 41.81 0.047 6.75 11.34 12.7
1/1/2023 4:00:00 PM 5.46 41.828 0.047 6.7 11.08 12.67
1/1/2023 4:15:00 PM 5.44 41.792 0.047 6.68 11.34 12.65
1/1/2023 4:30:00 PM 5.44 41.792 0.047 6.7 11.25 12.62
1/1/2023 4:45:00 PM 5.43 41.774 0.047 6.7 11.41 12.6
1/1/2023 5:00:00 PM 5.43 41.774 0.047 6.68 11.41 12.58
1/1/2023 5:15:00 PM 5.41 41.738 0.047 6.65 11.56 12.56
1/1/2023 5:30:00 PM 5.41 41.738 0.047 6.65 11.77 12.56
1/1/2023 5:45:00 PM 5.41 41.738 0.047 6.66 11.85 12.55
1/1/2023 6:00:00 PM 5.4 41.72 0.047 6.66 11.98 12.55
1/1/2023 6:15:00 PM 5.38 41.684 0.047 6.66 12.11 12.56
1/1/2023 6:30:00 PM 5.38 41.684 0.047 6.67 12.38 12.55
1/1/2023 6:45:00 PM 5.37 41.666 0.047 6.69 12.07 12.56
1/1/2023 7:00:00 PM 5.36 41.648 0.047 6.69 11.89 12.57
1/1/2023 7:15:00 PM 5.35 41.63 0.047 6.69 12.06 12.57
1/1/2023 7:30:00 PM 5.34 41.612 0.047 6.69 12.12 12.58
1/1/2023 7:45:00 PM 5.33 41.594 0.047 6.71 11.81 12.58
1/1/2023 8:00:00 PM 5.32 41.576 0.047 6.68 11.98 12.59
1/1/2023 8:15:00 PM 5.32 41.576 0.047 6.66 11.42 12.59
1/1/2023 8:30:00 PM 5.3 41.54 0.047 6.67 11.71 12.6
1/1/2023 8:45:00 PM 5.29 41.522 0.047 6.69 11.48 12.6
1/1/2023 9:00:00 PM 5.3 41.54 0.047 6.69 11.59 12.6
1/1/2023 9:15:00 PM 5.28 41.504 0.047 6.68 11.37 12.6
1/1/2023 9:30:00 PM 5.28 41.504 0.047 6.7 10.98 12.61
1/1/2023 9:45:00 PM 5.27 41.486 0.047 6.68 10.93 12.61
1/1/2023 10:00:00 PM 5.27 41.486 0.047 6.66 10.64 12.61
1/1/2023 10:15:00 PM 5.27 41.486 0.047 6.69 10.97 12.61
1/1/2023 10:30:00 PM 5.26 41.468 0.047 6.66 10.84 12.61
1/1/2023 10:45:00 PM 5.25 41.45 0.047 6.67 10.55 12.61
1/1/2023 11:00:00 PM 5.25 41.45 0.047 6.69 10.61 12.61
1/1/2023 11:15:00 PM 5.24 41.432 0.047 6.68 10.5 12.62
1/1/2023 11:30:00 PM 5.24 41.432 0.047 6.67 10.24 12.62
1/1/2023 11:45:00 PM 5.24 41.432 0.047 6.68 10 12.62
1/2/2023 12:00:00 AM 5.23 41.414 0.047 6.68 10.13 12.62
1/2/2023 12:15:00 AM 5.22 41.396 0.047 6.66 10.12 12.63
1/2/2023 12:30:00 AM 5.22 41.396 0.047 6.66 10.17 12.63
1/2/2023 12:45:00 AM 5.22 41.396 0.047 6.63 9.74 12.62
1/2/2023 1:00:00 AM 5.22 41.396 0.047 6.66 9.69 12.62
1/2/2023 1:15:00 AM 5.22 41.396 0.047 6.67 9.45 12.63
1/2/2023 1:30:00 AM 5.21 41.378 0.046 6.67 9.57 12.63
1/2/2023 1:45:00 AM 5.22 41.396 0.047 6.68 9.45 12.63
1/2/2023 2:00:00 AM 5.22 41.396 0.046 6.67 9.31 12.63
1/2/2023 2:15:00 AM 5.21 41.378 0.046 6.67 9.17 12.63
1/2/2023 2:30:00 AM 5.22 41.396 0.046 6.65 9.17 12.63
1/2/2023 2:45:00 AM 5.22 41.396 0.046 6.66 9.17 12.63
1/2/2023 3:00:00 AM 5.23 41.414 0.046 6.61 9.22 12.64
1/2/2023 3:15:00 AM 5.23 41.414 0.046 6.59 8.96 12.64
1/2/2023 3:30:00 AM 5.22 41.396 0.046 6.6 9.03 12.64
1/2/2023 3:45:00 AM 5.23 41.414 0.046 6.59 9.01 12.64
1/2/2023 4:00:00 AM 5.23 41.414 0.046 6.6 9.18 12.64
1/2/2023 4:15:00 AM 5.23 41.414 0.046 6.6 9.07 12.64
1/2/2023 4:30:00 AM 5.23 41.414 0.046 6.62 8.95 12.63
1/2/2023 4:45:00 AM 5.24 41.432 0.046 6.63 8.87 12.63
1/2/2023 5:00:00 AM 5.24 41.432 0.046 6.64 8.64 12.63
1/2/2023 5:15:00 AM 5.24 41.432 0.046 6.66 8.4 12.63
1/2/2023 5:30:00 AM 5.24 41.432 0.046 6.67 8.48 12.63
1/2/2023 5:45:00 AM 5.24 41.432 0.046 6.68 8.53 12.64
1/2/2023 6:00:00 AM 5.25 41.45 0.046 6.67 8.2 12.64
1/2/2023 6:15:00 AM 5.24 41.432 0.046 6.65 8.25 12.64
1/2/2023 6:30:00 AM 5.23 41.414 0.046 6.63 8.31 12.64
1/2/2023 6:45:00 AM 5.23 41.414 0.046 6.63 7.95 12.64
1/2/2023 7:00:00 AM 5.22 41.396 0.046 6.62 7.98 12.65
1/2/2023 7:15:00 AM 5.22 41.396 0.046 6.63 7.87 12.64
1/2/2023 7:30:00 AM 5.21 41.378 0.046 6.61 7.66 12.65
1/2/2023 7:45:00 AM 5.21 41.378 0.046 6.62 7.54 12.65
1/2/2023 8:00:00 AM 5.2 41.36 0.046 6.63 7.52 12.67
1/2/2023 8:15:00 AM 5.2 41.36 0.046 6.63 7.29 12.68
1/2/2023 8:30:00 AM 5.21 41.378 0.046 6.61 6.93 12.71
1/2/2023 8:45:00 AM 5.23 41.414 0.046 6.62 6.9 12.74
1/2/2023 9:00:00 AM 5.24 41.432 0.046 6.65 6.53 12.78
1/2/2023 9:15:00 AM 5.27 41.486 0.046 6.65 6.3 12.82
1/2/2023 9:30:00 AM 5.29 41.522 0.045 6.67 6.16 12.85
1/2/2023 9:45:00 AM 5.31 41.558 0.046 6.68 6.1 12.87
1/2/2023 10:00:00 AM 5.34 41.612 0.045 6.7 6.04 12.9
1/2/2023 10:15:00 AM 5.37 41.666 0.045 6.71 5.73 12.91
1/2/2023 10:30:00 AM 5.41 41.738 0.045 6.72 5.77 12.93
1/2/2023 10:45:00 AM 5.44 41.792 0.045 6.71 5.74 12.93
1/2/2023 11:00:00 AM 5.47 41.846 0.045 6.72 5.94 12.93
1/2/2023 11:15:00 AM 5.53 41.954 0.045 6.73 5.63 12.94
1/2/2023 11:30:00 AM 5.58 42.044 0.045 6.73 5.64 12.94
1/2/2023 11:45:00 AM 5.64 42.152 0.045 6.74 5.62 12.92
1/2/2023 12:00:00 PM 5.7 42.26 0.045 6.76 5.74 12.91
1/2/2023 12:15:00 PM 5.76 42.368 0.045 6.73 5.48 12.9
1/2/2023 12:30:00 PM 5.81 42.458 0.045 6.73 5.6 12.88
1/2/2023 12:45:00 PM 5.87 42.566 0.045 6.74 5.6 12.86
1/2/2023 1:00:00 PM 5.92 42.656 0.045 6.74 5.64 12.85
1/2/2023 1:15:00 PM 5.98 42.764 0.045 6.75 5.6 12.83
1/2/2023 1:30:00 PM 6.02 42.836 0.045 6.73 5.55 12.8
1/2/2023 1:45:00 PM 6.06 42.908 0.045 6.75 5.63 12.78
1/2/2023 2:00:00 PM 6.09 42.962 0.045 6.74 5.7 12.75
1/2/2023 2:15:00 PM 6.11 42.998 0.045 6.74 5.71 12.71
1/2/2023 2:30:00 PM 6.14 43.052 0.045 6.74 5.75 12.68
1/2/2023 2:45:00 PM 6.16 43.088 0.045 6.76 5.76 12.68
1/2/2023 3:00:00 PM 6.18 43.124 0.045 6.77 5.9 12.66
1/2/2023 3:15:00 PM 6.21 43.178 0.045 6.77 5.84 12.62
1/2/2023 3:30:00 PM 6.22 43.196 0.045 6.75 5.91 12.59
1/2/2023 3:45:00 PM 6.24 43.232 0.045 6.76 6.1 12.56
1/2/2023 4:00:00 PM 6.25 43.25 0.045 6.74 6.15 12.53
1/2/2023 4:15:00 PM 6.26 43.268 0.046 6.72 6.12 12.49
1/2/2023 4:30:00 PM 6.26 43.268 0.046 6.65 6.2 12.45
1/2/2023 4:45:00 PM 6.26 43.268 0.046 6.63 6.31 12.42
1/2/2023 5:00:00 PM 6.25 43.25 0.046 6.63 6.36 12.39
1/2/2023 5:15:00 PM 6.24 43.232 0.046 6.62 6.47 12.36
1/2/2023 5:30:00 PM 6.23 43.214 0.046 6.6 6.47 12.35
1/2/2023 5:45:00 PM 6.22 43.196 0.046 6.6 6.69 12.35
1/2/2023 6:00:00 PM 6.21 43.178 0.046 6.6 6.85 12.34
1/2/2023 6:15:00 PM 6.19 43.142 0.046 6.55 6.78 12.34
1/2/2023 6:30:00 PM 6.18 43.124 0.046 6.57 6.9 12.34
1/2/2023 6:45:00 PM 6.16 43.088 0.046 6.58 6.99 12.34
1/2/2023 7:00:00 PM 6.14 43.052 0.046 6.58 6.97 12.35
1/2/2023 7:15:00 PM 6.13 43.034 0.047 6.58 7 12.35
1/2/2023 7:30:00 PM 6.11 42.998 0.046 6.58 6.97 12.36
1/2/2023 7:45:00 PM 6.09 42.962 0.047 6.56 6.98 12.36
1/2/2023 8:00:00 PM 6.07 42.926 0.046 6.58 6.82 12.37
1/2/2023 8:15:00 PM 6.05 42.89 0.046 6.56 6.86 12.37
1/2/2023 8:30:00 PM 6.04 42.872 0.047 6.57 6.95 12.38
1/2/2023 8:45:00 PM 6.03 42.854 0.047 6.6 6.67 12.39
1/2/2023 9:00:00 PM 6.01 42.818 0.047 6.63 6.87 12.39
1/2/2023 9:15:00 PM 5.99 42.782 0.047 6.6 6.7 12.39
1/2/2023 9:30:00 PM 5.98 42.764 0.047 6.62 6.61 12.4
1/2/2023 9:45:00 PM 5.97 42.746 0.047 6.62 6.6 12.4
1/2/2023 10:00:00 PM 5.96 42.728 0.047 6.62 6.63 12.41
1/2/2023 10:15:00 PM 5.95 42.71 0.047 6.61 6.59 12.41
1/2/2023 10:30:00 PM 5.93 42.674 0.047 6.58 6.54 12.42
1/2/2023 10:45:00 PM 5.92 42.656 0.047 6.56 6.6 12.42
1/2/2023 11:00:00 PM 5.92 42.656 0.047 6.56 6.59 12.41
1/2/2023 11:15:00 PM 5.9 42.62 0.047 6.57 6.5 12.42
1/2/2023 11:30:00 PM 5.9 42.62 0.047 6.58 6.5 12.42
1/2/2023 11:45:00 PM 5.88 42.584 0.046 6.57 6.25 12.43
1/3/2023 12:00:00 AM 5.88 42.584 0.046 6.57 6.44 12.43
1/3/2023 12:15:00 AM 5.87 42.566 0.047 6.51 6.24 12.43
1/3/2023 12:30:00 AM 5.87 42.566 0.047 6.58 6.36 12.42
1/3/2023 12:45:00 AM 5.86 42.548 0.047 6.57 6.29 12.42
1/3/2023 1:00:00 AM 5.86 42.548 0.047 6.54 6.27 12.42
1/3/2023 1:15:00 AM 5.85 42.53 0.046 6.54 6.3 12.43
1/3/2023 1:30:00 AM 5.84 42.512 0.046 6.55 6.15 12.42
1/3/2023 1:45:00 AM 5.85 42.53 0.047 6.57 6.02 12.42
1/3/2023 2:00:00 AM 5.84 42.512 0.047 6.6 6.15 12.42
1/3/2023 2:15:00 AM 5.84 42.512 0.046 6.54 6.19 12.42
1/3/2023 2:30:00 AM 5.83 42.494 0.046 6.53 6.12 12.43
1/3/2023 2:45:00 AM 5.84 42.512 0.047 6.53 5.98 12.43
1/3/2023 3:00:00 AM 5.83 42.494 0.046 6.5 5.97 12.43
1/3/2023 3:15:00 AM 5.83 42.494 0.046 6.5 5.93 12.42
1/3/2023 3:30:00 AM 5.83 42.494 0.046 6.51 5.92 12.42
1/3/2023 3:45:00 AM 5.82 42.476 0.046 6.51 5.92 12.43
1/3/2023 4:00:00 AM 5.82 42.476 0.046 6.51 5.88 12.42
1/3/2023 4:15:00 AM 5.83 42.494 0.046 6.58 5.89 12.42
1/3/2023 4:30:00 AM 5.82 42.476 0.046 6.6 5.83 12.42
1/3/2023 4:45:00 AM 5.82 42.476 0.046 6.6 5.79 12.41
1/3/2023 5:00:00 AM 5.82 42.476 0.046 6.61 5.78 12.42
1/3/2023 5:15:00 AM 5.81 42.458 0.046 6.57 5.68 12.41
1/3/2023 5:30:00 AM 5.82 42.476 0.046 6.57 5.58 12.41
1/3/2023 5:45:00 AM 5.82 42.476 0.047 6.57 5.61 12.4
1/3/2023 6:00:00 AM 5.81 42.458 0.046 6.59 5.56 12.4
1/3/2023 6:15:00 AM 5.81 42.458 0.046 6.58 5.55 12.4
1/3/2023 6:30:00 AM 5.81 42.458 0.046 6.55 5.7 12.4
1/3/2023 6:45:00 AM 5.81 42.458 0.046 6.54 5.58 12.4
1/3/2023 7:00:00 AM 5.82 42.476 0.047 6.53 5.63 12.39
1/3/2023 7:15:00 AM 5.81 42.458 0.046 6.54 5.62 12.39
1/3/2023 7:30:00 AM 5.81 42.458 0.046 6.54 5.53 12.4
1/3/2023 7:45:00 AM 5.8 42.44 0.046 6.53 5.76 12.4
1/3/2023 8:00:00 AM 5.81 42.458 0.047 6.54 5.68 12.39
1/3/2023 8:15:00 AM 5.81 42.458 0.046 6.54 5.62 12.39
1/3/2023 8:30:00 AM 5.8 42.44 0.046 6.54 5.92 12.39
1/3/2023 8:45:00 AM 5.8 42.44 0.046 6.57 6.23 12.4
1/3/2023 9:00:00 AM 5.81 42.458 0.046 6.57 6.56 12.41
1/3/2023 9:15:00 AM 5.8 42.44 0.046 6.58 7.44 12.42
1/3/2023 9:30:00 AM 5.8 42.44 0.047 6.58 9.02 12.43
1/3/2023 9:45:00 AM 5.8 42.44 0.047 6.59 13.45 12.43
1/3/2023 10:00:00 AM 5.81 42.458 0.047 6.59 14.22 12.44
1/3/2023 10:15:00 AM 5.81 42.458 0.047 6.61 14.41 12.45
1/3/2023 10:30:00 AM 5.8 42.44 0.048 6.61 15.91 12.46
1/3/2023 10:45:00 AM 5.8 42.44 0.049 6.61 17.05 12.46
1/3/2023 11:00:00 AM 5.8 42.44 0.049 6.59 19.59 12.47
1/3/2023 11:15:00 AM 5.8 42.44 0.049 6.61 22.02 12.49
1/3/2023 11:30:00 AM 5.8 42.44 0.05 6.61 25.09 12.49
1/3/2023 11:45:00 AM 5.79 42.422 0.05 6.61 27.43 12.48
1/3/2023 12:00:00 PM 5.78 42.404 0.05 6.62 30.82 12.48
1/3/2023 12:15:00 PM 5.76 42.368 0.051 6.62 33.67 12.47
1/3/2023 12:30:00 PM 5.75 42.35 0.051 6.64 35.97 12.47
1/3/2023 12:45:00 PM 5.74 42.332 0.051 6.65 40.09 12.47
1/3/2023 1:00:00 PM 5.73 42.314 0.051 6.64 42.85 12.47
1/3/2023 1:15:00 PM 5.71 42.278 0.051 6.65 43.26 12.46
1/3/2023 1:30:00 PM 5.7 42.26 0.051 6.66 48.72 12.45
1/3/2023 1:45:00 PM 5.67 42.206 0.05 6.63 53.73 12.45
1/3/2023 2:00:00 PM 5.68 42.224 0.05 6.64 48.14 12.44
1/3/2023 2:15:00 PM 5.67 42.206 0.049 6.63 53.34 12.44
1/3/2023 2:30:00 PM 5.71 42.278 0.049 6.6 51.99 12.43
1/3/2023 2:45:00 PM 5.73 42.314 0.049 6.61 51.37 12.42
1/3/2023 3:00:00 PM 5.77 42.386 0.049 6.66 48.3 12.41
1/3/2023 3:15:00 PM 5.8 42.44 0.049 6.64 47.43 12.39
1/3/2023 3:30:00 PM 5.83 42.494 0.049 6.65 46.45 12.37
1/3/2023 3:45:00 PM 5.87 42.566 0.049 6.64 43.81 12.36
1/3/2023 4:00:00 PM 5.91 42.638 0.049 6.6 43.23 12.33
1/3/2023 4:15:00 PM 5.95 42.71 0.049 6.57 41.41 12.31
1/3/2023 4:30:00 PM 5.96 42.728 0.048 6.58 39.5 12.3
1/3/2023 4:45:00 PM 6 42.8 0.048 6.58 37.76 12.28
1/3/2023 5:00:00 PM 6.02 42.836 0.048 6.58 36.33 12.27
1/3/2023 5:15:00 PM 6.05 42.89 0.048 6.55 34.63 12.25
1/3/2023 5:30:00 PM 6.07 42.926 0.047 6.54 34.59 12.24
1/3/2023 5:45:00 PM 6.1 42.98 0.047 6.49 32.79 12.23
1/3/2023 6:00:00 PM 6.13 43.034 0.047 6.5 32.15 12.22
1/3/2023 6:15:00 PM 6.14 43.052 0.047 6.53 30.7 12.22
1/3/2023 6:30:00 PM 6.17 43.106 0.047 6.55 29.94 12.21
1/3/2023 6:45:00 PM 6.18 43.124 0.047 6.55 28.51 12.2
1/3/2023 7:00:00 PM 6.21 43.178 0.047 6.54 26.74 12.19
1/3/2023 7:15:00 PM 6.24 43.232 0.047 6.54 26.21 12.18
1/3/2023 7:30:00 PM 6.26 43.268 0.046 6.55 25.83 12.17
1/3/2023 7:45:00 PM 6.28 43.304 0.046 6.54 25.45 12.17
1/3/2023 8:00:00 PM 6.3 43.34 0.046 6.55 24.41 12.16
1/3/2023 8:15:00 PM 6.33 43.394 0.046 6.55 22.01 12.16
1/3/2023 8:30:00 PM 6.35 43.43 0.046 6.54 22.02 12.15
1/3/2023 8:45:00 PM 6.37 43.466 0.046 6.53 21.87 12.15
1/3/2023 9:00:00 PM 6.4 43.52 0.046 6.53 21.76 12.14
1/3/2023 9:15:00 PM 6.42 43.556 0.046 6.56 19.62 12.14
1/3/2023 9:30:00 PM 6.44 43.592 0.045 6.56 20.49 12.13
1/3/2023 9:45:00 PM 6.46 43.628 0.045 6.58 20.51 12.13
1/3/2023 10:00:00 PM 6.49 43.682 0.045 6.58 20.17 12.11
1/3/2023 10:15:00 PM 6.52 43.736 0.045 6.58 20.15 12.1
1/3/2023 10:30:00 PM 6.54 43.772 0.045 6.57 19.35 12.1
1/3/2023 10:45:00 PM 6.57 43.826 0.045 6.56 19.2 12.09
1/3/2023 11:00:00 PM 6.6 43.88 0.045 6.54 19.33 12.08
1/3/2023 11:15:00 PM 6.62 43.916 0.045 6.53 18.81 12.07
1/3/2023 11:30:00 PM 6.64 43.952 0.045 6.53 18.9 12.06
1/3/2023 11:45:00 PM 6.67 44.006 0.045 6.53 19.03 12.05
1/4/2023 12:00:00 AM 6.69 44.042 0.045 6.54 17.46 12.04
1/4/2023 12:15:00 AM 6.72 44.096 0.045 6.53 17.77 12.03
1/4/2023 12:30:00 AM 6.75 44.15 0.045 6.53 19.03 12.03
1/4/2023 12:45:00 AM 6.77 44.186 0.045 6.53 17.45 12.02
1/4/2023 1:00:00 AM 6.78 44.204 0.045 6.55 17.06 12.02
1/4/2023 1:15:00 AM 6.79 44.222 0.045 6.53 16.37 12.02
1/4/2023 1:30:00 AM 6.81 44.258 0.044 6.54 16.36 12.01
1/4/2023 1:45:00 AM 6.83 44.294 0.044 6.54 15.87 12.01
1/4/2023 2:00:00 AM 6.86 44.348 0.045 6.53 15.54 12
1/4/2023 2:15:00 AM 6.86 44.348 0.044 6.53 15.63 12
1/4/2023 2:30:00 AM 6.88 44.384 0.044 6.54 15.54 11.99
1/4/2023 2:45:00 AM 6.9 44.42 0.044 6.54 15.22 11.99
1/4/2023 3:00:00 AM 6.92 44.456 0.044 6.54 15.14 11.98
1/4/2023 3:15:00 AM 6.93 44.474 0.044 6.53 14.83 11.98
1/4/2023 3:30:00 AM 6.95 44.51 0.044 6.53 15.1 11.98
1/4/2023 3:45:00 AM 6.96 44.528 0.044 6.52 14.9 11.98
1/4/2023 4:00:00 AM 6.98 44.564 0.044 6.51 14.36 11.97
1/4/2023 4:15:00 AM 7 44.6 0.044 6.52 14.08 11.97
1/4/2023 4:30:00 AM 7.02 44.636 0.044 6.53 13.87 11.96
1/4/2023 4:45:00 AM 7.03 44.654 0.044 6.51 13.68 11.96
1/4/2023 5:00:00 AM 7.04 44.672 0.044 6.41 13.22 11.96
1/4/2023 5:15:00 AM 7.06 44.708 0.044 6.37 12.94 11.96
1/4/2023 5:30:00 AM 7.08 44.744 0.044 6.37 12.72 11.95
1/4/2023 5:45:00 AM 7.09 44.762 0.044 6.42 12.9 11.95
1/4/2023 6:00:00 AM 7.11 44.798 0.044 6.52 12.68 11.94
1/4/2023 6:15:00 AM 7.11 44.798 0.044 6.52 12.45 11.94
1/4/2023 6:30:00 AM 7.13 44.834 0.044 6.52 12.43 11.94
1/4/2023 6:45:00 AM 7.14 44.852 0.044 6.5 12.17 11.94
1/4/2023 7:00:00 AM 7.15 44.87 0.044 6.5 12.21 11.94
1/4/2023 7:15:00 AM 7.16 44.888 0.044 6.4 12.03 11.94
1/4/2023 7:30:00 AM 7.17 44.906 0.043 6.38 11.93 11.93
1/4/2023 7:45:00 AM 7.17 44.906 0.043 6.39 11.61 11.93
1/4/2023 8:00:00 AM 7.19 44.942 0.044 6.4 11.32 11.92
1/4/2023 8:15:00 AM 7.2 44.96 0.044 6.42 11.22 11.93
1/4/2023 8:30:00 AM 7.2 44.96 0.043 6.43 10.91 11.94
1/4/2023 8:45:00 AM 7.22 44.996 0.043 6.42 10.5 11.95
1/4/2023 9:00:00 AM 7.24 45.032 0.043 6.43 10.24 11.97
1/4/2023 9:15:00 AM 7.25 45.05 0.043 6.39 10.07 11.98
1/4/2023 9:30:00 AM 7.28 45.104 0.043 6.36 9.89 12
1/4/2023 9:45:00 AM 7.31 45.158 0.043 6.4 9.4 12.02
1/4/2023 10:00:00 AM 7.35 45.23 0.043 6.39 9.18 12.03
1/4/2023 10:15:00 AM 7.38 45.284 0.043 6.39 9.31 12.05
1/4/2023 10:30:00 AM 7.42 45.356 0.043 6.4 8.68 12.05
1/4/2023 10:45:00 AM 7.46 45.428 0.043 6.42 8.72 12.05
1/4/2023 11:00:00 AM 7.49 45.482 0.043 6.44 8.48 12.05
1/4/2023 11:15:00 AM 7.53 45.554 0.043 6.53 8.35 12.05
1/4/2023 11:30:00 AM 7.57 45.626 0.043 6.55 8.32 12.04
1/4/2023 11:45:00 AM 7.62 45.716 0.043 6.57 8.28 12.04
1/4/2023 12:00:00 PM 7.65 45.77 0.043 6.55 8.16 12.03
1/4/2023 12:15:00 PM 7.68 45.824 0.043 6.59 7.96 12.02
1/4/2023 12:30:00 PM 7.71 45.878 0.043 6.57 8.15 11.99
1/4/2023 12:45:00 PM 7.73 45.914 0.043 6.54 8.05 11.96
1/4/2023 1:00:00 PM 7.76 45.968 0.043 6.61 7.99 11.94
1/4/2023 1:15:00 PM 7.78 46.004 0.043 6.69 7.86 11.93
1/4/2023 1:30:00 PM 7.8 46.04 0.043 6.68 7.97 11.9
1/4/2023 1:45:00 PM 7.82 46.076 0.043 6.67 8.02 11.87
1/4/2023 2:00:00 PM 7.83 46.094 0.043 6.66 8.08 11.85
1/4/2023 2:15:00 PM 7.85 46.13 0.043 6.67 7.94 11.84
1/4/2023 2:30:00 PM 7.87 46.166 0.043 6.67 8.04 11.83
1/4/2023 2:45:00 PM 7.88 46.184 0.043 6.68 7.88 11.81
1/4/2023 3:00:00 PM 7.89 46.202 0.043 6.7 8.13 11.81
1/4/2023 3:15:00 PM 7.9 46.22 0.044 6.58 8.32 11.79
1/4/2023 3:30:00 PM 7.9 46.22 0.043 6.63 8.29 11.77
1/4/2023 3:45:00 PM 7.9 46.22 0.043 6.61 8.22 11.76
1/4/2023 4:00:00 PM 7.91 46.238 0.043 6.6 8.32 11.75
1/4/2023 4:15:00 PM 7.91 46.238 0.044 6.59 8.34 11.73
1/4/2023 4:30:00 PM 7.9 46.22 0.043 6.58 8.29 11.72
1/4/2023 4:45:00 PM 7.9 46.22 0.043 6.58 8.83 11.71
1/4/2023 5:00:00 PM 7.89 46.202 0.044 6.59 9.74 11.7
1/4/2023 5:15:00 PM 7.89 46.202 0.044 6.58 9.09 11.69
1/4/2023 5:30:00 PM 7.88 46.184 0.044 6.59 8.72 11.68
1/4/2023 5:45:00 PM 7.88 46.184 0.044 6.57 8.95 11.67
1/4/2023 6:00:00 PM 7.88 46.184 0.044 6.59 8.74 11.67
1/4/2023 6:15:00 PM 7.87 46.166 0.044 6.57 8.78 11.67
1/4/2023 6:30:00 PM 7.86 46.148 0.044 6.59 8.79 11.67
1/4/2023 6:45:00 PM 7.86 46.148 0.045 6.58 8.85 11.67
1/4/2023 7:00:00 PM 7.86 46.148 0.044 6.59 8.81 11.67
1/4/2023 7:15:00 PM 7.86 46.148 0.044 6.59 8.74 11.67
1/4/2023 7:30:00 PM 7.85 46.13 0.044 6.58 9.29 11.68
1/4/2023 7:45:00 PM 7.84 46.112 0.044 6.58 8.84 11.68
1/4/2023 8:00:00 PM 7.83 46.094 0.044 6.57 8.66 11.68
1/4/2023 8:15:00 PM 7.82 46.076 0.044 6.58 8.97 11.68
1/4/2023 8:30:00 PM 7.82 46.076 0.044 6.59 8.61 11.68
1/4/2023 8:45:00 PM 7.82 46.076 0.044 6.57 8.62 11.69
1/4/2023 9:00:00 PM 7.81 46.058 0.044 6.58 8.54 11.69
1/4/2023 9:15:00 PM 7.8 46.04 0.044 6.58 8.6 11.7
1/4/2023 9:30:00 PM 7.78 46.004 0.044 6.57 8.46 11.7
1/4/2023 9:45:00 PM 7.76 45.968 0.044 6.57 8.56 11.7
1/4/2023 10:00:00 PM 7.75 45.95 0.044 6.57 8.48 11.71
1/4/2023 10:15:00 PM 7.73 45.914 0.044 6.57 8.78 11.71
1/4/2023 10:30:00 PM 7.72 45.896 0.044 6.57 8.18 11.72
1/4/2023 10:45:00 PM 7.72 45.896 0.044 6.57 8.24 11.73
1/4/2023 11:00:00 PM 7.72 45.896 0.044 6.59 8.16 11.73
1/4/2023 11:15:00 PM 7.71 45.878 0.044 6.58 8.07 11.74
1/4/2023 11:30:00 PM 7.7 45.86 0.044 6.58 8.17 11.75
1/4/2023 11:45:00 PM 7.7 45.86 0.044 6.57 7.99 11.75
1/5/2023 12:00:00 AM 7.69 45.842 0.044 6.59 8.09 11.76
1/5/2023 12:15:00 AM 7.69 45.842 0.044 6.59 8.05 11.76
1/5/2023 12:30:00 AM 7.67 45.806 0.044 6.59 8.05 11.76
1/5/2023 12:45:00 AM 7.64 45.752 0.044 6.6 7.84 11.77
1/5/2023 1:00:00 AM 7.61 45.698 0.044 6.59 7.67 11.77
1/5/2023 1:15:00 AM 7.57 45.626 0.044 6.59 7.89 11.78
1/5/2023 1:30:00 AM 7.53 45.554 0.044 6.58 7.91 11.79
1/5/2023 1:45:00 AM 7.49 45.482 0.044 6.59 7.77 11.81
1/5/2023 2:00:00 AM 7.45 45.41 0.044 6.58 7.78 11.82
1/5/2023 2:15:00 AM 7.4 45.32 0.044 6.59 7.87 11.83
1/5/2023 2:30:00 AM 7.35 45.23 0.044 6.6 7.76 11.85
1/5/2023 2:45:00 AM 7.3 45.14 0.044 6.59 7.59 11.87
1/5/2023 3:00:00 AM 7.25 45.05 0.044 6.59 7.65 11.89
1/5/2023 3:15:00 AM 7.19 44.942 0.044 6.59 7.57 11.91
1/5/2023 3:30:00 AM 7.14 44.852 0.044 6.59 7.45 11.93
1/5/2023 3:45:00 AM 7.08 44.744 0.044 6.59 7.48 11.94
1/5/2023 4:00:00 AM 7.03 44.654 0.044 6.59 7.45 11.96
1/5/2023 4:15:00 AM 6.97 44.546 0.044 6.59 7.3 11.98
1/5/2023 4:30:00 AM 6.92 44.456 0.044 6.58 7.25 11.99
1/5/2023 4:45:00 AM 6.86 44.348 0.044 6.58 7.29 12.01
1/5/2023 5:00:00 AM 6.8 44.24 0.044 6.59 7.06 12.03
1/5/2023 5:15:00 AM 6.74 44.132 0.044 6.58 7.19 12.05
1/5/2023 5:30:00 AM 6.69 44.042 0.044 6.59 7.03 12.07
1/5/2023 5:45:00 AM 6.64 43.952 0.044 6.57 7.29 12.09
1/5/2023 6:00:00 AM 6.59 43.862 0.044 6.57 7.34 12.1
1/5/2023 6:15:00 AM 6.55 43.79 0.044 6.58 7.16 12.12
1/5/2023 6:30:00 AM 6.51 43.718 0.044 6.57 7.04 12.14
1/5/2023 6:45:00 AM 6.48 43.664 0.044 6.57 6.91 12.15
1/5/2023 7:00:00 AM 6.44 43.592 0.044 6.57 6.9 12.16
1/5/2023 7:15:00 AM 6.41 43.538 0.044 6.57 7.06 12.18
1/5/2023 7:30:00 AM 6.38 43.484 0.044 6.56 6.92 12.18
1/5/2023 7:45:00 AM 6.35 43.43 0.044 6.55 6.7 12.19
1/5/2023 8:00:00 AM 6.33 43.394 0.044 6.57 6.51 12.21
1/5/2023 8:15:00 AM 6.31 43.358 0.044 6.56 6.54 12.24
1/5/2023 8:30:00 AM 6.3 43.34 0.044 6.57 6.29 12.27
1/5/2023 8:45:00 AM 6.3 43.34 0.044 6.58 6.16 12.31
1/5/2023 9:00:00 AM 6.3 43.34 0.044 6.62 5.84 12.33
1/5/2023 9:15:00 AM 6.31 43.358 0.044 6.61 5.62 12.36
1/5/2023 9:30:00 AM 6.33 43.394 0.044 6.61 5.7 12.4
1/5/2023 9:45:00 AM 6.35 43.43 0.044 6.63 5.41 12.43
1/5/2023 10:00:00 AM 6.4 43.52 0.044 6.65 5.57 12.46
1/5/2023 10:15:00 AM 6.45 43.61 0.044 6.66 5.49 12.49
1/5/2023 10:30:00 AM 6.49 43.682 0.044 6.67 5.25 12.5
1/5/2023 10:45:00 AM 6.51 43.718 0.044 6.68 5.27 12.5
1/5/2023 11:00:00 AM 6.53 43.754 0.044 6.68 5.12 12.5
1/5/2023 11:15:00 AM 6.56 43.808 0.044 6.7 5.06 12.5
1/5/2023 11:30:00 AM 6.59 43.862 0.044 6.7 5.09 12.49
1/5/2023 11:45:00 AM 6.63 43.934 0.044 6.7 5.09 12.49
1/5/2023 12:00:00 PM 6.68 44.024 0.043 6.7 5.06 12.47
1/5/2023 12:15:00 PM 6.75 44.15 0.044 6.71 5.03 12.47
1/5/2023 12:30:00 PM 6.81 44.258 0.044 6.71 5.01 12.46
1/5/2023 12:45:00 PM 6.86 44.348 0.044 6.71 4.93 12.45
1/5/2023 1:00:00 PM 6.92 44.456 0.044 6.72 5.06 12.44
1/5/2023 1:15:00 PM 6.94 44.492 0.043 6.72 5.24 12.43
1/5/2023 1:30:00 PM 6.98 44.564 0.043 6.72 5.06 12.42
1/5/2023 1:45:00 PM 7.01 44.618 0.043 6.71 5.11 12.4
1/5/2023 2:00:00 PM 6.99 44.582 0.043 6.72 6.04 12.37
1/5/2023 2:15:00 PM 7.01 44.618 0.043 6.71 5 12.35
1/5/2023 2:30:00 PM 7 44.6 0.043 6.73 4.98 12.34
1/5/2023 2:45:00 PM 7 44.6 0.043 6.73 4.98 12.33
1/5/2023 3:00:00 PM 7 44.6 0.044 6.72 4.94 12.31
1/5/2023 3:15:00 PM 7.01 44.618 0.044 6.71 5.01 12.31
1/5/2023 3:30:00 PM 7.03 44.654 0.044 6.72 5.01 12.3
1/5/2023 3:45:00 PM 7.01 44.618 0.043 6.72 5.01 12.27
1/5/2023 4:00:00 PM 7 44.6 0.043 6.64 5.26 12.25
1/5/2023 4:15:00 PM 6.97 44.546 0.044 6.7 5.23 12.22
1/5/2023 4:30:00 PM 6.94 44.492 0.044 6.69 5.25 12.2
1/5/2023 4:45:00 PM 6.91 44.438 0.044 6.72 5.13 12.18
1/5/2023 5:00:00 PM 6.87 44.366 0.044 6.69 5.18 12.15
1/5/2023 5:15:00 PM 6.82 44.276 0.044 6.67 5.36 12.13
1/5/2023 5:30:00 PM 6.78 44.204 0.044 6.63 5.38 12.11
1/5/2023 5:45:00 PM 6.74 44.132 0.044 6.63 5.39 12.1
1/5/2023 6:00:00 PM 6.7 44.06 0.044 6.63 5.48 12.11
1/5/2023 6:15:00 PM 6.67 44.006 0.044 6.61 5.45 12.11
1/5/2023 6:30:00 PM 6.63 43.934 0.044 6.63 5.55 12.12
1/5/2023 6:45:00 PM 6.59 43.862 0.044 6.61 5.55 12.13
1/5/2023 7:00:00 PM 6.55 43.79 0.044 6.6 5.59 12.14
1/5/2023 7:15:00 PM 6.5 43.7 0.044 6.6 5.75 12.15
1/5/2023 7:30:00 PM 6.45 43.61 0.044 6.61 5.49 12.16
1/5/2023 7:45:00 PM 6.4 43.52 0.044 6.61 5.59 12.17
1/5/2023 8:00:00 PM 6.34 43.412 0.044 6.61 5.6 12.19
1/5/2023 8:15:00 PM 6.3 43.34 0.044 6.6 5.62 12.2
1/5/2023 8:30:00 PM 6.26 43.268 0.044 6.6 5.59 12.21
1/5/2023 8:45:00 PM 6.21 43.178 0.044 6.61 5.43 12.23
1/5/2023 9:00:00 PM 6.16 43.088 0.044 6.62 5.5 12.24
1/5/2023 9:15:00 PM 6.12 43.016 0.044 6.61 5.56 12.26
1/5/2023 9:30:00 PM 6.08 42.944 0.044 6.62 5.43 12.27
1/5/2023 9:45:00 PM 6.04 42.872 0.044 6.61 5.49 12.29
1/5/2023 10:00:00 PM 6 42.8 0.044 6.61 5.49 12.3
1/5/2023 10:15:00 PM 5.95 42.71 0.044 6.61 5.43 12.32
1/5/2023 10:30:00 PM 5.91 42.638 0.044 6.61 5.39 12.33
1/5/2023 10:45:00 PM 5.87 42.566 0.044 6.6 5.34 12.34
1/5/2023 11:00:00 PM 5.83 42.494 0.044 6.6 5.33 12.35
1/5/2023 11:15:00 PM 5.79 42.422 0.044 6.6 5.16 12.37
1/5/2023 11:30:00 PM 5.74 42.332 0.044 6.6 5.19 12.38
1/5/2023 11:45:00 PM 5.69 42.242 0.044 6.6 5.27 12.39
1/6/2023 12:00:00 AM 5.65 42.17 0.044 6.59 5.33 12.4
1/6/2023 12:15:00 AM 5.61 42.098 0.044 6.59 5.18 12.41
1/6/2023 12:30:00 AM 5.57 42.026 0.044 6.52 5.27 12.42
1/6/2023 12:45:00 AM 5.54 41.972 0.044 6.5 5.21 12.43
1/6/2023 1:00:00 AM 5.51 41.918 0.044 6.5 5.23 12.45
1/6/2023 1:15:00 AM 5.49 41.882 0.044 6.5 5.09 12.45
1/6/2023 1:30:00 AM 5.46 41.828 0.044 6.5 5.13 12.46
1/6/2023 1:45:00 AM 5.44 41.792 0.044 6.5 5.19 12.47
1/6/2023 2:00:00 AM 5.42 41.756 0.044 6.5 5.05 12.48
1/6/2023 2:15:00 AM 5.39 41.702 0.044 6.51 4.99 12.49
1/6/2023 2:30:00 AM 5.38 41.684 0.044 6.51 5.04 12.5
1/6/2023 2:45:00 AM 5.36 41.648 0.044 6.5 5.04 12.5
1/6/2023 3:00:00 AM 5.35 41.63 0.044 6.51 4.99 12.51
1/6/2023 3:15:00 AM 5.34 41.612 0.044 6.5 4.98 12.52
1/6/2023 3:30:00 AM 5.32 41.576 0.044 6.49 5.01 12.53
1/6/2023 3:45:00 AM 5.3 41.54 0.045 6.49 4.92 12.53
1/6/2023 4:00:00 AM 5.28 41.504 0.044 6.5 4.81 12.53
1/6/2023 4:15:00 AM 5.26 41.468 0.044 6.48 5.03 12.54
1/6/2023 4:30:00 AM 5.25 41.45 0.044 6.48 4.88 12.55
1/6/2023 4:45:00 AM 5.23 41.414 0.044 6.48 4.98 12.55
1/6/2023 5:00:00 AM 5.22 41.396 0.044 6.48 4.88 12.55
1/6/2023 5:15:00 AM 5.21 41.378 0.044 6.49 4.81 12.55
1/6/2023 5:30:00 AM 5.2 41.36 0.044 6.47 4.76 12.56
1/6/2023 5:45:00 AM 5.19 41.342 0.045 6.48 4.76 12.57
1/6/2023 6:00:00 AM 5.18 41.324 0.044 6.48 4.74 12.57
1/6/2023 6:15:00 AM 5.17 41.306 0.044 6.42 4.56 12.57
1/6/2023 6:30:00 AM 5.16 41.288 0.044 6.44 4.73 12.58
1/6/2023 6:45:00 AM 5.16 41.288 0.044 6.45 4.66 12.58
1/6/2023 7:00:00 AM 5.15 41.27 0.044 6.47 4.66 12.59
1/6/2023 7:15:00 AM 5.15 41.27 0.044 6.47 4.67 12.59
1/6/2023 7:30:00 AM 5.15 41.27 0.044 6.48 4.52 12.6
1/6/2023 7:45:00 AM 5.15 41.27 0.044 6.47 4.44 12.6
1/6/2023 8:00:00 AM 5.15 41.27 0.044 6.49 4.45 12.6
1/6/2023 8:15:00 AM 5.15 41.27 0.045 6.5 4.51 12.61
1/6/2023 8:30:00 AM 5.15 41.27 0.044 6.54 4.47 12.62
1/6/2023 8:45:00 AM 5.16 41.288 0.044 6.52 4.33 12.63
1/6/2023 9:00:00 AM 5.17 41.306 0.045 6.53 4.29 12.67
1/6/2023 9:15:00 AM 5.17 41.306 0.044 6.51 4.21 12.7
1/6/2023 9:30:00 AM 5.18 41.324 0.044 6.51 4.15 12.72
1/6/2023 9:45:00 AM 5.19 41.342 0.044 6.51 4.13 12.74
1/6/2023 10:00:00 AM 5.2 41.36 0.044 6.53 4.01 12.77
1/6/2023 10:15:00 AM 5.22 41.396 0.044 6.55 3.91 12.81
1/6/2023 10:30:00 AM 5.25 41.45 0.044 6.56 3.81 12.84
1/6/2023 10:45:00 AM 5.29 41.522 0.044 6.57 3.78 12.87
1/6/2023 11:00:00 AM 5.32 41.576 0.044 6.59 3.81 12.9
1/6/2023 11:15:00 AM 5.36 41.648 0.044 6.6 3.68 12.91
1/6/2023 11:30:00 AM 5.4 41.72 0.044 6.66 3.71 12.92
1/6/2023 11:45:00 AM 5.44 41.792 0.044 6.69 3.75 12.91
1/6/2023 12:00:00 PM 5.46 41.828 0.044 6.7 3.68 12.9
1/6/2023 12:15:00 PM 5.49 41.882 0.044 6.71 3.68 12.88
1/6/2023 12:30:00 PM 5.53 41.954 0.044 6.71 3.67 12.88
1/6/2023 12:45:00 PM 5.58 42.044 0.044 6.73 3.67 12.89
1/6/2023 1:00:00 PM 5.62 42.116 0.044 6.72 3.7 12.88
1/6/2023 1:15:00 PM 5.65 42.17 0.044 6.72 3.74 12.87
1/6/2023 1:30:00 PM 5.67 42.206 0.044 6.73 3.77 12.84
1/6/2023 1:45:00 PM 5.67 42.206 0.044 6.73 3.7 12.82
1/6/2023 2:00:00 PM 5.68 42.224 0.044 6.73 3.67 12.81
1/6/2023 2:15:00 PM 5.69 42.242 0.044 6.74 3.66 12.81
1/6/2023 2:30:00 PM 5.71 42.278 0.044 6.74 3.63 12.82
1/6/2023 2:45:00 PM 5.7 42.26 0.044 6.73 3.74 12.78
1/6/2023 3:00:00 PM 5.68 42.224 0.044 6.73 3.67 12.75
1/6/2023 3:15:00 PM 5.67 42.206 0.044 6.71 3.79 12.72
1/6/2023 3:30:00 PM 5.65 42.17 0.044 6.7 3.69 12.69
1/6/2023 3:45:00 PM 5.63 42.134 0.044 6.72 4.09 12.68
1/6/2023 4:00:00 PM 5.61 42.098 0.044 6.71 3.82 12.67
1/6/2023 4:15:00 PM 5.59 42.062 0.044 6.69 3.81 12.65
1/6/2023 4:30:00 PM 5.58 42.044 0.044 6.68 3.79 12.65
1/6/2023 4:45:00 PM 5.55 41.99 0.044 6.68 3.86 12.63
1/6/2023 5:00:00 PM 5.54 41.972 0.045 6.67 3.94 12.61
1/6/2023 5:15:00 PM 5.52 41.936 0.045 6.67 3.98 12.59
1/6/2023 5:30:00 PM 5.5 41.9 0.045 6.65 3.9 12.58
1/6/2023 5:45:00 PM 5.47 41.846 0.045 6.65 4 12.57
1/6/2023 6:00:00 PM 5.45 41.81 0.045 6.65 4.03 12.57
1/6/2023 6:15:00 PM 5.43 41.774 0.045 6.65 4.06 12.57
1/6/2023 6:30:00 PM 5.4 41.72 0.045 6.62 4.1 12.58
1/6/2023 6:45:00 PM 5.38 41.684 0.045 6.63 4 12.59
1/6/2023 7:00:00 PM 5.36 41.648 0.045 6.62 4.2 12.6
1/6/2023 7:15:00 PM 5.34 41.612 0.045 6.56 4.18 12.6
1/6/2023 7:30:00 PM 5.31 41.558 0.045 6.55 4.16 12.61
1/6/2023 7:45:00 PM 5.3 41.54 0.045 6.53 4.18 12.61
1/6/2023 8:00:00 PM 5.28 41.504 0.045 6.53 4.24 12.62
1/6/2023 8:15:00 PM 5.25 41.45 0.045 6.54 4.19 12.63
1/6/2023 8:30:00 PM 5.22 41.396 0.045 6.52 4.18 12.64
1/6/2023 8:45:00 PM 5.19 41.342 0.045 6.52 4.21 12.64
1/6/2023 9:00:00 PM 5.16 41.288 0.045 6.5 4.22 12.66
1/6/2023 9:15:00 PM 5.13 41.234 0.045 6.5 4.38 12.66
1/6/2023 9:30:00 PM 5.11 41.198 0.045 6.51 4.16 12.67
1/6/2023 9:45:00 PM 5.08 41.144 0.045 6.51 4.24 12.68
1/6/2023 10:00:00 PM 5.05 41.09 0.045 6.51 4.21 12.69
1/6/2023 10:15:00 PM 5.03 41.054 0.045 6.52 4.11 12.71
1/6/2023 10:30:00 PM 5.01 41.018 0.045 6.51 4.15 12.71
1/6/2023 10:45:00 PM 4.99 40.982 0.045 6.5 4.08 12.72
1/6/2023 11:00:00 PM 4.98 40.964 0.045 6.5 4.1 12.72
1/6/2023 11:15:00 PM 4.97 40.946 0.045 6.51 4.13 12.72
1/6/2023 11:30:00 PM 4.96 40.928 0.045 6.51 4.09 12.73
1/6/2023 11:45:00 PM 4.95 40.91 0.045 6.51 4.13 12.73
1/7/2023 12:00:00 AM 4.93 40.874 0.045 6.52 4.1 12.74
1/7/2023 12:15:00 AM 4.9 40.82 0.045 6.51 4.1 12.74
1/7/2023 12:30:00 AM 4.89 40.802 0.045 6.51 4 12.74
1/7/2023 12:45:00 AM 4.88 40.784 0.045 6.52 4.07 12.74
1/7/2023 1:00:00 AM 4.86 40.748 0.045 6.51 4.04 12.75
1/7/2023 1:15:00 AM 4.85 40.73 0.046 6.51 4.03 12.76
1/7/2023 1:30:00 AM 4.83 40.694 0.045 6.5 4.08 12.76
1/7/2023 1:45:00 AM 4.83 40.694 0.046 6.5 3.98 12.77
1/7/2023 2:00:00 AM 4.82 40.676 0.046 6.51 3.98 12.77
1/7/2023 2:15:00 AM 4.81 40.658 0.046 6.51 3.95 12.77
1/7/2023 2:30:00 AM 4.81 40.658 0.046 6.52 4.01 12.78
1/7/2023 2:45:00 AM 4.8 40.64 0.045 6.52 4.01 12.78
1/7/2023 3:00:00 AM 4.79 40.622 0.045 6.52 3.96 12.78
1/7/2023 3:15:00 AM 4.79 40.622 0.046 6.51 3.89 12.78
1/7/2023 3:30:00 AM 4.78 40.604 0.046 6.5 3.95 12.79
1/7/2023 3:45:00 AM 4.78 40.604 0.046 6.5 3.94 12.79
1/7/2023 4:00:00 AM 4.77 40.586 0.046 6.5 3.93 12.79
1/7/2023 4:15:00 AM 4.77 40.586 0.046 6.5 3.9 12.79
1/7/2023 4:30:00 AM 4.77 40.586 0.046 6.51 3.89 12.79
1/7/2023 4:45:00 AM 4.76 40.568 0.046 6.51 3.89 12.8
1/7/2023 5:00:00 AM 4.76 40.568 0.045 6.5 3.94 12.79
1/7/2023 5:15:00 AM 4.76 40.568 0.046 6.51 3.89 12.8
1/7/2023 5:30:00 AM 4.76 40.568 0.046 6.51 3.82 12.79
1/7/2023 5:45:00 AM 4.76 40.568 0.046 6.52 3.79 12.79
1/7/2023 6:00:00 AM 4.76 40.568 0.046 6.51 3.86 12.8
1/7/2023 6:15:00 AM 4.76 40.568 0.046 6.52 3.9 12.8
1/7/2023 6:30:00 AM 4.75 40.55 0.046 6.52 3.94 12.8
1/7/2023 6:45:00 AM 4.75 40.55 0.046 6.52 3.78 12.8
1/7/2023 7:00:00 AM 4.74 40.532 0.046 6.52 3.81 12.8
1/7/2023 7:15:00 AM 4.74 40.532 0.046 6.52 3.78 12.81
1/7/2023 7:30:00 AM 4.74 40.532 0.046 6.51 3.66 12.81
1/7/2023 7:45:00 AM 4.74 40.532 0.046 6.53 3.79 12.81
1/7/2023 8:00:00 AM 4.74 40.532 0.046 6.53 3.79 12.82
1/7/2023 8:15:00 AM 4.74 40.532 0.046 6.53 3.61 12.83
1/7/2023 8:30:00 AM 4.74 40.532 0.046 6.53 3.64 12.84
1/7/2023 8:45:00 AM 4.74 40.532 0.046 6.53 3.66 12.86
1/7/2023 9:00:00 AM 4.75 40.55 0.046 6.55 3.65 12.88
1/7/2023 9:15:00 AM 4.75 40.55 0.046 6.55 3.63 12.9
1/7/2023 9:30:00 AM 4.76 40.568 0.046 6.56 3.51 12.92
1/7/2023 9:45:00 AM 4.77 40.586 0.046 6.56 3.34 12.95
1/7/2023 10:00:00 AM 4.78 40.604 0.046 6.57 3.27 12.97
1/7/2023 10:15:00 AM 4.79 40.622 0.046 6.58 3.22 12.99
1/7/2023 10:30:00 AM 4.8 40.64 0.046 6.59 3.16 13.02
1/7/2023 10:45:00 AM 4.82 40.676 0.046 6.6 3.15 13.04
1/7/2023 11:00:00 AM 4.83 40.694 0.046 6.61 3.17 13.05
1/7/2023 11:15:00 AM 4.85 40.73 0.046 6.62 3.08 13.07
1/7/2023 11:30:00 AM 4.87 40.766 0.046 6.63 3.05 13.1
1/7/2023 11:45:00 AM 4.9 40.82 0.046 6.63 3.07 13.11
1/7/2023 12:00:00 PM 4.92 40.856 0.046 6.64 3.06 13.14
1/7/2023 12:15:00 PM 4.96 40.928 0.046 6.64 3.04 13.15
1/7/2023 12:30:00 PM 4.99 40.982 0.045 6.65 3.07 13.15
1/7/2023 12:45:00 PM 5.01 41.018 0.045 6.65 3.01 13.15
1/7/2023 1:00:00 PM 5.04 41.072 0.045 6.68 3.04 13.15
1/7/2023 1:15:00 PM 5.06 41.108 0.045 6.68 3.1 13.14
1/7/2023 1:30:00 PM 5.08 41.144 0.046 6.68 3.05 13.11
1/7/2023 1:45:00 PM 5.1 41.18 0.045 6.68 2.98 13.11
1/7/2023 2:00:00 PM 5.12 41.216 0.045 6.67 2.99 13.12
1/7/2023 2:15:00 PM 5.14 41.252 0.045 6.66 2.98 13.11
1/7/2023 2:30:00 PM 5.16 41.288 0.045 6.67 3.06 13.09
1/7/2023 2:45:00 PM 5.17 41.306 0.045 6.64 3.09 13.08
1/7/2023 3:00:00 PM 5.17 41.306 0.045 6.64 3.12 13.07
1/7/2023 3:15:00 PM 5.18 41.324 0.045 6.63 3.03 13.06
1/7/2023 3:30:00 PM 5.18 41.324 0.046 6.63 3.01 13.02
1/7/2023 3:45:00 PM 5.17 41.306 0.046 6.62 3.04 12.97
1/7/2023 4:00:00 PM 5.14 41.252 0.046 6.61 3.08 12.93
1/7/2023 4:15:00 PM 5.08 41.144 0.046 6.59 3.08 12.89
1/7/2023 4:30:00 PM 5 41 0.046 6.58 3.12 12.85
1/7/2023 4:45:00 PM 4.95 40.91 0.046 6.57 3.08 12.84
1/7/2023 5:00:00 PM 4.93 40.874 0.047 6.54 3.19 12.84
1/7/2023 5:15:00 PM 4.92 40.856 0.046 6.59 3.16 12.84
1/7/2023 5:30:00 PM 4.92 40.856 0.046 6.61 3.12 12.82
1/7/2023 5:45:00 PM 4.92 40.856 0.046 6.6 3.25 12.81
1/7/2023 6:00:00 PM 4.91 40.838 0.046 6.6 3.32 12.81
1/7/2023 6:15:00 PM 4.9 40.82 0.046 6.6 3.29 12.81
1/7/2023 6:30:00 PM 4.88 40.784 0.046 6.59 3.37 12.81
1/7/2023 6:45:00 PM 4.87 40.766 0.046 6.59 3.39 12.81
1/7/2023 7:00:00 PM 4.85 40.73 0.046 6.59 3.35 12.82
1/7/2023 7:15:00 PM 4.83 40.694 0.046 6.57 3.41 12.82
1/7/2023 7:30:00 PM 4.81 40.658 0.046 6.59 3.4 12.83
1/7/2023 7:45:00 PM 4.8 40.64 0.046 6.58 3.38 12.84
1/7/2023 8:00:00 PM 4.78 40.604 0.047 6.59 3.37 12.84
1/7/2023 8:15:00 PM 4.77 40.586 0.047 6.6 3.32 12.85
1/7/2023 8:30:00 PM 4.76 40.568 0.047 6.6 3.34 12.85
1/7/2023 8:45:00 PM 4.74 40.532 0.047 6.6 3.33 12.86
1/7/2023 9:00:00 PM 4.73 40.514 0.047 6.6 3.43 12.87
1/7/2023 9:15:00 PM 4.72 40.496 0.047 6.6 3.39 12.87
1/7/2023 9:30:00 PM 4.7 40.46 0.047 6.6 3.38 12.88
1/7/2023 9:45:00 PM 4.69 40.442 0.047 6.6 3.4 12.88
1/7/2023 10:00:00 PM 4.68 40.424 0.047 6.6 3.43 12.89
1/7/2023 10:15:00 PM 4.66 40.388 0.047 6.6 3.42 12.9
1/7/2023 10:30:00 PM 4.65 40.37 0.047 6.61 3.36 12.9
1/7/2023 10:45:00 PM 4.63 40.334 0.047 6.61 3.45 12.9
1/7/2023 11:00:00 PM 4.62 40.316 0.047 6.6 3.59 12.92
1/7/2023 11:15:00 PM 4.6 40.28 0.047 6.6 3.66 12.92
1/7/2023 11:30:00 PM 4.59 40.262 0.047 6.59 3.45 12.92
1/7/2023 11:45:00 PM 4.58 40.244 0.047 6.6 3.51 12.93
1/8/2023 12:00:00 AM 4.56 40.208 0.047 6.6 3.47 12.93
1/8/2023 12:15:00 AM 4.55 40.19 0.047 6.59 3.47 12.93
1/8/2023 12:30:00 AM 4.54 40.172 0.047 6.6 3.43 12.94
1/8/2023 12:45:00 AM 4.52 40.136 0.047 6.61 3.4 12.94
1/8/2023 1:00:00 AM 4.51 40.118 0.047 6.61 3.47 12.95
1/8/2023 1:15:00 AM 4.49 40.082 0.047 6.6 3.45 12.95
1/8/2023 1:30:00 AM 4.48 40.064 0.047 6.61 3.36 12.95
1/8/2023 1:45:00 AM 4.46 40.028 0.047 6.61 3.36 12.96
1/8/2023 2:00:00 AM 4.45 40.01 0.047 6.61 3.36 12.96
1/8/2023 2:15:00 AM 4.43 39.974 0.047 6.6 3.34 12.97
1/8/2023 2:30:00 AM 4.42 39.956 0.047 6.62 3.29 12.97
1/8/2023 2:45:00 AM 4.4 39.92 0.047 6.61 3.27 12.98
1/8/2023 3:00:00 AM 4.39 39.902 0.047 6.61 3.35 12.98
1/8/2023 3:15:00 AM 4.37 39.866 0.047 6.61 3.31 12.99
1/8/2023 3:30:00 AM 4.36 39.848 0.047 6.61 3.32 12.99
1/8/2023 3:45:00 AM 4.34 39.812 0.047 6.59 3.42 13
1/8/2023 4:00:00 AM 4.32 39.776 0.047 6.6 3.43 13.01
1/8/2023 4:15:00 AM 4.31 39.758 0.047 6.59 3.34 13.01
1/8/2023 4:30:00 AM 4.29 39.722 0.047 6.63 3.3 13.02
1/8/2023 4:45:00 AM 4.27 39.686 0.047 6.61 3.36 13.02
1/8/2023 5:00:00 AM 4.25 39.65 0.047 6.6 3.28 13.03
1/8/2023 5:15:00 AM 4.23 39.614 0.047 6.6 3.31 13.03
1/8/2023 5:30:00 AM 4.22 39.596 0.047 6.6 3.27 13.03
1/8/2023 5:45:00 AM 4.2 39.56 0.047 6.59 3.27 13.04
1/8/2023 6:00:00 AM 4.18 39.524 0.047 6.59 3.25 13.06
1/8/2023 6:15:00 AM 4.16 39.488 0.047 6.6 3.25 13.06
1/8/2023 6:30:00 AM 4.14 39.452 0.047 6.59 3.22 13.06
1/8/2023 6:45:00 AM 4.12 39.416 0.047 6.59 3.23 13.08
1/8/2023 7:00:00 AM 4.09 39.362 0.048 6.6 3.26 13.08
1/8/2023 7:15:00 AM 4.08 39.344 0.047 6.59 3.27 13.09
1/8/2023 7:30:00 AM 4.06 39.308 0.047 6.6 3.19 13.1
1/8/2023 7:45:00 AM 4.04 39.272 0.047 6.59 3.17 13.11
1/8/2023 8:00:00 AM 4.02 39.236 0.047 6.58 3.24 13.13
1/8/2023 8:15:00 AM 4.01 39.218 0.048 6.59 3.18 13.15
1/8/2023 8:30:00 AM 4 39.2 0.048 6.59 3.07 13.17
1/8/2023 8:45:00 AM 3.99 39.182 0.047 6.59 3.08 13.21
1/8/2023 9:00:00 AM 3.98 39.164 0.047 6.6 2.99 13.25
1/8/2023 9:15:00 AM 3.98 39.164 0.048 6.61 2.96 13.3
1/8/2023 9:30:00 AM 3.98 39.164 0.047 6.62 2.89 13.34
1/8/2023 9:45:00 AM 3.98 39.164 0.047 6.63 2.82 13.38
1/8/2023 10:00:00 AM 3.99 39.182 0.047 6.64 2.78 13.42
1/8/2023 10:15:00 AM 4 39.2 0.047 6.65 2.81 13.46
1/8/2023 10:30:00 AM 4.02 39.236 0.047 6.65 3.02 13.49
1/8/2023 10:45:00 AM 4.03 39.254 0.047 6.68 2.75 13.51
1/8/2023 11:00:00 AM 4.05 39.29 0.047 6.69 2.71 13.53
1/8/2023 11:15:00 AM 4.08 39.344 0.047 6.68 2.71 13.54
1/8/2023 11:30:00 AM 4.11 39.398 0.047 6.71 2.67 13.55
1/8/2023 11:45:00 AM 4.14 39.452 0.047 6.71 2.68 13.55
1/8/2023 12:00:00 PM 4.18 39.524 0.047 6.73 2.64 13.55
1/8/2023 12:15:00 PM 4.21 39.578 0.047 6.73 2.62 13.55
1/8/2023 12:30:00 PM 4.25 39.65 0.047 6.74 2.64 13.53
1/8/2023 12:45:00 PM 4.27 39.686 0.047 6.74 2.57 13.52
1/8/2023 1:00:00 PM 4.3 39.74 0.047 6.75 2.67 13.51
1/8/2023 1:15:00 PM 4.33 39.794 0.047 6.75 2.62 13.5
1/8/2023 1:30:00 PM 4.37 39.866 0.047 6.75 2.56 13.48
1/8/2023 1:45:00 PM 4.41 39.938 0.047 6.74 2.67 13.47
1/8/2023 2:00:00 PM 4.46 40.028 0.047 6.75 2.62 13.46
1/8/2023 2:15:00 PM 4.52 40.136 0.047 6.76 2.58 13.45
1/8/2023 2:30:00 PM 4.55 40.19 0.047 6.77 2.62 13.43
1/8/2023 2:45:00 PM 4.57 40.226 0.047 6.76 2.68 13.42
1/8/2023 3:00:00 PM 4.58 40.244 0.047 6.75 2.6 13.4
1/8/2023 3:15:00 PM 4.6 40.28 0.047 6.76 2.6 13.37
1/8/2023 3:30:00 PM 4.61 40.298 0.047 6.76 2.66 13.36
1/8/2023 3:45:00 PM 4.59 40.262 0.047 6.76 2.67 13.34
1/8/2023 4:00:00 PM 4.57 40.226 0.047 6.75 2.64 13.31
1/8/2023 4:15:00 PM 4.55 40.19 0.047 6.74 2.66 13.28
1/8/2023 4:30:00 PM 4.52 40.136 0.047 6.74 2.67 13.24
1/8/2023 4:45:00 PM 4.5 40.1 0.047 6.72 2.69 13.18
1/8/2023 5:00:00 PM 4.47 40.046 0.047 6.75 2.84 13.12
1/8/2023 5:15:00 PM 4.44 39.992 0.047 6.75 2.71 13.07
1/8/2023 5:30:00 PM 4.42 39.956 0.047 6.75 2.81 13.03
1/8/2023 5:45:00 PM 4.39 39.902 0.047 6.75 2.81 12.99
1/8/2023 6:00:00 PM 4.35 39.83 0.048 6.73 2.84 12.98
1/8/2023 6:15:00 PM 4.3 39.74 0.048 6.73 2.89 12.97
1/8/2023 6:30:00 PM 4.26 39.668 0.048 6.72 2.87 12.97
1/8/2023 6:45:00 PM 4.22 39.596 0.048 6.72 3 12.97
1/8/2023 7:00:00 PM 4.19 39.542 0.048 6.71 2.97 12.98
1/8/2023 7:15:00 PM 4.16 39.488 0.048 6.71 2.88 12.98
1/8/2023 7:30:00 PM 4.14 39.452 0.048 6.7 2.93 12.98
1/8/2023 7:45:00 PM 4.12 39.416 0.048 6.71 3 12.99
1/8/2023 8:00:00 PM 4.1 39.38 0.048 6.7 2.96 12.99
1/8/2023 8:15:00 PM 4.08 39.344 0.048 6.69 2.93 13.01
1/8/2023 8:30:00 PM 4.06 39.308 0.048 6.69 2.93 13
1/8/2023 8:45:00 PM 4.03 39.254 0.048 6.69 3.08 13.01
1/8/2023 9:00:00 PM 3.99 39.182 0.048 6.7 2.96 13.02
1/8/2023 9:15:00 PM 3.96 39.128 0.048 6.7 2.93 13.02
1/8/2023 9:30:00 PM 3.92 39.056 0.048 6.69 3.03 13.03
1/8/2023 9:45:00 PM 3.88 38.984 0.048 6.68 2.94 13.03
1/8/2023 10:00:00 PM 3.85 38.93 0.048 6.69 3.01 13.04
1/8/2023 10:15:00 PM 3.82 38.876 0.048 6.68 3.02 13.05
1/8/2023 10:30:00 PM 3.79 38.822 0.048 6.67 3.05 13.06
1/8/2023 10:45:00 PM 3.76 38.768 0.048 6.66 3.03 13.07
1/8/2023 11:00:00 PM 3.74 38.732 0.048 6.66 3.06 13.07
1/8/2023 11:15:00 PM 3.73 38.714 0.048 6.65 3.03 13.08
1/8/2023 11:30:00 PM 3.72 38.696 0.048 6.73 8.67 13.09
1/8/2023 11:45:00 PM 3.7 38.66 0.048 6.65 3.05 13.1
1/9/2023 12:00:00 AM 3.69 38.642 0.048 6.65 3.01 13.1
1/9/2023 12:15:00 AM 3.68 38.624 0.048 6.65 3.01 13.1
1/9/2023 12:30:00 AM 3.67 38.606 0.048 6.63 2.95 13.11
1/9/2023 12:45:00 AM 3.65 38.57 0.048 6.64 2.98 13.11
1/9/2023 1:00:00 AM 3.64 38.552 0.048 6.65 2.96 13.12
1/9/2023 1:15:00 AM 3.63 38.534 0.048 6.67 2.95 13.12
1/9/2023 1:30:00 AM 3.62 38.516 0.048 6.67 2.96 13.12
1/9/2023 1:45:00 AM 3.6 38.48 0.048 6.67 2.97 13.12
1/9/2023 2:00:00 AM 3.58 38.444 0.048 6.68 2.94 13.13
1/9/2023 2:15:00 AM 3.55 38.39 0.048 6.67 2.94 13.14
1/9/2023 2:30:00 AM 3.53 38.354 0.048 6.66 2.96 13.14
1/9/2023 2:45:00 AM 3.49 38.282 0.048 6.67 3.03 13.16
1/9/2023 3:00:00 AM 3.46 38.228 0.048 6.66 2.98 13.16
1/9/2023 3:15:00 AM 3.43 38.174 0.048 6.66 2.95 13.17
1/9/2023 3:30:00 AM 3.4 38.12 0.048 6.65 2.96 13.19
1/9/2023 3:45:00 AM 3.38 38.084 0.048 6.66 2.89 13.2
1/9/2023 4:00:00 AM 3.37 38.066 0.048 6.66 2.93 13.2
1/9/2023 4:15:00 AM 3.36 38.048 0.048 6.65 2.98 13.21
1/9/2023 4:30:00 AM 3.35 38.03 0.048 6.66 2.97 13.22
1/9/2023 4:45:00 AM 3.35 38.03 0.048 6.66 2.97 13.22
1/9/2023 5:00:00 AM 3.34 38.012 0.048 6.65 2.92 13.22
1/9/2023 5:15:00 AM 3.34 38.012 0.048 6.66 2.97 13.22
1/9/2023 5:30:00 AM 3.33 37.994 0.048 6.67 2.89 13.23
1/9/2023 5:45:00 AM 3.33 37.994 0.048 6.66 2.89 13.23
1/9/2023 6:00:00 AM 3.32 37.976 0.048 6.67 2.93 13.23
1/9/2023 6:15:00 AM 3.32 37.976 0.048 6.67 2.86 13.24
1/9/2023 6:30:00 AM 3.31 37.958 0.048 6.67 2.9 13.24
1/9/2023 6:45:00 AM 3.3 37.94 0.048 6.64 2.82 13.24
1/9/2023 7:00:00 AM 3.29 37.922 0.048 6.62 2.87 13.25
1/9/2023 7:15:00 AM 3.28 37.904 0.048 6.61 2.91 13.26
1/9/2023 7:30:00 AM 3.27 37.886 0.048 6.61 2.89 13.26
1/9/2023 7:45:00 AM 3.26 37.868 0.048 6.61 2.82 13.27
1/9/2023 8:00:00 AM 3.24 37.832 0.048 6.61 2.88 13.29
1/9/2023 8:15:00 AM 3.22 37.796 0.048 6.61 2.77 13.31
1/9/2023 8:30:00 AM 3.21 37.778 0.048 6.63 2.8 13.34
1/9/2023 8:45:00 AM 3.2 37.76 0.048 6.72 2.66 13.37
1/9/2023 9:00:00 AM 3.2 37.76 0.048 6.63 2.72 13.41
1/9/2023 9:15:00 AM 3.21 37.778 0.048 6.65 2.74 13.46
1/9/2023 9:30:00 AM 3.22 37.796 0.048 6.67 2.7 13.52
1/9/2023 9:45:00 AM 3.22 37.796 0.048 6.67 2.61 13.56
1/9/2023 10:00:00 AM 3.24 37.832 0.048 6.69 2.57 13.61
1/9/2023 10:15:00 AM 3.27 37.886 0.048 6.71 2.56 13.66
1/9/2023 10:30:00 AM 3.29 37.922 0.048 6.73 2.55 13.69
1/9/2023 10:45:00 AM 3.33 37.994 0.048 6.73 2.49 13.71
1/9/2023 11:00:00 AM 3.36 38.048 0.048 6.74 2.45 13.73
1/9/2023 11:15:00 AM 3.39 38.102 0.048 6.75 2.46 13.73
1/9/2023 11:30:00 AM 3.44 38.192 0.048 6.74 2.47 13.72
1/9/2023 11:45:00 AM 3.53 38.354 0.048 6.76 2.5 13.72
1/9/2023 12:00:00 PM 3.62 38.516 0.048 6.76 2.45 13.7
1/9/2023 12:15:00 PM 3.71 38.678 0.047 6.76 2.42 13.68
1/9/2023 12:30:00 PM 3.81 38.858 0.047 6.76 2.49 13.65
1/9/2023 12:45:00 PM 3.9 39.02 0.047 6.78 2.41 13.62
1/9/2023 1:00:00 PM 3.96 39.128 0.047 6.76 2.37 13.59
1/9/2023 1:15:00 PM 4.01 39.218 0.047 6.77 2.38 13.57
1/9/2023 1:30:00 PM 4.03 39.254 0.047 6.77 2.4 13.55
1/9/2023 1:45:00 PM 4.05 39.29 0.047 6.77 2.42 13.53
1/9/2023 2:00:00 PM 4.06 39.308 0.047 6.77 2.41 13.51
1/9/2023 2:15:00 PM 4.09 39.362 0.047 6.76 2.38 13.48
1/9/2023 2:30:00 PM 4.12 39.416 0.047 6.77 2.45 13.46
1/9/2023 2:45:00 PM 4.13 39.434 0.047 6.77 2.44 13.43
1/9/2023 3:00:00 PM 4.12 39.416 0.047 6.77 2.34 13.42
1/9/2023 3:15:00 PM 4.12 39.416 0.047 6.78 2.41 13.4
1/9/2023 3:30:00 PM 4.09 39.362 0.047 6.75 2.4 13.38
1/9/2023 3:45:00 PM 4.06 39.308 0.047 6.75 2.5 13.37
1/9/2023 4:00:00 PM 4.01 39.218 0.047 6.75 2.38 13.36
1/9/2023 4:15:00 PM 3.97 39.146 0.048 6.74 2.46 13.33
1/9/2023 4:30:00 PM 3.92 39.056 0.048 6.74 2.41 13.31
1/9/2023 4:45:00 PM 3.87 38.966 0.048 6.73 2.42 13.29
1/9/2023 5:00:00 PM 3.82 38.876 0.048 6.71 2.46 13.26
1/9/2023 5:15:00 PM 3.77 38.786 0.048 6.71 2.45 13.22
1/9/2023 5:30:00 PM 3.71 38.678 0.048 6.7 2.45 13.19
1/9/2023 5:45:00 PM 3.65 38.57 0.048 6.69 2.57 13.18
1/9/2023 6:00:00 PM 3.59 38.462 0.048 6.69 2.57 13.18
1/9/2023 6:15:00 PM 3.53 38.354 0.048 6.67 2.5 13.19
1/9/2023 6:30:00 PM 3.47 38.246 0.048 6.67 2.57 13.2
1/9/2023 6:45:00 PM 3.4 38.12 0.048 6.67 2.6 13.22
1/9/2023 7:00:00 PM 3.34 38.012 0.048 6.63 2.56 13.23
1/9/2023 7:15:00 PM 3.28 37.904 0.048 6.64 2.62 13.25
1/9/2023 7:30:00 PM 3.22 37.796 0.049 6.64 2.65 13.26
1/9/2023 7:45:00 PM 3.17 37.706 0.049 6.63 2.58 13.27
1/9/2023 8:00:00 PM 3.13 37.634 0.049 6.64 2.59 13.28
1/9/2023 8:15:00 PM 3.09 37.562 0.049 6.63 2.63 13.29
1/9/2023 8:30:00 PM 3.08 37.544 0.049 6.62 2.62 13.31
1/9/2023 8:45:00 PM 3.06 37.508 0.049 6.62 2.62 13.31
1/9/2023 9:00:00 PM 3.04 37.472 0.049 6.62 2.58 13.33
1/9/2023 9:15:00 PM 3.01 37.418 0.049 6.63 2.67 13.34
1/9/2023 9:30:00 PM 2.99 37.382 0.049 6.62 2.62 13.34
1/9/2023 9:45:00 PM 2.99 37.382 0.049 6.64 2.58 13.35
1/9/2023 10:00:00 PM 2.99 37.382 0.049 6.66 2.66 13.35
1/9/2023 10:15:00 PM 3 37.4 0.049 6.64 2.73 13.35
1/9/2023 10:30:00 PM 3.01 37.418 0.049 6.63 2.74 13.36
1/9/2023 10:45:00 PM 3.01 37.418 0.049 6.63 2.79 13.36
1/9/2023 11:00:00 PM 3.01 37.418 0.049 6.62 2.79 13.36
1/9/2023 11:15:00 PM 3.02 37.436 0.049 6.63 2.67 13.36
1/9/2023 11:30:00 PM 3.03 37.454 0.049 6.65 2.67 13.36
1/9/2023 11:45:00 PM 3.04 37.472 0.049 6.65 2.65 13.36
1/10/2023 12:00:00 AM 3.04 37.472 0.049 6.64 2.67 13.36
1/10/2023 12:15:00 AM 3.05 37.49 0.049 6.64 2.69 13.35
1/10/2023 12:30:00 AM 3.06 37.508 0.049 6.65 2.74 13.35
1/10/2023 12:45:00 AM 3.07 37.526 0.049 6.65 2.66 13.35
1/10/2023 1:00:00 AM 3.07 37.526 0.049 6.63 2.71 13.35
1/10/2023 1:15:00 AM 3.08 37.544 0.049 6.66 2.69 13.34
1/10/2023 1:30:00 AM 3.08 37.544 0.049 6.65 2.68 13.34
1/10/2023 1:45:00 AM 3.08 37.544 0.049 6.65 2.7 13.34
1/10/2023 2:00:00 AM 3.08 37.544 0.049 6.64 2.68 13.34
1/10/2023 2:15:00 AM 3.09 37.562 0.049 6.64 2.74 13.33
1/10/2023 2:30:00 AM 3.09 37.562 0.049 6.64 2.72 13.34
1/10/2023 2:45:00 AM 3.09 37.562 0.049 6.65 2.76 13.34
1/10/2023 3:00:00 AM 3.1 37.58 0.049 6.65 2.79 13.34
1/10/2023 3:15:00 AM 3.1 37.58 0.049 6.64 2.72 13.33
1/10/2023 3:30:00 AM 3.1 37.58 0.049 6.65 2.69 13.33
1/10/2023 3:45:00 AM 3.11 37.598 0.049 6.64 2.69 13.33
1/10/2023 4:00:00 AM 3.11 37.598 0.049 6.65 2.72 13.33
1/10/2023 4:15:00 AM 3.11 37.598 0.049 6.64 2.65 13.33
1/10/2023 4:30:00 AM 3.12 37.616 0.049 6.64 2.67 13.33
1/10/2023 4:45:00 AM 3.12 37.616 0.049 6.65 2.71 13.32
1/10/2023 5:00:00 AM 3.12 37.616 0.049 6.65 2.7 13.32
1/10/2023 5:15:00 AM 3.13 37.634 0.049 6.67 2.65 13.32
1/10/2023 5:30:00 AM 3.13 37.634 0.049 6.66 2.7 13.32
1/10/2023 5:45:00 AM 3.13 37.634 0.049 6.68 2.76 13.32
1/10/2023 6:00:00 AM 3.14 37.652 0.049 6.71 2.71 13.32
1/10/2023 6:15:00 AM 3.14 37.652 0.049 6.7 2.8 13.32
1/10/2023 6:30:00 AM 3.14 37.652 0.049 6.65 2.81 13.32
1/10/2023 6:45:00 AM 3.15 37.67 0.049 6.64 2.76 13.31
1/10/2023 7:00:00 AM 3.15 37.67 0.049 6.66 2.7 13.31
1/10/2023 7:15:00 AM 3.15 37.67 0.049 6.68 2.63 13.32
1/10/2023 7:30:00 AM 3.16 37.688 0.049 6.7 2.66 13.31
1/10/2023 7:45:00 AM 3.16 37.688 0.049 6.71 2.61 13.32
1/10/2023 8:00:00 AM 3.16 37.688 0.049 6.73 2.61 13.33
1/10/2023 8:15:00 AM 3.16 37.688 0.049 6.73 2.63 13.35
1/10/2023 8:30:00 AM 3.16 37.688 0.049 6.73 2.55 13.39
1/10/2023 8:45:00 AM 3.16 37.688 0.049 6.74 2.51 13.45
1/10/2023 9:00:00 AM 3.16 37.688 0.049 6.76 2.53 13.52
1/10/2023 9:15:00 AM 3.17 37.706 0.048 6.77 2.45 13.58
1/10/2023 9:30:00 AM 3.21 37.778 0.049 6.79 2.45 13.64
1/10/2023 9:45:00 AM 3.24 37.832 0.048 6.79 2.45 13.68
1/10/2023 10:00:00 AM 3.28 37.904 0.048 6.8 2.41 13.71
1/10/2023 10:15:00 AM 3.32 37.976 0.048 6.82 2.37 13.73
1/10/2023 10:30:00 AM 3.37 38.066 0.048 6.83 2.36 13.74
1/10/2023 10:45:00 AM 3.43 38.174 0.048 6.84 2.36 13.74
1/10/2023 11:00:00 AM 3.49 38.282 0.048 6.85 2.34 13.74
1/10/2023 11:15:00 AM 3.55 38.39 0.048 6.85 2.34 13.73
1/10/2023 11:30:00 AM 3.6 38.48 0.048 6.86 2.32 13.72
1/10/2023 11:45:00 AM 3.65 38.57 0.048 6.87 2.31 13.71
1/10/2023 12:00:00 PM 3.71 38.678 0.048 6.88 2.25 13.7
1/10/2023 12:15:00 PM 3.76 38.768 0.048 6.87 2.28 13.69
1/10/2023 12:30:00 PM 3.83 38.894 0.048 6.88 2.28 13.68
1/10/2023 12:45:00 PM 3.9 39.02 0.048 6.88 2.23 13.66
1/10/2023 1:00:00 PM 3.97 39.146 0.048 6.89 2.26 13.63
1/10/2023 1:15:00 PM 4.05 39.29 0.048 6.89 2.23 13.62
1/10/2023 1:30:00 PM 4.12 39.416 0.048 6.89 2.23 13.58
1/10/2023 1:45:00 PM 4.17 39.506 0.048 6.9 2.25 13.55
1/10/2023 2:00:00 PM 4.2 39.56 0.048 6.89 2.22 13.54
1/10/2023 2:15:00 PM 4.22 39.596 0.048 6.89 2.27 13.51
1/10/2023 2:30:00 PM 4.24 39.632 0.048 6.89 2.27 13.48
1/10/2023 2:45:00 PM 4.25 39.65 0.048 6.89 2.22 13.47
1/10/2023 3:00:00 PM 4.25 39.65 0.048 6.89 2.27 13.44
1/10/2023 3:15:00 PM 4.23 39.614 0.047 6.88 2.24 13.43
1/10/2023 3:30:00 PM 4.22 39.596 0.048 6.89 2.24 13.41
1/10/2023 3:45:00 PM 4.22 39.596 0.048 6.88 2.26 13.38
1/10/2023 4:00:00 PM 4.21 39.578 0.048 6.87 2.27 13.35
1/10/2023 4:15:00 PM 4.21 39.578 0.048 6.87 2.32 13.33
1/10/2023 4:30:00 PM 4.21 39.578 0.048 6.86 2.31 13.29
1/10/2023 4:45:00 PM 4.19 39.542 0.048 6.85 2.31 13.25
1/10/2023 5:00:00 PM 4.17 39.506 0.048 6.83 2.26 13.2
1/10/2023 5:15:00 PM 4.14 39.452 0.048 6.82 2.29 13.15
1/10/2023 5:30:00 PM 4.09 39.362 0.048 6.81 2.3 13.11
1/10/2023 5:45:00 PM 4.05 39.29 0.048 6.8 2.33 13.08
1/10/2023 6:00:00 PM 4.02 39.236 0.048 6.78 2.35 13.07
1/10/2023 6:15:00 PM 3.98 39.164 0.048 6.77 2.4 13.05
1/10/2023 6:30:00 PM 3.95 39.11 0.049 6.76 2.36 13.05
1/10/2023 6:45:00 PM 3.91 39.038 0.049 6.77 2.39 13.05
1/10/2023 7:00:00 PM 3.88 38.984 0.049 6.76 2.42 13.06
1/10/2023 7:15:00 PM 3.85 38.93 0.049 6.76 2.43 13.06
1/10/2023 7:30:00 PM 3.82 38.876 0.049 6.75 2.42 13.07
1/10/2023 7:45:00 PM 3.8 38.84 0.049 6.75 2.43 13.07
1/10/2023 8:00:00 PM 3.78 38.804 0.049 6.75 2.47 13.07
1/10/2023 8:15:00 PM 3.76 38.768 0.049 6.75 2.46 13.08
1/10/2023 8:30:00 PM 3.74 38.732 0.049 6.74 2.51 13.09
1/10/2023 8:45:00 PM 3.73 38.714 0.049 6.74 2.56 13.09
1/10/2023 9:00:00 PM 3.7 38.66 0.049 6.74 2.57 13.1
1/10/2023 9:15:00 PM 3.68 38.624 0.049 6.74 2.57 13.11
1/10/2023 9:30:00 PM 3.66 38.588 0.049 6.74 2.54 13.12
1/10/2023 9:45:00 PM 3.62 38.516 0.046 6.75 3.2 13.13
1/10/2023 10:00:00 PM 3.58 38.444 0.049 6.74 2.6 13.13
1/10/2023 10:15:00 PM 3.56 38.408 0.049 6.74 2.55 13.15
1/10/2023 10:30:00 PM 3.53 38.354 0.049 6.73 2.58 13.16
1/10/2023 10:45:00 PM 3.51 38.318 0.049 6.74 2.56 13.17
1/10/2023 11:00:00 PM 3.49 38.282 0.049 6.73 2.54 13.18
1/10/2023 11:15:00 PM 3.48 38.264 0.049 6.73 2.56 13.19
1/10/2023 11:30:00 PM 3.46 38.228 0.049 6.74 2.59 13.19
1/10/2023 11:45:00 PM 3.45 38.21 0.049 6.73 2.55 13.2
1/11/2023 12:00:00 AM 3.44 38.192 0.049 6.73 2.61 13.21
1/11/2023 12:15:00 AM 3.42 38.156 0.049 6.73 2.57 13.21
1/11/2023 12:30:00 AM 3.41 38.138 0.049 6.73 2.54 13.22
1/11/2023 12:45:00 AM 3.4 38.12 0.049 6.73 2.57 13.22
1/11/2023 1:00:00 AM 3.39 38.102 0.049 6.72 2.64 13.23
1/11/2023 1:15:00 AM 3.38 38.084 0.049 6.73 2.61 13.24
1/11/2023 1:30:00 AM 3.37 38.066 0.049 6.73 2.53 13.24
1/11/2023 1:45:00 AM 3.37 38.066 0.049 6.73 2.59 13.25
1/11/2023 2:00:00 AM 3.36 38.048 0.049 6.73 2.52 13.25
1/11/2023 2:15:00 AM 3.35 38.03 0.049 6.73 2.55 13.26
1/11/2023 2:30:00 AM 3.34 38.012 0.049 6.73 2.59 13.26
1/11/2023 2:45:00 AM 3.34 38.012 0.049 6.73 2.55 13.26
1/11/2023 3:00:00 AM 3.33 37.994 0.049 6.73 2.61 13.27
1/11/2023 3:15:00 AM 3.32 37.976 0.049 6.73 2.57 13.27
1/11/2023 3:30:00 AM 3.32 37.976 0.049 6.75 2.47 13.27
1/11/2023 3:45:00 AM 3.31 37.958 0.049 6.76 2.52 13.27
1/11/2023 4:00:00 AM 3.31 37.958 0.049 6.76 2.49 13.28
1/11/2023 4:15:00 AM 3.3 37.94 0.049 6.76 2.52 13.28
1/11/2023 4:30:00 AM 3.28 37.904 0.049 6.77 2.49 13.28
1/11/2023 4:45:00 AM 3.26 37.868 0.049 6.76 2.44 13.29
1/11/2023 5:00:00 AM 3.23 37.814 0.049 6.76 2.45 13.29
1/11/2023 5:15:00 AM 3.19 37.742 0.049 6.76 2.51 13.29
1/11/2023 5:30:00 AM 3.16 37.688 0.049 6.76 2.49 13.3
1/11/2023 5:45:00 AM 3.12 37.616 0.049 6.75 2.55 13.31
1/11/2023 6:00:00 AM 3.08 37.544 0.049 6.75 2.59 13.32
1/11/2023 6:15:00 AM 3.04 37.472 0.049 6.76 2.57 13.34
1/11/2023 6:30:00 AM 3 37.4 0.049 6.75 2.54 13.35
1/11/2023 6:45:00 AM 2.96 37.328 0.049 6.75 2.51 13.36
1/11/2023 7:00:00 AM 2.92 37.256 0.049 6.75 2.48 13.38
1/11/2023 7:15:00 AM 2.88 37.184 0.049 6.74 2.48 13.4
1/11/2023 7:30:00 AM 2.85 37.13 0.049 6.74 2.46 13.42
1/11/2023 7:45:00 AM 2.81 37.058 0.049 6.76 2.44 13.44
1/11/2023 8:00:00 AM 2.78 37.004 0.049 6.76 2.44 13.48
1/11/2023 8:15:00 AM 2.77 36.986 0.049 6.77 2.48 13.54
1/11/2023 8:30:00 AM 2.75 36.95 0.049 6.78 2.45 13.61
1/11/2023 8:45:00 AM 2.74 36.932 0.049 6.79 2.42 13.68
1/11/2023 9:00:00 AM 2.75 36.95 0.049 6.8 2.35 13.75
1/11/2023 9:15:00 AM 2.76 36.968 0.049 6.81 2.35 13.81
1/11/2023 9:30:00 AM 2.78 37.004 0.049 6.82 2.3 13.86
1/11/2023 9:45:00 AM 2.81 37.058 0.049 6.84 2.34 13.9
1/11/2023 10:00:00 AM 2.85 37.13 0.049 6.85 2.33 13.93
1/11/2023 10:15:00 AM 2.9 37.22 0.049 6.85 2.32 13.95
1/11/2023 10:30:00 AM 2.95 37.31 0.049 6.86 2.28 13.95
1/11/2023 10:45:00 AM 3.01 37.418 0.049 6.87 2.25 13.96
1/11/2023 11:00:00 AM 3.07 37.526 0.048 6.88 2.24 13.96
1/11/2023 11:15:00 AM 3.12 37.616 0.049 6.88 2.23 13.95
1/11/2023 11:30:00 AM 3.19 37.742 0.049 6.88 2.19 13.94
1/11/2023 11:45:00 AM 3.26 37.868 0.048 6.89 2.19 13.93
1/11/2023 12:00:00 PM 3.34 38.012 0.048 6.9 2.22 13.91
1/11/2023 12:15:00 PM 3.41 38.138 0.048 6.91 2.17 13.89
1/11/2023 12:30:00 PM 3.48 38.264 0.048 6.91 2.17 13.86
1/11/2023 12:45:00 PM 3.56 38.408 0.048 6.91 2.19 13.84
1/11/2023 1:00:00 PM 3.63 38.534 0.048 6.92 2.11 13.8
1/11/2023 1:15:00 PM 3.7 38.66 0.048 6.93 2.15 13.78
1/11/2023 1:30:00 PM 3.75 38.75 0.048 6.93 2.14 13.75
1/11/2023 1:45:00 PM 3.82 38.876 0.048 6.94 2.14 13.73
1/11/2023 2:00:00 PM 3.87 38.966 0.048 6.94 2.11 13.71
1/11/2023 2:15:00 PM 3.92 39.056 0.048 6.93 2.13 13.67
1/11/2023 2:30:00 PM 3.97 39.146 0.048 6.94 2.08 13.65
1/11/2023 2:45:00 PM 4.01 39.218 0.048 6.94 2.1 13.61
1/11/2023 3:00:00 PM 4.03 39.254 0.048 6.93 2.1 13.58
1/11/2023 3:15:00 PM 4.05 39.29 0.048 6.93 2.11 13.54
1/11/2023 3:30:00 PM 4.07 39.326 0.048 6.93 2.14 13.52
1/11/2023 3:45:00 PM 4.09 39.362 0.048 6.93 2.11 13.5
1/11/2023 4:00:00 PM 4.09 39.362 0.048 6.93 2.12 13.48
1/11/2023 4:15:00 PM 4.1 39.38 0.048 6.93 2.13 13.46
1/11/2023 4:30:00 PM 4.09 39.362 0.048 6.92 2.12 13.44
1/11/2023 4:45:00 PM 4.09 39.362 0.048 6.91 2.14 13.39
1/11/2023 5:00:00 PM 4.06 39.308 0.048 6.9 2.19 13.31
1/11/2023 5:15:00 PM 4.03 39.254 0.048 6.88 2.11 13.24
1/11/2023 5:30:00 PM 4 39.2 0.049 6.86 2.15 13.19
1/11/2023 5:45:00 PM 3.96 39.128 0.049 6.84 2.15 13.14
1/11/2023 6:00:00 PM 3.93 39.074 0.049 6.84 2.26 13.11
1/11/2023 6:15:00 PM 3.9 39.02 0.049 6.83 2.23 13.09
1/11/2023 6:30:00 PM 3.89 39.002 0.049 6.82 2.23 13.08
1/11/2023 6:45:00 PM 3.88 38.984 0.049 6.81 2.23 13.07
1/11/2023 7:00:00 PM 3.86 38.948 0.049 6.81 2.24 13.07
1/11/2023 7:15:00 PM 3.85 38.93 0.049 6.8 2.28 13.07
1/11/2023 7:30:00 PM 3.84 38.912 0.049 6.79 2.28 13.07
1/11/2023 7:45:00 PM 3.82 38.876 0.049 6.79 2.25 13.06
1/11/2023 8:00:00 PM 3.8 38.84 0.049 6.79 2.28 13.07
1/11/2023 8:15:00 PM 3.77 38.786 0.049 6.78 2.27 13.08
1/11/2023 8:30:00 PM 3.73 38.714 0.049 6.78 2.33 13.08
1/11/2023 8:45:00 PM 3.71 38.678 0.049 6.78 2.37 13.09
1/11/2023 9:00:00 PM 3.68 38.624 0.049 6.79 2.4 13.09
1/11/2023 9:15:00 PM 3.66 38.588 0.05 6.78 2.37 13.1
1/11/2023 9:30:00 PM 3.63 38.534 0.05 6.78 2.35 13.11
1/11/2023 9:45:00 PM 3.6 38.48 0.049 6.79 2.39 13.12
1/11/2023 10:00:00 PM 3.58 38.444 0.05 6.78 2.37 13.12
1/11/2023 10:15:00 PM 3.55 38.39 0.05 6.78 2.39 13.14
1/11/2023 10:30:00 PM 3.53 38.354 0.05 6.77 2.35 13.14
1/11/2023 10:45:00 PM 3.52 38.336 0.05 6.77 2.37 13.15
1/11/2023 11:00:00 PM 3.51 38.318 0.05 6.76 2.39 13.16
1/11/2023 11:15:00 PM 3.5 38.3 0.05 6.76 2.4 13.16
1/11/2023 11:30:00 PM 3.49 38.282 0.05 6.77 2.36 13.17
1/11/2023 11:45:00 PM 3.48 38.264 0.05 6.77 2.36 13.17
1/12/2023 12:00:00 AM 3.47 38.246 0.05 6.77 2.34 13.18
1/12/2023 12:15:00 AM 3.46 38.228 0.05 6.77 2.35 13.19
1/12/2023 12:30:00 AM 3.46 38.228 0.05 6.76 2.39 13.18
1/12/2023 12:45:00 AM 3.46 38.228 0.05 6.76 2.4 13.19
1/12/2023 1:00:00 AM 3.46 38.228 0.05 6.77 2.37 13.19
1/12/2023 1:15:00 AM 3.46 38.228 0.05 6.77 2.37 13.19
1/12/2023 1:30:00 AM 3.47 38.246 0.05 6.77 2.41 13.19
1/12/2023 1:45:00 AM 3.47 38.246 0.05 6.77 2.42 13.18
1/12/2023 2:00:00 AM 3.47 38.246 0.05 6.77 2.44 13.18
1/12/2023 2:15:00 AM 3.47 38.246 0.05 6.78 2.45 13.17
1/12/2023 2:30:00 AM 3.47 38.246 0.05 6.77 2.52 13.18
1/12/2023 2:45:00 AM 3.48 38.264 0.05 6.78 2.49 13.18
1/12/2023 3:00:00 AM 3.48 38.264 0.05 6.78 2.47 13.17
1/12/2023 3:15:00 AM 3.49 38.282 0.05 6.77 2.51 13.17
1/12/2023 3:30:00 AM 3.49 38.282 0.05 6.77 2.64 13.17
1/12/2023 3:45:00 AM 3.5 38.3 0.05 6.77 2.4 13.17
1/12/2023 4:00:00 AM 3.51 38.318 0.055 6.76 2.51 13.16
1/12/2023 4:15:00 AM 3.51 38.318 0.07 6.76 2.54 13.16
1/12/2023 4:30:00 AM 3.52 38.336 0.058 6.76 2.44 13.15
1/12/2023 4:45:00 AM 3.53 38.354 0.054 6.76 2.36 13.15
1/12/2023 5:00:00 AM 3.54 38.372 0.053 6.76 2.35 13.14
1/12/2023 5:15:00 AM 3.55 38.39 0.052 6.77 2.33 13.14
1/12/2023 5:30:00 AM 3.56 38.408 0.052 6.77 2.35 13.13
1/12/2023 5:45:00 AM 3.57 38.426 0.055 6.76 2.37 13.13
1/12/2023 6:00:00 AM 3.58 38.444 0.053 6.77 2.37 13.13
1/12/2023 6:15:00 AM 3.59 38.462 0.051 6.76 2.43 13.13
1/12/2023 6:30:00 AM 3.6 38.48 0.051 6.77 2.37 13.12
1/12/2023 6:45:00 AM 3.61 38.498 0.051 6.76 2.41 13.12
1/12/2023 7:00:00 AM 3.62 38.516 0.051 6.76 2.41 13.11
1/12/2023 7:15:00 AM 3.63 38.534 0.051 6.77 2.5 13.11
1/12/2023 7:30:00 AM 3.64 38.552 0.05 6.77 2.48 13.11
1/12/2023 7:45:00 AM 3.65 38.57 0.05 6.77 2.46 13.1
1/12/2023 8:00:00 AM 3.66 38.588 0.05 6.77 2.46 13.11
1/12/2023 8:15:00 AM 3.67 38.606 0.05 6.77 2.49 13.11
1/12/2023 8:30:00 AM 3.68 38.624 0.05 6.78 2.46 13.11
1/12/2023 8:45:00 AM 3.69 38.642 0.05 6.77 2.45 13.13
1/12/2023 9:00:00 AM 3.71 38.678 0.05 6.78 2.39 13.15
1/12/2023 9:15:00 AM 3.72 38.696 0.05 6.78 2.39 13.17
1/12/2023 9:30:00 AM 3.74 38.732 0.05 6.79 2.45 13.2
1/12/2023 9:45:00 AM 3.76 38.768 0.05 6.8 2.46 13.21
1/12/2023 10:00:00 AM 3.78 38.804 0.05 6.8 2.48 13.23
1/12/2023 10:15:00 AM 3.79 38.822 0.05 6.81 2.46 13.25
1/12/2023 10:30:00 AM 3.82 38.876 0.05 6.81 2.41 13.28
1/12/2023 10:45:00 AM 3.84 38.912 0.05 6.82 2.43 13.31
1/12/2023 11:00:00 AM 3.86 38.948 0.05 6.83 2.41 13.32
1/12/2023 11:15:00 AM 3.89 39.002 0.05 6.84 2.45 13.33
1/12/2023 11:30:00 AM 3.91 39.038 0.051 6.84 2.4 13.33
1/12/2023 11:45:00 AM 3.94 39.092 0.05 6.85 2.42 13.36
1/12/2023 12:00:00 PM 3.96 39.128 0.05 6.86 2.39 13.36
1/12/2023 12:15:00 PM 3.98 39.164 0.05 6.87 2.34 13.34
1/12/2023 12:30:00 PM 4.01 39.218 0.05 6.86 2.37 13.35
1/12/2023 12:45:00 PM 4.03 39.254 0.05 6.88 2.36 13.35
1/12/2023 1:00:00 PM 4.07 39.326 0.05 6.88 2.31 13.36
1/12/2023 1:15:00 PM 4.09 39.362 0.05 6.89 2.3 13.34
1/12/2023 1:30:00 PM 4.11 39.398 0.05 6.89 2.3 13.33
1/12/2023 1:45:00 PM 4.12 39.416 0.05 6.89 2.29 13.29
1/12/2023 2:00:00 PM 4.14 39.452 0.069 6.87 2.97 13.25
1/12/2023 2:15:00 PM 4.15 39.47 0.067 6.87 4.13 13.21
1/12/2023 2:30:00 PM 4.16 39.488 0.057 6.87 2.84 13.17
1/12/2023 2:45:00 PM 4.18 39.524 0.062 6.86 3.43 13.16
1/12/2023 3:00:00 PM 4.19 39.542 0.058 6.86 3.65 13.14
1/12/2023 3:15:00 PM 4.21 39.578 0.054 6.85 2.99 13.13
1/12/2023 3:30:00 PM 4.22 39.596 0.054 6.85 2.85 13.11
1/12/2023 3:45:00 PM 4.24 39.632 0.052 6.85 2.7 13.08
1/12/2023 4:00:00 PM 4.25 39.65 0.053 6.84 2.84 13.06
1/12/2023 4:15:00 PM 4.26 39.668 0.054 6.84 3.15 13.02
1/12/2023 4:30:00 PM 4.28 39.704 0.051 6.83 3.23 12.98
1/12/2023 4:45:00 PM 4.29 39.722 0.051 6.83 3.51 12.95
1/12/2023 5:00:00 PM 4.3 39.74 0.05 6.82 4.18 12.91
1/12/2023 5:15:00 PM 4.3 39.74 0.051 6.81 4.95 12.87
1/12/2023 5:30:00 PM 4.31 39.758 0.05 6.8 5.84 12.83
1/12/2023 5:45:00 PM 4.32 39.776 0.051 6.8 6.26 12.81
1/12/2023 6:00:00 PM 4.33 39.794 0.051 6.79 6.05 12.78
1/12/2023 6:15:00 PM 4.34 39.812 0.051 6.8 5.81 12.78
1/12/2023 6:30:00 PM 4.35 39.83 0.051 6.79 5.83 12.77
1/12/2023 6:45:00 PM 4.36 39.848 0.058 6.8 6.57 12.76
1/12/2023 7:00:00 PM 4.37 39.866 0.054 6.78 7.21 12.74
1/12/2023 7:15:00 PM 4.39 39.902 0.053 6.78 7.57 12.74
1/12/2023 7:30:00 PM 4.4 39.92 0.053 6.78 7.7 12.73
1/12/2023 7:45:00 PM 4.41 39.938 0.053 6.77 7.79 12.72
1/12/2023 8:00:00 PM 4.42 39.956 0.053 6.79 7.9 12.72
1/12/2023 8:15:00 PM 4.42 39.956 0.053 6.79 8.02 12.71
1/12/2023 8:30:00 PM 4.43 39.974 0.053 6.8 8.1 12.71
1/12/2023 8:45:00 PM 4.44 39.992 0.053 6.8 8.21 12.7
1/12/2023 9:00:00 PM 4.45 40.01 0.053 6.81 8.35 12.69
1/12/2023 9:15:00 PM 4.46 40.028 0.054 6.81 8.58 12.69
1/12/2023 9:30:00 PM 4.46 40.028 0.054 6.81 8.84 12.69
1/12/2023 9:45:00 PM 4.47 40.046 0.054 6.82 9.01 12.68
1/12/2023 10:00:00 PM 4.48 40.064 0.054 6.81 8.98 12.68
1/12/2023 10:15:00 PM 4.49 40.082 0.054 6.81 8.91 12.68
1/12/2023 10:30:00 PM 4.49 40.082 0.054 6.81 9.14 12.67
1/12/2023 10:45:00 PM 4.5 40.1 0.054 6.81 9.04 12.66
1/12/2023 11:00:00 PM 4.51 40.118 0.054 6.8 9.09 12.66
1/12/2023 11:15:00 PM 4.52 40.136 0.054 6.8 8.9 12.65
1/12/2023 11:30:00 PM 4.53 40.154 0.054 6.8 8.85 12.65
1/12/2023 11:45:00 PM 4.54 40.172 0.054 6.79 8.6 12.64
1/13/2023 12:00:00 AM 4.55 40.19 0.054 6.79 8.46 12.64
1/13/2023 12:15:00 AM 4.56 40.208 0.056 6.81 8.24 12.63
1/13/2023 12:30:00 AM 4.57 40.226 0.055 6.8 8.2 12.62
1/13/2023 12:45:00 AM 4.58 40.244 0.055 6.82 8.1 12.62
1/13/2023 1:00:00 AM 4.59 40.262 0.055 6.81 7.59 12.61
1/13/2023 1:15:00 AM 4.6 40.28 0.058 6.81 9.91 12.6
1/13/2023 1:30:00 AM 4.6 40.28 0.056 6.83 1207.91 12.6
1/13/2023 1:45:00 AM 4.62 40.316 0.056 6.81 7.06 12.59
1/13/2023 2:00:00 AM 4.63 40.334 0.056 6.81 6.96 12.59
1/13/2023 2:15:00 AM 4.63 40.334 0.057 6.8 6.83 12.59
1/13/2023 2:30:00 AM 4.64 40.352 0.056 6.81 6.67 12.58
1/13/2023 2:45:00 AM 4.65 40.37 0.056 6.81 6.51 12.57
1/13/2023 3:00:00 AM 4.66 40.388 0.056 6.81 6.4 12.57
1/13/2023 3:15:00 AM 4.67 40.406 0.056 6.81 6.43 12.57
1/13/2023 3:30:00 AM 4.67 40.406 0.056 6.81 6.6 12.57
1/13/2023 3:45:00 AM 4.68 40.424 0.056 6.81 6.65 12.56
1/13/2023 4:00:00 AM 4.68 40.424 0.056 6.81 6.81 12.56
1/13/2023 4:15:00 AM 4.68 40.424 0.056 6.82 6.86 12.57
1/13/2023 4:30:00 AM 4.68 40.424 0.056 6.82 6.96 12.57
1/13/2023 4:45:00 AM 4.67 40.406 0.056 6.82 7.13 12.57
1/13/2023 5:00:00 AM 4.67 40.406 0.056 6.82 7.01 12.58
1/13/2023 5:15:00 AM 4.66 40.388 0.056 6.81 7.01 12.58
1/13/2023 5:30:00 AM 4.65 40.37 0.056 6.81 7.14 12.59
1/13/2023 5:45:00 AM 4.64 40.352 0.056 6.8 7.06 12.61
1/13/2023 6:00:00 AM 4.63 40.334 0.056 6.79 7.04 12.61
1/13/2023 6:15:00 AM 4.61 40.298 0.056 6.8 7.21 12.62
1/13/2023 6:30:00 AM 4.59 40.262 0.056 6.8 7.34 12.63
1/13/2023 6:45:00 AM 4.57 40.226 0.056 6.81 7.26 12.64
1/13/2023 7:00:00 AM 4.55 40.19 0.057 6.81 7.36 12.65
1/13/2023 7:15:00 AM 4.53 40.154 0.057 6.81 7.33 12.66
1/13/2023 7:30:00 AM 4.51 40.118 0.057 6.81 7.24 12.67
1/13/2023 7:45:00 AM 4.49 40.082 0.057 6.82 7.22 12.68
1/13/2023 8:00:00 AM 4.47 40.046 0.056 6.82 7.09 12.7
1/13/2023 8:15:00 AM 4.45 40.01 0.056 6.82 6.83 12.72
1/13/2023 8:30:00 AM 4.43 39.974 0.056 6.82 6.75 12.74
1/13/2023 8:45:00 AM 4.41 39.938 0.056 6.82 6.6 12.8
1/13/2023 9:00:00 AM 4.4 39.92 0.056 6.83 6.49 12.85
1/13/2023 9:15:00 AM 4.39 39.902 0.056 6.84 6.4 12.91
1/13/2023 9:30:00 AM 4.39 39.902 0.056 6.85 6.08 12.98
1/13/2023 9:45:00 AM 4.37 39.866 0.056 6.87 5.85 13.03
1/13/2023 10:00:00 AM 4.36 39.848 0.056 6.87 5.74 13.05
1/13/2023 10:15:00 AM 4.33 39.794 0.056 6.87 5.6 13.04
1/13/2023 10:30:00 AM 4.31 39.758 0.056 6.88 5.45 13.04
1/13/2023 10:45:00 AM 4.29 39.722 0.056 6.87 5.26 13.05
1/13/2023 11:00:00 AM 4.28 39.704 0.056 6.86 5.23 13.09
1/13/2023 11:15:00 AM 4.27 39.686 0.055 6.86 5.08 13.15
1/13/2023 11:30:00 AM 4.27 39.686 0.056 6.86 4.91 13.19
1/13/2023 11:45:00 AM 4.25 39.65 0.055 6.87 4.81 13.2
1/13/2023 12:00:00 PM 4.22 39.596 0.055 6.89 4.71 13.2
1/13/2023 12:15:00 PM 4.21 39.578 0.055 6.89 4.62 13.22
1/13/2023 12:30:00 PM 4.2 39.56 0.055 6.89 4.66 13.24
1/13/2023 12:45:00 PM 4.18 39.524 0.055 6.89 4.38 13.26
1/13/2023 1:00:00 PM 4.17 39.506 0.055 6.9 4.39 13.26
1/13/2023 1:15:00 PM 4.15 39.47 0.055 6.9 4.35 13.27
1/13/2023 1:30:00 PM 4.13 39.434 0.055 6.89 4.35 13.27
1/13/2023 1:45:00 PM 4.12 39.416 0.055 6.89 4.25 13.29
1/13/2023 2:00:00 PM 4.1 39.38 0.055 6.89 4.16 13.3
1/13/2023 2:15:00 PM 4.09 39.362 0.055 6.89 4.09 13.31
1/13/2023 2:30:00 PM 4.07 39.326 0.055 6.89 4.07 13.31
1/13/2023 2:45:00 PM 4.04 39.272 0.055 6.88 3.99 13.29
1/13/2023 3:00:00 PM 4.02 39.236 0.055 6.88 3.98 13.28
1/13/2023 3:15:00 PM 3.99 39.182 0.055 6.87 3.9 13.27
1/13/2023 3:30:00 PM 3.97 39.146 0.055 6.86 3.77 13.26
1/13/2023 3:45:00 PM 3.94 39.092 0.055 6.86 3.85 13.24
1/13/2023 4:00:00 PM 3.91 39.038 0.055 6.86 3.82 13.22
1/13/2023 4:15:00 PM 3.87 38.966 0.055 6.85 3.81 13.19
1/13/2023 4:30:00 PM 3.84 38.912 0.055 6.84 3.65 13.15
1/13/2023 4:45:00 PM 3.81 38.858 0.055 6.83 3.63 13.13
1/13/2023 5:00:00 PM 3.77 38.786 0.055 6.82 3.73 13.11
1/13/2023 5:15:00 PM 3.74 38.732 0.055 6.82 3.7 13.09
1/13/2023 5:30:00 PM 3.7 38.66 0.055 6.81 3.64 13.09
1/13/2023 5:45:00 PM 3.67 38.606 0.055 6.81 3.6 13.08
1/13/2023 6:00:00 PM 3.63 38.534 0.055 6.82 3.66 13.08
1/13/2023 6:15:00 PM 3.6 38.48 0.055 6.82 3.59 13.09
1/13/2023 6:30:00 PM 3.56 38.408 0.055 6.81 3.55 13.09
1/13/2023 6:45:00 PM 3.52 38.336 0.055 6.82 3.55 13.11
1/13/2023 7:00:00 PM 3.49 38.282 0.055 6.8 3.61 13.12
1/13/2023 7:15:00 PM 3.45 38.21 0.056 6.79 3.51 13.13
1/13/2023 7:30:00 PM 3.42 38.156 0.055 6.77 3.47 13.14
1/13/2023 7:45:00 PM 3.38 38.084 0.056 6.76 3.44 13.15
1/13/2023 8:00:00 PM 3.35 38.03 0.055 6.77 3.57 13.17
1/13/2023 8:15:00 PM 3.31 37.958 0.055 6.77 3.52 13.18
1/13/2023 8:30:00 PM 3.28 37.904 0.055 6.76 3.42 13.2
1/13/2023 8:45:00 PM 3.26 37.868 0.056 6.78 3.5 13.21
1/13/2023 9:00:00 PM 3.23 37.814 0.055 6.75 3.47 13.22
1/13/2023 9:15:00 PM 3.2 37.76 0.055 6.75 3.47 13.23
1/13/2023 9:30:00 PM 3.17 37.706 0.055 6.76 3.46 13.24
1/13/2023 9:45:00 PM 3.14 37.652 0.055 6.76 3.46 13.25
1/13/2023 10:00:00 PM 3.11 37.598 0.055 6.76 3.4 13.26
1/13/2023 10:15:00 PM 3.09 37.562 0.052 6.77 3.9 13.27
1/13/2023 10:30:00 PM 3.06 37.508 0.055 6.76 3.35 13.28
1/13/2023 10:45:00 PM 3.02 37.436 0.052 6.77 3.88 13.29
1/13/2023 11:00:00 PM 2.99 37.382 0.055 6.77 3.43 13.3
1/13/2023 11:15:00 PM 2.96 37.328 0.055 6.77 3.39 13.31
1/13/2023 11:30:00 PM 2.93 37.274 0.055 6.77 3.39 13.33
1/13/2023 11:45:00 PM 2.91 37.238 0.055 6.78 3.28 13.33
1/14/2023 12:00:00 AM 2.88 37.184 0.055 6.77 3.34 13.35
1/14/2023 12:15:00 AM 2.85 37.13 0.055 6.77 3.19 13.36
1/14/2023 12:30:00 AM 2.81 37.058 0.055 6.77 3.22 13.37
1/14/2023 12:45:00 AM 2.79 37.022 0.055 6.77 3.21 13.38
1/14/2023 1:00:00 AM 2.76 36.968 0.055 6.76 3.2 13.39
1/14/2023 1:15:00 AM 2.74 36.932 0.055 6.75 3.18 13.4
1/14/2023 1:30:00 AM 2.71 36.878 0.055 6.76 3.2 13.41
1/14/2023 1:45:00 AM 2.69 36.842 0.055 6.75 3.17 13.42
1/14/2023 2:00:00 AM 2.68 36.824 0.055 6.77 3.15 13.43
1/14/2023 2:15:00 AM 2.65 36.77 0.054 6.76 3.07 13.44
1/14/2023 2:30:00 AM 2.63 36.734 0.054 6.75 3.09 13.45
1/14/2023 2:45:00 AM 2.61 36.698 0.054 6.75 3.07 13.46
1/14/2023 3:00:00 AM 2.58 36.644 0.054 6.74 3.1 13.47
1/14/2023 3:15:00 AM 2.56 36.608 0.054 6.74 3.11 13.48
1/14/2023 3:30:00 AM 2.54 36.572 0.051 6.74 3.8 13.49
1/14/2023 3:45:00 AM 2.51 36.518 0.053 6.73 3.28 13.5
1/14/2023 4:00:00 AM 2.49 36.482 0.054 6.71 3.05 13.51
1/14/2023 4:15:00 AM 2.47 36.446 0.054 6.7 3.08 13.51
1/14/2023 4:30:00 AM 2.45 36.41 0.054 6.71 3.04 13.52
1/14/2023 4:45:00 AM 2.43 36.374 0.054 6.7 3.01 13.53
1/14/2023 5:00:00 AM 2.41 36.338 0.051 6.72 3.64 13.54
1/14/2023 5:15:00 AM 2.39 36.302 0.054 6.72 3.05 13.55
1/14/2023 5:30:00 AM 2.38 36.284 0.054 6.73 3 13.55
1/14/2023 5:45:00 AM 2.37 36.266 0.054 6.73 3.06 13.56
1/14/2023 6:00:00 AM 2.34 36.212 0.054 6.72 3.03 13.57
1/14/2023 6:15:00 AM 2.33 36.194 0.054 6.73 2.98 13.58
1/14/2023 6:30:00 AM 2.31 36.158 0.05 6.73 3.6 13.59
1/14/2023 6:45:00 AM 2.29 36.122 0.054 6.73 3.02 13.6
1/14/2023 7:00:00 AM 2.28 36.104 0.053 6.73 3.02 13.6
1/14/2023 7:15:00 AM 2.26 36.068 0.053 6.73 3.04 13.61
1/14/2023 7:30:00 AM 2.25 36.05 0.053 6.73 3.01 13.62
1/14/2023 7:45:00 AM 2.23 36.014 0.053 6.72 3 13.63
1/14/2023 8:00:00 AM 2.22 35.996 0.053 6.72 2.95 13.64
1/14/2023 8:15:00 AM 2.2 35.96 0.053 6.74 2.94 13.66
1/14/2023 8:30:00 AM 2.19 35.942 0.053 6.74 2.84 13.71
1/14/2023 8:45:00 AM 2.18 35.924 0.053 6.75 2.87 13.75
1/14/2023 9:00:00 AM 2.17 35.906 0.053 6.77 2.79 13.8
1/14/2023 9:15:00 AM 2.16 35.888 0.053 6.77 2.75 13.87
1/14/2023 9:30:00 AM 2.16 35.888 0.053 6.78 2.78 13.93
1/14/2023 9:45:00 AM 2.16 35.888 0.052 6.8 2.79 13.99
1/14/2023 10:00:00 AM 2.17 35.906 0.052 6.82 2.74 14.04
1/14/2023 10:15:00 AM 2.19 35.942 0.052 6.82 2.69 14.08
1/14/2023 10:30:00 AM 2.21 35.978 0.052 6.84 2.65 14.11
1/14/2023 10:45:00 AM 2.24 36.032 0.052 6.85 2.63 14.14
1/14/2023 11:00:00 AM 2.27 36.086 0.052 6.85 2.57 14.16
1/14/2023 11:15:00 AM 2.29 36.122 0.052 6.87 2.58 14.17
1/14/2023 11:30:00 AM 2.33 36.194 0.052 6.88 2.54 14.17
1/14/2023 11:45:00 AM 2.36 36.248 0.052 6.88 2.55 14.17
1/14/2023 12:00:00 PM 2.4 36.32 0.051 6.89 2.44 14.17
1/14/2023 12:15:00 PM 2.43 36.374 0.051 6.9 2.52 14.16
1/14/2023 12:30:00 PM 2.46 36.428 0.051 6.9 2.46 14.16
1/14/2023 12:45:00 PM 2.49 36.482 0.051 6.9 2.52 14.15
1/14/2023 1:00:00 PM 2.52 36.536 0.051 6.9 2.49 14.14
1/14/2023 1:15:00 PM 2.55 36.59 0.051 6.91 2.47 14.13
1/14/2023 1:30:00 PM 2.58 36.644 0.051 6.9 2.46 14.12
1/14/2023 1:45:00 PM 2.61 36.698 0.051 6.91 2.47 14.12
1/14/2023 2:00:00 PM 2.63 36.734 0.051 6.91 2.48 14.11
1/14/2023 2:15:00 PM 2.65 36.77 0.051 6.9 2.49 14.1
1/14/2023 2:30:00 PM 2.67 36.806 0.051 6.91 2.43 14.09
1/14/2023 2:45:00 PM 2.68 36.824 0.051 6.91 2.44 14.06
1/14/2023 3:00:00 PM 2.68 36.824 0.051 6.9 2.45 14.05
1/14/2023 3:15:00 PM 2.68 36.824 0.051 6.91 2.35 14.03
1/14/2023 3:30:00 PM 2.67 36.806 0.051 6.89 2.42 14.02
1/14/2023 3:45:00 PM 2.66 36.788 0.051 6.9 2.42 14
1/14/2023 4:00:00 PM 2.65 36.77 0.051 6.93 2.39 13.99
1/14/2023 4:15:00 PM 2.62 36.716 0.051 6.92 2.42 13.95
1/14/2023 4:30:00 PM 2.6 36.68 0.051 6.91 2.43 13.91
1/14/2023 4:45:00 PM 2.57 36.626 0.051 6.89 2.46 13.86
1/14/2023 5:00:00 PM 2.54 36.572 0.051 6.88 2.47 13.81
1/14/2023 5:15:00 PM 2.52 36.536 0.048 6.88 3.12 13.77
1/14/2023 5:30:00 PM 2.48 36.464 0.051 6.85 2.49 13.73
1/14/2023 5:45:00 PM 2.44 36.392 0.051 6.84 2.49 13.71
1/14/2023 6:00:00 PM 2.4 36.32 0.051 6.83 2.46 13.7
1/14/2023 6:15:00 PM 2.36 36.248 0.051 6.81 2.47 13.69
1/14/2023 6:30:00 PM 2.33 36.194 0.051 6.81 2.52 13.69
1/14/2023 6:45:00 PM 2.29 36.122 0.051 6.8 2.51 13.69
1/14/2023 7:00:00 PM 2.27 36.086 0.051 6.8 2.51 13.69
1/14/2023 7:15:00 PM 2.24 36.032 0.051 6.79 2.55 13.7
1/14/2023 7:30:00 PM 2.21 35.978 0.051 6.79 2.57 13.71
1/14/2023 7:45:00 PM 2.19 35.942 0.051 6.79 2.56 13.72
1/14/2023 8:00:00 PM 2.18 35.924 0.051 6.79 2.55 13.73
1/14/2023 8:15:00 PM 2.15 35.87 0.051 6.79 2.59 13.74
1/14/2023 8:30:00 PM 2.12 35.816 0.051 6.78 2.58 13.75
1/14/2023 8:45:00 PM 2.1 35.78 0.051 6.78 2.7 13.76
1/14/2023 9:00:00 PM 2.07 35.726 0.051 6.76 2.68 13.76
1/14/2023 9:15:00 PM 2.05 35.69 0.051 6.75 2.7 13.78
1/14/2023 9:30:00 PM 2.02 35.636 0.051 6.75 2.68 13.79
1/14/2023 9:45:00 PM 2.01 35.618 0.051 6.74 2.61 13.79
1/14/2023 10:00:00 PM 2 35.6 0.051 6.75 2.7 13.8
1/14/2023 10:15:00 PM 1.98 35.564 0.051 6.74 2.61 13.8
1/14/2023 10:30:00 PM 1.97 35.546 0.051 6.74 2.69 13.81
1/14/2023 10:45:00 PM 1.95 35.51 0.051 6.74 2.56 13.82
1/14/2023 11:00:00 PM 1.94 35.492 0.051 6.73 2.59 13.82
1/14/2023 11:15:00 PM 1.93 35.474 0.051 6.74 2.59 13.83
1/14/2023 11:30:00 PM 1.91 35.438 0.051 6.73 2.62 13.83
1/14/2023 11:45:00 PM 1.91 35.438 0.051 6.73 2.58 13.83
1/15/2023 12:00:00 AM 1.89 35.402 0.051 6.73 2.58 13.84
1/15/2023 12:15:00 AM 1.88 35.384 0.051 6.74 2.67 13.84
1/15/2023 12:30:00 AM 1.87 35.366 0.051 6.74 2.63 13.84
1/15/2023 12:45:00 AM 1.85 35.33 0.051 6.73 2.63 13.84
1/15/2023 1:00:00 AM 1.85 35.33 0.051 6.73 2.63 13.85
1/15/2023 1:15:00 AM 1.84 35.312 0.048 6.75 3.31 13.85
1/15/2023 1:30:00 AM 1.84 35.312 0.051 6.73 2.62 13.86
1/15/2023 1:45:00 AM 1.83 35.294 0.048 6.74 3.23 13.86
1/15/2023 2:00:00 AM 1.83 35.294 0.051 6.73 2.6 13.87
1/15/2023 2:15:00 AM 1.82 35.276 0.051 6.73 2.59 13.87
1/15/2023 2:30:00 AM 1.83 35.294 0.051 6.73 2.62 13.88
1/15/2023 2:45:00 AM 1.82 35.276 0.051 6.74 2.54 13.88
1/15/2023 3:00:00 AM 1.82 35.276 0.051 6.74 2.55 13.89
1/15/2023 3:15:00 AM 1.82 35.276 0.051 6.73 2.52 13.9
1/15/2023 3:30:00 AM 1.81 35.258 0.051 6.74 2.57 13.89
1/15/2023 3:45:00 AM 1.8 35.24 0.05 6.72 2.55 13.9
1/15/2023 4:00:00 AM 1.8 35.24 0.051 6.73 2.55 13.9
1/15/2023 4:15:00 AM 1.79 35.222 0.05 6.73 2.6 13.9
1/15/2023 4:30:00 AM 1.78 35.204 0.05 6.73 2.66 13.9
1/15/2023 4:45:00 AM 1.78 35.204 0.05 6.74 2.65 13.9
1/15/2023 5:00:00 AM 1.78 35.204 0.05 6.73 2.64 13.91
1/15/2023 5:15:00 AM 1.77 35.186 0.05 6.73 2.58 13.91
1/15/2023 5:30:00 AM 1.76 35.168 0.047 6.74 3.04 13.91
1/15/2023 5:45:00 AM 1.75 35.15 0.05 6.73 2.53 13.91
1/15/2023 6:00:00 AM 1.73 35.114 0.047 6.75 3.3 13.92
1/15/2023 6:15:00 AM 1.72 35.096 0.05 6.74 2.49 13.93
1/15/2023 6:30:00 AM 1.71 35.078 0.05 6.73 2.51 13.94
1/15/2023 6:45:00 AM 1.7 35.06 0.05 6.74 2.5 13.94
1/15/2023 7:00:00 AM 1.69 35.042 0.05 6.74 2.53 13.94
1/15/2023 7:15:00 AM 1.68 35.024 0.05 6.74 2.51 13.95
1/15/2023 7:30:00 AM 1.66 34.988 0.05 6.74 2.61 13.96
1/15/2023 7:45:00 AM 1.65 34.97 0.05 6.73 2.48 13.97
1/15/2023 8:00:00 AM 1.65 34.97 0.05 6.75 2.45 14
1/15/2023 8:15:00 AM 1.64 34.952 0.05 6.74 2.45 14.04
1/15/2023 8:30:00 AM 1.65 34.97 0.05 6.76 2.39 14.1
1/15/2023 8:45:00 AM 1.66 34.988 0.05 6.76 2.41 14.16
1/15/2023 9:00:00 AM 1.66 34.988 0.05 6.79 2.42 14.23
1/15/2023 9:15:00 AM 1.68 35.024 0.05 6.81 2.43 14.29
1/15/2023 9:30:00 AM 1.7 35.06 0.05 6.82 2.36 14.34
1/15/2023 9:45:00 AM 1.72 35.096 0.05 6.82 2.38 14.37
1/15/2023 10:00:00 AM 1.75 35.15 0.05 6.84 2.39 14.4
1/15/2023 10:15:00 AM 1.76 35.168 0.05 6.86 2.37 14.42
1/15/2023 10:30:00 AM 1.82 35.276 0.049 6.86 2.3 14.43
1/15/2023 10:45:00 AM 1.88 35.384 0.049 6.85 2.33 14.44
1/15/2023 11:00:00 AM 1.97 35.546 0.049 6.86 2.25 14.43
1/15/2023 11:15:00 AM 2.05 35.69 0.049 6.87 2.28 14.42
1/15/2023 11:30:00 AM 2.09 35.762 0.049 6.87 2.27 14.41
1/15/2023 11:45:00 AM 2.14 35.852 0.049 6.87 2.21 14.39
1/15/2023 12:00:00 PM 2.23 36.014 0.049 6.88 2.2 14.36
1/15/2023 12:15:00 PM 2.32 36.176 0.049 6.87 2.17 14.33
1/15/2023 12:30:00 PM 2.44 36.392 0.046 6.88 2.87 14.29
1/15/2023 12:45:00 PM 2.53 36.554 0.049 6.88 2.22 14.25
1/15/2023 1:00:00 PM 2.61 36.698 0.049 6.89 2.24 14.22
1/15/2023 1:15:00 PM 2.69 36.842 0.049 6.88 2.18 14.19
1/15/2023 1:30:00 PM 2.76 36.968 0.049 6.88 2.19 14.15
1/15/2023 1:45:00 PM 2.83 37.094 0.049 6.89 2.19 14.11
1/15/2023 2:00:00 PM 2.9 37.22 0.049 6.89 2.23 14.07
1/15/2023 2:15:00 PM 2.96 37.328 0.049 6.88 2.2 14.03
1/15/2023 2:30:00 PM 3 37.4 0.049 6.89 2.16 13.99
1/15/2023 2:45:00 PM 3.04 37.472 0.049 6.89 2.19 13.95
1/15/2023 3:00:00 PM 3.06 37.508 0.049 6.89 2.25 13.92
1/15/2023 3:15:00 PM 3.08 37.544 0.049 6.88 2.26 13.89
1/15/2023 3:30:00 PM 3.08 37.544 0.046 6.89 2.91 13.86
1/15/2023 3:45:00 PM 3.07 37.526 0.049 6.88 2.28 13.83
1/15/2023 4:00:00 PM 3.03 37.454 0.049 6.88 2.25 13.81
1/15/2023 4:15:00 PM 2.99 37.382 0.049 6.86 2.27 13.78
1/15/2023 4:30:00 PM 2.94 37.292 0.046 6.86 2.9 13.76
1/15/2023 4:45:00 PM 2.88 37.184 0.049 6.85 2.23 13.75
1/15/2023 5:00:00 PM 2.82 37.076 0.049 6.83 2.26 13.73
1/15/2023 5:15:00 PM 2.77 36.986 0.049 6.83 2.25 13.7
1/15/2023 5:30:00 PM 2.71 36.878 0.049 6.81 2.25 13.67
1/15/2023 5:45:00 PM 2.65 36.77 0.049 6.79 2.29 13.66
1/15/2023 6:00:00 PM 2.58 36.644 0.049 6.79 2.31 13.65
1/15/2023 6:15:00 PM 2.52 36.536 0.049 6.78 2.34 13.65
1/15/2023 6:30:00 PM 2.46 36.428 0.049 6.77 2.37 13.67
1/15/2023 6:45:00 PM 2.4 36.32 0.049 6.77 2.35 13.67
1/15/2023 7:00:00 PM 2.34 36.212 0.049 6.77 2.32 13.69
1/15/2023 7:15:00 PM 2.28 36.104 0.049 6.75 2.38 13.71
1/15/2023 7:30:00 PM 2.24 36.032 0.05 6.75 2.37 13.72
1/15/2023 7:45:00 PM 2.2 35.96 0.05 6.76 2.34 13.74
1/15/2023 8:00:00 PM 2.15 35.87 0.049 6.75 2.38 13.75
1/15/2023 8:15:00 PM 2.12 35.816 0.05 6.75 2.38 13.76
1/15/2023 8:30:00 PM 2.07 35.726 0.05 6.75 2.37 13.78
1/15/2023 8:45:00 PM 2.04 35.672 0.05 6.75 2.41 13.78
1/15/2023 9:00:00 PM 2 35.6 0.05 6.75 2.43 13.79
1/15/2023 9:15:00 PM 1.97 35.546 0.05 6.75 2.49 13.81
1/15/2023 9:30:00 PM 1.93 35.474 0.05 6.74 2.44 13.82
1/15/2023 9:45:00 PM 1.9 35.42 0.05 6.74 2.45 13.83
1/15/2023 10:00:00 PM 1.86 35.348 0.05 6.75 2.46 13.84
1/15/2023 10:15:00 PM 1.83 35.294 0.05 6.74 2.49 13.86
1/15/2023 10:30:00 PM 1.8 35.24 0.05 6.74 2.47 13.87
1/15/2023 10:45:00 PM 1.76 35.168 0.05 6.74 2.5 13.89
1/15/2023 11:00:00 PM 1.73 35.114 0.05 6.74 2.54 13.89
1/15/2023 11:15:00 PM 1.7 35.06 0.05 6.73 2.54 13.91
1/15/2023 11:30:00 PM 1.67 35.006 0.047 6.75 3.17 13.91
1/15/2023 11:45:00 PM 1.63 34.934 0.05 6.74 2.55 13.93
1/16/2023 12:00:00 AM 1.6 34.88 0.05 6.74 2.49 13.95
1/16/2023 12:15:00 AM 1.56 34.808 0.05 6.73 2.53 13.96
1/16/2023 12:30:00 AM 1.54 34.772 0.05 6.74 2.51 13.96
1/16/2023 12:45:00 AM 1.5 34.7 0.05 6.74 2.51 13.98
1/16/2023 1:00:00 AM 1.47 34.646 0.05 6.72 2.48 13.99
1/16/2023 1:15:00 AM 1.43 34.574 0.05 6.73 2.49 14.01
1/16/2023 1:30:00 AM 1.4 34.52 0.047 6.73 3.15 14.02
1/16/2023 1:45:00 AM 1.36 34.448 0.05 6.73 2.52 14.03
1/16/2023 2:00:00 AM 1.33 34.394 0.05 6.72 2.49 14.04
1/16/2023 2:15:00 AM 1.3 34.34 0.047 6.72 3.34 14.06
1/16/2023 2:30:00 AM 1.26 34.268 0.05 6.71 2.55 14.07
1/16/2023 2:45:00 AM 1.23 34.214 0.05 6.7 2.51 14.08
1/16/2023 3:00:00 AM 1.19 34.142 0.05 6.7 2.5 14.09
1/16/2023 3:15:00 AM 1.16 34.088 0.047 6.7 3.21 14.1
1/16/2023 3:30:00 AM 1.13 34.034 0.05 6.69 2.46 14.12
1/16/2023 3:45:00 AM 1.09 33.962 0.05 6.69 2.46 14.13
1/16/2023 4:00:00 AM 1.07 33.926 0.05 6.69 2.48 14.14
1/16/2023 4:15:00 AM 1.03 33.854 0.047 6.7 3.23 14.16
1/16/2023 4:30:00 AM 1 33.8 0.05 6.69 2.46 14.17
1/16/2023 4:45:00 AM 0.96 33.728 0.05 6.69 2.47 14.19
1/16/2023 5:00:00 AM 0.93 33.674 0.05 6.69 2.42 14.21
1/16/2023 5:15:00 AM 0.9 33.62 0.05 6.69 2.45 14.22
1/16/2023 5:30:00 AM 0.87 33.566 0.05 6.69 2.45 14.24
1/16/2023 5:45:00 AM 0.84 33.512 0.05 6.68 2.46 14.25
1/16/2023 6:00:00 AM 0.81 33.458 0.047 6.69 3.1 14.26
1/16/2023 6:15:00 AM 0.77 33.386 0.05 6.68 2.41 14.28
1/16/2023 6:30:00 AM 0.75 33.35 0.05 6.69 2.41 14.29
1/16/2023 6:45:00 AM 0.72 33.296 0.05 6.68 2.43 14.3
1/16/2023 7:00:00 AM 0.69 33.242 0.047 6.68 3.31 14.31
1/16/2023 7:15:00 AM 0.65 33.17 0.047 6.69 3.07 14.33
1/16/2023 7:30:00 AM 0.62 33.116 0.049 6.68 2.39 14.34
1/16/2023 7:45:00 AM 0.6 33.08 0.05 6.69 2.37 14.35
1/16/2023 8:00:00 AM 0.57 33.026 0.049 6.69 2.36 14.39
1/16/2023 8:15:00 AM 0.55 32.99 0.05 6.7 2.32 14.44
1/16/2023 8:30:00 AM 0.53 32.954 0.047 6.72 2.95 14.49
1/16/2023 8:45:00 AM 0.52 32.936 0.047 6.73 2.93 14.55
1/16/2023 9:00:00 AM 0.52